U26407 / G-EZBK 7700 Squawk Report (20th of November, 2017)

Aircraft A319 Reg No. G-EZBK Age 10 years old
Model A319 Jet engines 2 First flight 05-02-07
Registered 22-02-07 Rollout 02-07 Delivered 22-02-07
Construction No. 3041 Line No. N/A Series 111
ADSHEX 400FDC Airline name EasyJet Owner N/A
Airfield based Luton~Beds~G First tracked 2011-04-01 15:13:03

Flight history for G-EZBK

Route Flight No Date Playback
Schiphol (AMS) - Gatwick (LGW) U28874 2017-12-11 14:12:00
Gatwick (LGW) - Schiphol (AMS) U28873 2017-12-11 12:41:00
Isle Of Man (IOM) - Gatwick (LGW) U2856 2017-12-10 22:08:00
Gatwick (LGW) - Isle Of Man (IOM) U2855 2017-12-10 19:46:00
Inverness (INV) - Gatwick (LGW) U2864 2017-12-10 17:47:00
Gatwick (LGW) - Inverness (INV) U2863 2017-12-10 16:24:00
Pisa (PSA) - Gatwick (LGW) U28232 2017-12-10 13:13:00
Gatwick (LGW) - Pisa (PSA) U28231 2017-12-10 10:45:00
Franz Josef Strauss (MUC) - Gatwick (LGW) U28986 2017-12-09 16:39:00
Gatwick (LGW) - Franz Josef Strauss (MUC) U28985 2017-12-09 14:03:00
Balice (KRK) - Gatwick (LGW) U28512 2017-12-09 12:27:00
Gatwick (LGW) - Balice (KRK) U28511 2017-12-09 08:00:00
Barajas (MAD) - Gatwick (LGW) U28282 2017-12-08 22:41:00
Gatwick (LGW) - Barajas (MAD) U28281 2017-12-08 19:23:00
Malaga (AGP) - Gatwick (LGW) U28606 2017-12-08 15:50:00
Gatwick (LGW) - Malaga (AGP) U28605 2017-12-08 11:53:00
Alicante (ALC) - Gatwick (LGW) U28668 2017-12-08 09:35:00
Gatwick (LGW) - Alicante (ALC) U28667 2017-12-07 20:16:00
Balice (KRK) - Gatwick (LGW) U28512 2017-12-04 15:17:00
Gatwick (LGW) - Balice (KRK) U28511 2017-12-04 11:49:00
Time Lat Lon Altitude Heading Speed Vertical Rate
2017-11-20 16:02:24 GMT 48.50087 -4.14958 2,225 292 195 0
2017-11-20 16:02:16 GMT 48.49828 -4.14023 2,225 293 196 -64
2017-11-20 16:02:05 GMT 48.49452 -4.12614 2,250 292 195 -64
2017-11-20 16:01:56 GMT 48.49150 -4.11452 2,250 294 194 128
2017-11-20 16:01:45 GMT 48.48642 -4.10100 2,250 316 204 0
2017-11-20 16:01:35 GMT 48.47896 -4.09304 2,250 339 220 -512
2017-11-20 16:01:25 GMT 48.46875 -4.08966 2,375 0 236 -704
2017-11-20 16:01:14 GMT 48.45725 -4.08988 2,500 1 241 -896
2017-11-20 16:01:04 GMT 48.44556 -4.09024 2,725 1 243 -1600
2017-11-20 16:00:54 GMT 48.43430 -4.09067 3,025 1 243 -1472
2017-11-20 16:00:47 GMT 48.42517 -4.09114 3,200 1 248 -1088
2017-11-20 16:00:44 GMT 48.42247 -4.09125 3,225 1 248 -1024
2017-11-20 16:00:38 GMT 48.41528 -4.09163 3,350 1 255 -960
2017-11-20 16:00:33 GMT 48.41056 -4.09183 3,400 1 257 -960
2017-11-20 16:00:28 GMT 48.40338 -4.09206 3,500 1 263 -1152
2017-11-20 16:00:23 GMT 48.39816 -4.09227 3,600 1 267 -1280
2017-11-20 16:00:12 GMT 48.38486 -4.09277 3,875 1 272 -2560
2017-11-20 16:00:08 GMT 48.37792 -4.09306 4,150 1 271 -2560
2017-11-20 16:00:03 GMT 48.37155 -4.09328 4,300 1 271 -2368
2017-11-20 15:59:57 GMT 48.36591 -4.09356 4,525 1 272 -2112
2017-11-20 15:59:52 GMT 48.35968 -4.09378 4,675 1 275 -1920
2017-11-20 15:59:42 GMT 48.34630 -4.09445 5,000 2 282 -1280
2017-11-20 15:59:34 GMT 48.33618 -4.09508 5,150 2 292 -1088
2017-11-20 15:59:31 GMT 48.32991 -4.09544 5,200 2 295 -1088
2017-11-20 15:59:26 GMT 48.32483 -4.09579 5,300 2 303 -1152
2017-11-20 15:59:21 GMT 48.31824 -4.09624 5,375 2 308 -1216
2017-11-20 15:59:14 GMT 48.30812 -4.09699 5,525 2 319 -1088
2017-11-20 15:59:11 GMT 48.30311 -4.09732 5,575 2 322 -960
2017-11-20 15:59:01 GMT 48.28780 -4.09832 5,725 2 340 -704
2017-11-20 15:58:54 GMT 48.27788 -4.09898 5,775 2 356 -576
2017-11-20 15:58:51 GMT 48.27164 -4.09931 5,800 1 361 -640
2017-11-20 15:58:40 GMT 48.25401 -4.10022 5,925 1 369 -576
2017-11-20 15:58:34 GMT 48.24133 -4.10079 5,975 1 372 -128
2017-11-20 15:58:30 GMT 48.23611 -4.10107 6,000 1 372 -64
2017-11-20 15:58:24 GMT 48.22616 -4.10144 6,000 1 373 -64
2017-11-20 15:58:24 GMT 48.22616 -4.10144 6,000 1 373 -64
2017-11-20 15:58:20 GMT 48.21844 -4.10173 6,000 1 374 -320
2017-11-20 15:58:15 GMT 48.20810 -4.10209 6,025 1 376 -768
2017-11-20 15:58:09 GMT 48.19876 -4.10241 6,100 1 380 -1216
2017-11-20 15:58:03 GMT 48.18790 -4.10281 6,250 1 381 -1792
2017-11-20 15:57:59 GMT 48.18260 -4.10304 6,325 1 381 -1856
2017-11-20 15:57:53 GMT 48.17212 -4.10353 6,525 1 381 -2368
2017-11-20 15:57:48 GMT 48.16313 -4.10390 6,725 1 383 -2816
2017-11-20 15:57:40 GMT 48.14837 -4.10452 7,100 1 383 -2816
2017-11-20 15:57:38 GMT 48.14571 -4.10463 7,175 1 385 -3072
2017-11-20 15:57:34 GMT 48.13622 -4.10501 7,450 1 385 -3136
2017-11-20 15:57:32 GMT 48.13543 -4.10501 7,475 1 386 -3456
2017-11-20 15:57:28 GMT 48.12785 -4.10532 7,725 1 386 -3584
2017-11-20 15:57:25 GMT 48.12254 -4.10558 7,900 1 386 -3584
2017-11-20 15:57:17 GMT 48.10881 -4.10621 8,325 1 387 -3136
2017-11-20 15:57:07 GMT 48.08786 -4.10720 8,875 1 389 -3136
2017-11-20 15:57:07 GMT 48.09042 -4.10706 8,850 1 389 -3136
2017-11-20 15:57:03 GMT 48.08236 -4.10748 9,075 1 390 -3136
2017-11-20 15:56:57 GMT 48.07161 -4.10797 9,375 1 391 -3136
2017-11-20 15:56:52 GMT 48.06235 -4.10839 9,650 1 393 -2688
2017-11-20 15:56:47 GMT 48.05341 -4.10882 9,825 1 396 -2304
2017-11-20 15:56:42 GMT 48.04253 -4.10937 10,025 1 398 -2880
2017-11-20 15:56:36 GMT 48.03376 -4.10980 10,325 2 398 -3584
2017-11-20 15:56:31 GMT 48.02478 -4.11029 10,625 2 398 -3584
2017-11-20 15:56:26 GMT 48.01305 -4.11088 10,925 1 399 -3136
2017-11-20 15:56:22 GMT 48.00709 -4.11114 11,150 1 400 -3008
2017-11-20 15:56:15 GMT 47.99522 -4.11170 11,425 1 401 -2624
2017-11-20 15:56:12 GMT 47.98883 -4.11198 11,575 1 402 -2176
2017-11-20 15:56:05 GMT 47.97693 -4.11246 11,800 1 404 -1664
2017-11-20 15:55:59 GMT 47.96542 -4.11297 11,925 1 405 -896
2017-11-20 15:55:54 GMT 47.95653 -4.11332 11,975 1 406 -192
2017-11-20 15:55:51 GMT 47.94978 -4.11368 12,000 1 407 0
2017-11-20 15:55:45 GMT 47.93811 -4.11417 12,000 1 407 0
2017-11-20 15:55:41 GMT 47.93172 -4.11452 12,000 1 407 0
2017-11-20 15:55:34 GMT 47.91887 -4.11515 12,000 1 407 0
2017-11-20 15:55:31 GMT 47.91321 -4.11541 12,000 1 407 -64
2017-11-20 15:55:24 GMT 47.89957 -4.11610 12,000 1 407 -64
2017-11-20 15:55:21 GMT 47.89197 -4.11644 12,000 1 407 -64
2017-11-20 15:55:14 GMT 47.88028 -4.11699 12,000 1 407 0
2017-11-20 15:55:11 GMT 47.87427 -4.11727 12,000 1 407 0
2017-11-20 15:55:03 GMT 47.86061 -4.11788 12,000 1 408 0
2017-11-20 15:55:00 GMT 47.85337 -4.11818 12,000 1 408 0
2017-11-20 15:54:53 GMT 47.84170 -4.11871 12,000 1 408 0
2017-11-20 15:54:51 GMT 47.83649 -4.11891 12,000 1 408 0
2017-11-20 15:54:42 GMT 47.82033 -4.11967 12,000 1 408 0
2017-11-20 15:54:40 GMT 47.81715 -4.11980 12,000 1 408 0
2017-11-20 15:54:33 GMT 47.80225 -4.12049 12,000 1 408 0
2017-11-20 15:54:31 GMT 47.79821 -4.12065 12,000 1 408 0
2017-11-20 15:54:22 GMT 47.78327 -4.12128 12,000 1 408 0
2017-11-20 15:54:19 GMT 47.77611 -4.12159 12,000 1 408 0
2017-11-20 15:54:12 GMT 47.76357 -4.12213 12,000 1 408 0
2017-11-20 15:54:10 GMT 47.75922 -4.12235 12,000 1 408 0
2017-11-20 15:54:02 GMT 47.74472 -4.12297 12,000 1 408 0
2017-11-20 15:53:52 GMT 47.72498 -4.12389 12,000 1 408 0
2017-11-20 15:53:48 GMT 47.71818 -4.12417 12,000 1 408 -64
2017-11-20 15:53:41 GMT 47.70529 -4.12480 12,000 1 408 -64
2017-11-20 15:53:34 GMT 47.69078 -4.12544 12,000 1 407 0
2017-11-20 15:53:30 GMT 47.68439 -4.12572 12,000 1 407 64
2017-11-20 15:53:28 GMT 47.67997 -4.12593 12,000 1 408 64
2017-11-20 15:53:20 GMT 47.66633 -4.12656 12,000 1 408 64
2017-11-20 15:53:11 GMT 47.64733 -4.12748 12,000 1 409 0
2017-11-20 15:53:10 GMT 47.64733 -4.12748 12,000 1 409 0
2017-11-20 15:53:00 GMT 47.62715 -4.12846 12,000 1 408 0
2017-11-20 15:52:50 GMT 47.60818 -4.12938 12,000 1 408 0
2017-11-20 15:52:40 GMT 47.58933 -4.13030 12,000 1 408 0
2017-11-20 15:52:29 GMT 47.56964 -4.13121 12,000 1 408 0
2017-11-20 15:52:19 GMT 47.54794 -4.13213 12,000 1 408 0
2017-11-20 15:52:09 GMT 47.53095 -4.13283 12,000 1 409 0
2017-11-20 15:51:58 GMT 47.51161 -4.13368 12,000 1 409 0
2017-11-20 15:51:48 GMT 47.49220 -4.13457 12,000 1 410 -64
2017-11-20 15:51:38 GMT 47.47011 -4.13551 12,000 1 409 0
2017-11-20 15:51:38 GMT 47.47011 -4.13551 12,000 1 409 0
2017-11-20 15:51:27 GMT 47.45223 -4.13621 12,000 1 409 0
2017-11-20 15:51:27 GMT 47.45223 -4.13621 12,000 1 409 0
2017-11-20 15:51:18 GMT 47.43328 -4.13699 12,000 1 409 0
2017-11-20 15:51:06 GMT 47.41308 -4.13776 12,000 1 409 0
2017-11-20 15:51:02 GMT 47.40221 -4.13821 12,000 1 409 0
2017-11-20 15:50:55 GMT 47.39176 -4.13861 12,000 1 409 0
2017-11-20 15:50:46 GMT 47.37365 -4.13931 12,000 1 408 0
2017-11-20 15:50:36 GMT 47.35428 -4.14020 12,000 1 409 0
2017-11-20 15:50:25 GMT 47.33409 -4.14109 12,000 1 408 0
2017-11-20 15:50:15 GMT 47.31519 -4.14191 12,000 1 408 64
2017-11-20 15:50:04 GMT 47.29468 -4.14274 12,000 1 407 -64
2017-11-20 15:49:54 GMT 47.27627 -4.14346 12,000 1 405 0
2017-11-20 15:49:43 GMT 47.25682 -4.14432 12,000 1 400 64
2017-11-20 15:49:33 GMT 47.23786 -4.14508 12,000 1 400 -64
2017-11-20 15:49:23 GMT 47.21938 -4.14586 12,000 1 395 64
2017-11-20 15:49:12 GMT 47.19873 -4.14672 12,000 1 394 0
2017-11-20 15:49:03 GMT 47.18158 -4.14748 12,000 1 394 -64
2017-11-20 15:48:51 GMT 47.16142 -4.14837 12,025 1 393 -384
2017-11-20 15:48:42 GMT 47.14211 -4.14926 12,100 1 396 -896
2017-11-20 15:48:31 GMT 47.12471 -4.15002 12,300 1 402 -1792
2017-11-20 15:48:22 GMT 47.10640 -4.15079 12,625 1 408 -2624
2017-11-20 15:48:12 GMT 47.08694 -4.15142 13,125 1 409 -3776
2017-11-20 15:48:04 GMT 47.07255 -4.15178 13,625 0 405 -4288
2017-11-20 15:48:01 GMT 47.06729 -4.15192 13,825 0 405 -4352
2017-11-20 15:47:56 GMT 47.05769 -4.15208 14,175 0 404 -3456
2017-11-20 15:47:51 GMT 47.04813 -4.15228 14,475 0 404 -3392
2017-11-20 15:47:44 GMT 47.03661 -4.15248 14,800 0 405 -3264
2017-11-20 15:47:40 GMT 47.02693 -4.15262 15,075 0 406 -3264
2017-11-20 15:47:32 GMT 47.01292 -4.15311 15,500 1 407 -4096
2017-11-20 15:47:30 GMT 47.00894 -4.15324 15,650 1 408 -4288
2017-11-20 15:47:19 GMT 46.98953 -4.15421 16,400 2 413 -4608
2017-11-20 15:47:14 GMT 46.97882 -4.15469 16,825 0 416 -4864
2017-11-20 15:47:10 GMT 46.96870 -4.15441 17,225 357 415 -5056
2017-11-20 15:47:02 GMT 46.95644 -4.15269 17,775 349 414 -5376
2017-11-20 15:46:59 GMT 46.94807 -4.15044 18,075 348 415 -5312
2017-11-20 15:46:50 GMT 46.93414 -4.14500 18,800 342 415 -5312
2017-11-20 15:46:48 GMT 46.93030 -4.14301 18,975 340 416 -5440
2017-11-20 15:46:41 GMT 46.91849 -4.13580 19,575 334 415 -5888
2017-11-20 15:46:38 GMT 46.91334 -4.13199 19,875 331 415 -6080
2017-11-20 15:46:28 GMT 46.89584 -4.11572 20,975 323 412 -6464
2017-11-20 15:46:18 GMT 46.88020 -4.09537 22,000 314 411 -6528
2017-11-20 15:46:08 GMT 46.86917 -4.07621 23,100 305 408 -6976
2017-11-20 15:45:58 GMT 46.85838 -4.05074 24,275 298 410 -5632
2017-11-20 15:45:47 GMT 46.85096 -4.02587 25,225 289 412 -6464
2017-11-20 15:45:37 GMT 46.84630 -4.00070 26,275 280 411 -6720
2017-11-20 15:45:35 GMT 46.84556 -3.99442 26,500 280 410 -6656
2017-11-20 15:45:31 GMT 46.84454 -3.98378 26,925 274 413 -5248
2017-11-20 15:45:26 GMT 46.84378 -3.96848 27,450 271 415 -5440
2017-11-20 15:45:16 GMT 46.84442 -3.94155 28,350 262 419 -6272
2017-11-20 15:45:16 GMT 46.84442 -3.94155 28,350 262 419 -6272
2017-11-20 15:45:14 GMT 46.84496 -3.93565 28,550 262 419 -6272
2017-11-20 15:45:08 GMT 46.84680 -3.92071 29,100 257 421 -5440
2017-11-20 15:45:06 GMT 46.84872 -3.90959 29,450 254 423 -5824
2017-11-20 15:45:01 GMT 46.85073 -3.90035 29,800 249 423 -6912
2017-11-20 15:44:58 GMT 46.85280 -3.89231 30,150 250 424 -6720
2017-11-20 15:44:55 GMT 46.85543 -3.88339 30,525 245 424 -6528
2017-11-20 15:44:52 GMT 46.85875 -3.87355 30,925 235 426 -6400
2017-11-20 15:44:44 GMT 46.86530 -3.85709 31,600 235 425 -6464
2017-11-20 15:44:39 GMT 46.87159 -3.84416 32,225 231 426 -6336
2017-11-20 15:44:37 GMT 46.87344 -3.84075 32,250 231 425 -6272
2017-11-20 15:44:35 GMT 46.87778 -3.83331 32,700 228 426 -6208
2017-11-20 15:44:32 GMT 46.88029 -3.82923 32,925 226 426 -6272
2017-11-20 15:44:29 GMT 46.88443 -3.82304 33,225 225 426 -6272
2017-11-20 15:44:27 GMT 46.88648 -3.82000 33,375 219 425 -6016
2017-11-20 15:44:24 GMT 46.89180 -3.81301 33,775 221 425 -6208
2017-11-20 15:44:21 GMT 46.89661 -3.80704 34,100 217 426 -5696
2017-11-20 15:44:18 GMT 46.90123 -3.80189 34,375 216 425 -5568
2017-11-20 15:44:14 GMT 46.90776 -3.79507 34,775 213 427 -4608
2017-11-20 15:44:11 GMT 46.91376 -3.78951 35,050 209 433 -3392
2017-11-20 15:44:08 GMT 46.91711 -3.78662 35,150 186 461 -1344
2017-11-20 15:44:03 GMT 46.92604 -3.77950 35,450 207 437 -3008
2017-11-20 15:44:00 GMT 46.93234 -3.77507 35,600 204 442 -2944
2017-11-20 15:43:57 GMT 46.93667 -3.77232 35,725 203 443 -2880
2017-11-20 15:43:53 GMT 46.94696 -3.76653 35,975 200 447 -2688
2017-11-20 15:43:48 GMT 46.95493 -3.76268 36,150 197 451 -2368
2017-11-20 15:43:45 GMT 46.95964 -3.76062 36,250 196 453 -2368
2017-11-20 15:43:43 GMT 46.96520 -3.75852 36,350 193 455 -2304
2017-11-20 15:43:39 GMT 46.97484 -3.75535 36,550 191 457 -2112
2017-11-20 15:43:36 GMT 46.97973 -3.75408 36,650 189 459 -1792
2017-11-20 15:43:32 GMT 46.98643 -3.75253 36,750 187 460 -1600
2017-11-20 15:43:29 GMT 46.99593 -3.75099 36,875 185 463 -960
2017-11-20 15:43:27 GMT 46.99770 -3.75077 36,900 185 463 -960
2017-11-20 15:43:23 GMT 47.01171 -3.74930 36,975 184 464 -384
2017-11-20 15:43:19 GMT 47.01686 -3.74888 37,000 184 465 0
2017-11-20 15:43:17 GMT 47.01967 -3.74859 37,000 184 465 0
2017-11-20 15:43:13 GMT 47.02785 -3.74785 37,025 184 465 0
2017-11-20 15:43:09 GMT 47.03563 -3.74709 37,025 184 465 0
2017-11-20 15:43:07 GMT 47.04071 -3.74661 37,025 184 465 0
2017-11-20 15:43:03 GMT 47.04845 -3.74593 37,025 184 465 0
2017-11-20 15:43:01 GMT 47.05307 -3.74551 37,025 184 465 0
2017-11-20 15:42:56 GMT 47.06357 -3.74451 37,025 184 465 0
2017-11-20 15:42:52 GMT 47.07275 -3.74366 37,025 184 465 0
2017-11-20 15:42:50 GMT 47.07687 -3.74325 37,025 184 465 0
2017-11-20 15:42:48 GMT 47.08237 -3.74275 37,025 184 465 0
2017-11-20 15:42:45 GMT 47.08827 -3.74215 37,025 184 465 -64
2017-11-20 15:42:43 GMT 47.09508 -3.74155 37,025 184 465 64
2017-11-20 15:42:41 GMT 47.09704 -3.74134 37,025 184 465 -64
2017-11-20 15:42:39 GMT 47.10118 -3.74091 37,025 184 465 0
2017-11-20 15:42:36 GMT 47.10849 -3.74028 37,025 184 465 0
2017-11-20 15:42:30 GMT 47.11990 -3.73920 37,025 184 465 128
2017-11-20 15:42:26 GMT 47.12958 -3.73831 37,025 184 465 128
2017-11-20 15:42:21 GMT 47.13912 -3.73739 37,025 184 465 64
2017-11-20 15:42:18 GMT 47.14601 -3.73676 37,000 184 465 64
2017-11-20 15:42:16 GMT 47.15149 -3.73624 37,000 184 465 64
2017-11-20 15:42:10 GMT 47.16342 -3.73521 37,000 184 465 64
2017-11-20 15:42:08 GMT 47.16757 -3.73479 37,000 184 465 64
2017-11-20 15:42:06 GMT 47.17348 -3.73429 37,000 184 465 0
2017-11-20 15:42:01 GMT 47.18311 -3.73338 37,000 184 465 -64
2017-11-20 15:41:58 GMT 47.18861 -3.73288 37,000 184 465 0
2017-11-20 15:41:54 GMT 47.19736 -3.73206 37,000 184 465 64
2017-11-20 15:41:49 GMT 47.20783 -3.73113 37,000 184 465 64
2017-11-20 15:41:47 GMT 47.21196 -3.73068 37,000 184 465 64
2017-11-20 15:41:45 GMT 47.21704 -3.73020 37,000 184 465 64
2017-11-20 15:41:43 GMT 47.22348 -3.72965 37,000 184 465 0
2017-11-20 15:41:39 GMT 47.23293 -3.72876 37,000 184 465 0
2017-11-20 15:41:37 GMT 47.23489 -3.72855 37,000 184 465 0
2017-11-20 15:41:35 GMT 47.23947 -3.72814 37,000 184 465 0
2017-11-20 15:41:33 GMT 47.24359 -3.72773 37,000 184 465 0
2017-11-20 15:41:30 GMT 47.25215 -3.72690 37,000 184 465 64
2017-11-20 15:41:28 GMT 47.25592 -3.72655 37,000 184 465 64
2017-11-20 15:41:24 GMT 47.26100 -3.72606 37,000 184 465 64
2017-11-20 15:41:22 GMT 47.26770 -3.72542 37,000 184 465 64
2017-11-20 15:41:19 GMT 47.27293 -3.72492 37,000 184 465 0
2017-11-20 15:41:17 GMT 47.27788 -3.72443 37,000 184 465 0
2017-11-20 15:41:14 GMT 47.28296 -3.72395 37,000 184 465 0
2017-11-20 15:41:12 GMT 47.28662 -3.72354 37,000 184 465 0
2017-11-20 15:41:09 GMT 47.29436 -3.72286 37,000 184 464 0
2017-11-20 15:41:07 GMT 47.30080 -3.72218 37,000 184 464 0
2017-11-20 15:41:04 GMT 47.30534 -3.72176 37,000 184 464 0
2017-11-20 15:41:02 GMT 47.31134 -3.72121 37,000 184 464 0
2017-11-20 15:40:59 GMT 47.31588 -3.72077 37,000 184 464 0
2017-11-20 15:40:56 GMT 47.32315 -3.72011 37,000 184 464 0
2017-11-20 15:40:53 GMT 47.32864 -3.71956 37,000 184 464 0
2017-11-20 15:40:51 GMT 47.33276 -3.71915 37,000 184 464 0
2017-11-20 15:40:49 GMT 47.33780 -3.71874 37,000 184 464 0
2017-11-20 15:40:47 GMT 47.34013 -3.71852 37,000 184 464 0
2017-11-20 15:40:44 GMT 47.34833 -3.71771 37,000 184 464 0
2017-11-20 15:40:41 GMT 47.35471 -3.71711 37,000 184 464 0
2017-11-20 15:40:38 GMT 47.35973 -3.71662 37,000 184 464 0
2017-11-20 15:40:36 GMT 47.36700 -3.71592 37,000 184 464 0
2017-11-20 15:40:33 GMT 47.37026 -3.71564 37,000 184 464 0
2017-11-20 15:40:31 GMT 47.37662 -3.71503 37,000 184 463 0
2017-11-20 15:40:31 GMT 47.37662 -3.71503 37,000 184 463 0
2017-11-20 15:40:28 GMT 47.38306 -3.71443 37,000 184 463 0
2017-11-20 15:40:26 GMT 47.38929 -3.71387 37,000 184 463 0
2017-11-20 15:40:24 GMT 47.39218 -3.71359 37,000 184 463 0
2017-11-20 15:40:20 GMT 47.40042 -3.71283 37,000 184 463 0
2017-11-20 15:40:19 GMT 47.40042 -3.71283 37,000 184 463 0
2017-11-20 15:40:17 GMT 47.40449 -3.71242 37,000 184 463 0
2017-11-20 15:40:15 GMT 47.41043 -3.71190 37,000 184 463 0
2017-11-20 15:40:13 GMT 47.41498 -3.71146 37,000 184 463 0
2017-11-20 15:40:09 GMT 47.42230 -3.71077 37,000 184 463 0
2017-11-20 15:40:09 GMT 47.42230 -3.71077 37,000 184 463 0
2017-11-20 15:40:07 GMT 47.42728 -3.71028 37,000 184 463 0
2017-11-20 15:40:05 GMT 47.43096 -3.70993 37,000 184 463 0
2017-11-20 15:40:03 GMT 47.43813 -3.70922 37,000 184 463 0
2017-11-20 15:39:59 GMT 47.44423 -3.70864 37,025 184 463 0
2017-11-20 15:39:56 GMT 47.45013 -3.70809 37,000 184 463 0
2017-11-20 15:39:53 GMT 47.45792 -3.70741 37,025 184 463 0
2017-11-20 15:39:51 GMT 47.46150 -3.70704 37,025 184 463 0
2017-11-20 15:39:47 GMT 47.46973 -3.70624 37,025 184 463 0
2017-11-20 15:39:45 GMT 47.47476 -3.70576 37,025 184 463 0
2017-11-20 15:39:43 GMT 47.48026 -3.70521 37,025 184 463 0
2017-11-20 15:39:41 GMT 47.48300 -3.70500 37,025 184 463 0
2017-11-20 15:39:39 GMT 47.48753 -3.70452 37,025 184 463 0
2017-11-20 15:39:36 GMT 47.49532 -3.70377 37,025 184 463 64
2017-11-20 15:39:34 GMT 47.49898 -3.70342 37,025 184 463 0
2017-11-20 15:39:33 GMT 47.49985 -3.70335 37,025 184 463 64
2017-11-20 15:39:31 GMT 47.50628 -3.70275 37,025 184 463 64
2017-11-20 15:39:28 GMT 47.51038 -3.70232 37,025 184 463 64
2017-11-20 15:39:26 GMT 47.51447 -3.70197 37,025 184 463 64
2017-11-20 15:39:24 GMT 47.52048 -3.70141 37,000 184 463 64
2017-11-20 15:39:22 GMT 47.52620 -3.70091 37,000 184 463 64
2017-11-20 15:39:18 GMT 47.53134 -3.70040 37,000 184 463 64
2017-11-20 15:39:16 GMT 47.53682 -3.69993 37,000 184 463 64
2017-11-20 15:39:14 GMT 47.54049 -3.69958 37,000 184 463 0
2017-11-20 15:39:12 GMT 47.54599 -3.69903 37,000 184 463 0
2017-11-20 15:39:10 GMT 47.54967 -3.69873 37,000 184 463 0
2017-11-20 15:39:07 GMT 47.55515 -3.69820 37,000 184 463 0
2017-11-20 15:39:05 GMT 47.55968 -3.69779 37,000 184 463 0
2017-11-20 15:39:03 GMT 47.56471 -3.69731 37,000 184 463 0
2017-11-20 15:39:00 GMT 47.57196 -3.69662 37,000 184 463 0
2017-11-20 15:38:55 GMT 47.58197 -3.69566 37,000 184 463 64
2017-11-20 15:38:52 GMT 47.58884 -3.69504 37,000 184 463 64
2017-11-20 15:38:49 GMT 47.59431 -3.69450 37,000 184 463 64
2017-11-20 15:38:45 GMT 47.60260 -3.69373 37,000 184 463 64
2017-11-20 15:38:41 GMT 47.61205 -3.69281 37,000 184 463 64
2017-11-20 15:38:38 GMT 47.61845 -3.69223 37,000 184 463 64
2017-11-20 15:38:34 GMT 47.62489 -3.69162 37,000 184 463 64
2017-11-20 15:38:31 GMT 47.63351 -3.69077 37,000 184 463 64
2017-11-20 15:38:28 GMT 47.63992 -3.69017 37,000 184 463 64
2017-11-20 15:38:24 GMT 47.64719 -3.68951 37,000 184 463 0
2017-11-20 15:38:22 GMT 47.65361 -3.68893 37,000 184 463 0
2017-11-20 15:38:20 GMT 47.65497 -3.68880 37,000 184 463 0
2017-11-20 15:38:17 GMT 47.66222 -3.68811 37,000 184 462 0
2017-11-20 15:38:14 GMT 47.66904 -3.68749 37,000 184 462 0
2017-11-20 15:38:12 GMT 47.67316 -3.68708 37,000 184 462 0
2017-11-20 15:38:10 GMT 47.67848 -3.68662 37,000 184 462 0
2017-11-20 15:38:08 GMT 47.68364 -3.68612 37,000 184 462 0
2017-11-20 15:38:03 GMT 47.69142 -3.68535 37,000 184 462 0
2017-11-20 15:38:00 GMT 47.69910 -3.68465 37,000 184 462 0
2017-11-20 15:37:57 GMT 47.70552 -3.68399 36,975 184 462 0
2017-11-20 15:37:57 GMT 47.70552 -3.68399 36,975 184 462 0
2017-11-20 15:37:52 GMT 47.71591 -3.68303 36,975 184 462 0
2017-11-20 15:37:50 GMT 47.72003 -3.68262 36,975 184 462 64
2017-11-20 15:37:47 GMT 47.72642 -3.68204 36,975 184 462 64
2017-11-20 15:37:45 GMT 47.73094 -3.68155 36,975 184 462 64
2017-11-20 15:37:41 GMT 47.73923 -3.68077 36,975 184 462 0
2017-11-20 15:37:39 GMT 47.74237 -3.68049 36,975 184 462 -64
2017-11-20 15:37:36 GMT 47.74961 -3.67979 36,975 184 462 -64
2017-11-20 15:37:33 GMT 47.75780 -3.67898 37,000 184 461 -64
2017-11-20 15:37:31 GMT 47.75958 -3.67884 37,000 184 461 -64
2017-11-20 15:37:30 GMT 47.76581 -3.67822 37,000 184 462 -64
2017-11-20 15:37:29 GMT 47.76640 -3.67815 37,000 184 462 -64
2017-11-20 15:37:26 GMT 47.77144 -3.67767 37,000 184 462 -64
2017-11-20 15:37:22 GMT 47.78005 -3.67685 37,000 184 462 0
2017-11-20 15:37:20 GMT 47.78330 -3.67651 37,000 184 462 0
2017-11-20 15:37:18 GMT 47.78915 -3.67596 37,000 184 461 0
2017-11-20 15:37:16 GMT 47.79364 -3.67548 37,000 184 461 0
2017-11-20 15:37:12 GMT 47.80142 -3.67471 37,000 184 461 0
2017-11-20 15:37:09 GMT 47.80866 -3.67403 37,000 184 461 64
2017-11-20 15:37:05 GMT 47.81599 -3.67331 37,000 184 461 64
2017-11-20 15:37:00 GMT 47.82687 -3.67225 37,000 184 461 0
2017-11-20 15:36:58 GMT 47.82959 -3.67204 37,000 184 461 0
2017-11-20 15:36:56 GMT 47.83507 -3.67149 37,000 184 461 0
2017-11-20 15:36:54 GMT 47.83913 -3.67112 37,000 184 461 0
2017-11-20 15:36:50 GMT 47.84816 -3.67026 37,000 184 461 0
2017-11-20 15:36:48 GMT 47.85361 -3.66972 37,000 184 461 0
2017-11-20 15:36:45 GMT 47.86002 -3.66909 37,000 184 461 0
2017-11-20 15:36:40 GMT 47.86869 -3.66824 37,000 184 461 0
2017-11-20 15:36:38 GMT 47.87409 -3.66774 37,000 184 461 0
2017-11-20 15:36:34 GMT 47.88233 -3.66697 37,000 184 461 128
2017-11-20 15:36:31 GMT 47.88861 -3.66634 37,000 184 461 128
2017-11-20 15:36:29 GMT 47.89271 -3.66591 37,000 184 461 64
2017-11-20 15:36:27 GMT 47.89681 -3.66549 37,000 184 461 64
2017-11-20 15:36:25 GMT 47.90132 -3.66507 37,000 184 462 64
2017-11-20 15:36:23 GMT 47.90542 -3.66465 36,975 184 462 64
2017-11-20 15:36:20 GMT 47.91275 -3.66394 36,975 184 462 64
2017-11-20 15:36:17 GMT 47.91817 -3.66338 36,975 184 462 0
2017-11-20 15:36:13 GMT 47.92679 -3.66253 36,975 184 461 0
2017-11-20 15:36:10 GMT 47.93532 -3.66174 36,975 184 461 0
2017-11-20 15:36:07 GMT 47.93999 -3.66126 36,975 184 461 -64
2017-11-20 15:36:05 GMT 47.94411 -3.66085 36,975 184 461 0
2017-11-20 15:36:02 GMT 47.95048 -3.66028 37,000 184 461 0
2017-11-20 15:36:00 GMT 47.95500 -3.65986 37,000 184 461 0
2017-11-20 15:35:57 GMT 47.95949 -3.65941 37,000 184 461 0
2017-11-20 15:35:53 GMT 47.97134 -3.65824 37,000 184 461 0
2017-11-20 15:35:50 GMT 47.97588 -3.65783 37,000 184 461 64
2017-11-20 15:35:48 GMT 47.98037 -3.65739 37,000 184 461 0
2017-11-20 15:35:46 GMT 47.98499 -3.65700 37,000 184 461 64
2017-11-20 15:35:44 GMT 47.98952 -3.65659 37,000 184 461 64
2017-11-20 15:35:42 GMT 47.99317 -3.65619 37,000 184 461 64
2017-11-20 15:35:39 GMT 47.99820 -3.65577 36,975 184 461 64
2017-11-20 15:35:36 GMT 48.00627 -3.65501 36,975 184 461 64
2017-11-20 15:35:34 GMT 48.01172 -3.65447 36,975 184 462 64
2017-11-20 15:35:29 GMT 48.01991 -3.65371 36,975 184 462 0
2017-11-20 15:35:27 GMT 48.02536 -3.65316 36,975 184 462 0
2017-11-20 15:35:25 GMT 48.02906 -3.65281 36,975 184 462 0
2017-11-20 15:35:23 GMT 48.03273 -3.65247 36,975 184 462 0
2017-11-20 15:35:21 GMT 48.03841 -3.65192 36,975 184 462 0
2017-11-20 15:35:19 GMT 48.04225 -3.65158 36,975 184 462 0
2017-11-20 15:35:17 GMT 48.04591 -3.65119 36,975 184 462 0
2017-11-20 15:35:15 GMT 48.05276 -3.65056 37,000 184 462 0
2017-11-20 15:35:13 GMT 48.05727 -3.65014 36,975 184 462 64
2017-11-20 15:35:07 GMT 48.06766 -3.64918 36,975 184 462 64
2017-11-20 15:35:05 GMT 48.07132 -3.64877 36,975 184 462 64
2017-11-20 15:35:02 GMT 48.07776 -3.64817 36,975 184 462 64
2017-11-20 15:35:00 GMT 48.08047 -3.64787 36,975 184 462 0
2017-11-20 15:34:58 GMT 48.08679 -3.64725 36,975 184 462 0
2017-11-20 15:34:56 GMT 48.09046 -3.64690 36,975 184 462 0
2017-11-20 15:34:53 GMT 48.09590 -3.64636 36,975 184 462 0
2017-11-20 15:34:51 GMT 48.10052 -3.64591 36,975 184 462 0
2017-11-20 15:34:48 GMT 48.10776 -3.64520 36,975 184 463 -64
2017-11-20 15:34:45 GMT 48.11504 -3.64450 36,975 184 462 -64
2017-11-20 15:34:43 GMT 48.11820 -3.64423 36,975 184 462 -64
2017-11-20 15:34:41 GMT 48.12277 -3.64373 37,000 184 462 0
2017-11-20 15:34:38 GMT 48.12961 -3.64310 37,000 184 462 0
2017-11-20 15:34:36 GMT 48.13371 -3.64272 37,000 184 462 0
2017-11-20 15:34:33 GMT 48.14053 -3.64204 37,000 184 462 0
2017-11-20 15:34:31 GMT 48.14414 -3.64169 37,000 184 462 0
2017-11-20 15:34:26 GMT 48.15512 -3.64063 37,000 184 462 0
2017-11-20 15:34:24 GMT 48.16104 -3.64007 37,000 184 462 0
2017-11-20 15:34:20 GMT 48.16737 -3.63944 37,000 184 463 0
2017-11-20 15:34:20 GMT 48.16737 -3.63944 37,000 184 463 0
2017-11-20 15:34:16 GMT 48.17789 -3.63845 37,000 184 463 0
2017-11-20 15:34:14 GMT 48.18242 -3.63802 37,000 184 463 0
2017-11-20 15:34:12 GMT 48.18649 -3.63767 37,000 184 463 0
2017-11-20 15:34:10 GMT 48.18883 -3.63741 37,000 184 463 -64
2017-11-20 15:34:08 GMT 48.19199 -3.63713 37,000 184 463 -64
2017-11-20 15:34:06 GMT 48.19702 -3.63662 37,000 184 463 0
2017-11-20 15:34:04 GMT 48.20251 -3.63611 37,000 184 463 0
2017-11-20 15:34:00 GMT 48.20987 -3.63539 37,000 184 463 0
2017-11-20 15:33:58 GMT 48.21439 -3.63496 37,000 184 463 0
2017-11-20 15:33:55 GMT 48.22421 -3.63402 37,000 184 463 0
2017-11-20 15:33:53 GMT 48.22439 -3.63402 37,000 184 463 0
2017-11-20 15:33:50 GMT 48.23080 -3.63338 37,000 184 463 0
2017-11-20 15:33:48 GMT 48.23575 -3.63293 37,000 184 463 0
2017-11-20 15:33:46 GMT 48.24252 -3.63225 37,000 184 463 0
2017-11-20 15:33:44 GMT 48.24357 -3.63214 37,000 184 463 0
2017-11-20 15:33:42 GMT 48.24949 -3.63156 37,000 184 463 0
2017-11-20 15:33:40 GMT 48.25314 -3.63119 37,000 184 463 0
2017-11-20 15:33:37 GMT 48.25818 -3.63070 37,000 184 464 0
2017-11-20 15:33:35 GMT 48.26410 -3.63011 37,000 184 464 0
2017-11-20 15:33:33 GMT 48.26820 -3.62975 37,000 184 465 0
2017-11-20 15:33:29 GMT 48.27763 -3.62880 37,025 184 465 -64
2017-11-20 15:33:27 GMT 48.28012 -3.62852 37,025 184 465 -64
2017-11-20 15:33:25 GMT 48.28642 -3.62788 37,025 184 465 -64
2017-11-20 15:33:23 GMT 48.29228 -3.62732 37,025 184 465 -64
2017-11-20 15:33:21 GMT 48.29425 -3.62711 37,025 184 465 0
2017-11-20 15:33:19 GMT 48.29700 -3.62683 37,025 184 465 0
2017-11-20 15:33:17 GMT 48.30290 -3.62626 37,025 184 465 0
2017-11-20 15:33:15 GMT 48.30794 -3.62577 37,025 184 465 0
2017-11-20 15:33:13 GMT 48.31160 -3.62535 37,025 184 465 0
2017-11-20 15:33:11 GMT 48.31480 -3.62507 37,025 184 465 0
2017-11-20 15:33:09 GMT 48.31941 -3.62455 37,025 184 465 0
2017-11-20 15:33:06 GMT 48.32574 -3.62397 37,025 184 464 64
2017-11-20 15:33:03 GMT 48.33215 -3.62331 37,025 184 464 64
2017-11-20 15:33:00 GMT 48.33806 -3.62274 37,025 184 464 0
2017-11-20 15:32:57 GMT 48.34631 -3.62195 37,025 184 464 -64
2017-11-20 15:32:54 GMT 48.35179 -3.62140 37,025 184 464 -64
2017-11-20 15:32:52 GMT 48.35591 -3.62098 37,025 184 464 -64
2017-11-20 15:32:49 GMT 48.36182 -3.62042 37,025 184 464 -64
2017-11-20 15:32:46 GMT 48.36740 -3.61985 37,025 184 464 -64
2017-11-20 15:32:43 GMT 48.37555 -3.61908 37,025 184 464 0
2017-11-20 15:32:41 GMT 48.38017 -3.61866 37,050 184 464 0
2017-11-20 15:32:39 GMT 48.38429 -3.61823 37,050 184 464 0
2017-11-20 15:32:37 GMT 48.38791 -3.61788 37,050 184 464 0
2017-11-20 15:32:35 GMT 48.39116 -3.61753 37,050 184 464 0
2017-11-20 15:32:33 GMT 48.39752 -3.61696 37,050 184 464 0
2017-11-20 15:32:31 GMT 48.40171 -3.61653 37,050 184 464 64
2017-11-20 15:32:26 GMT 48.41493 -3.61523 37,050 184 464 64
2017-11-20 15:32:22 GMT 48.41996 -3.61479 37,025 184 464 64
2017-11-20 15:32:20 GMT 48.42317 -3.61443 37,050 184 464 64
2017-11-20 15:32:18 GMT 48.42862 -3.61392 37,025 184 464 64
2017-11-20 15:32:13 GMT 48.43961 -3.61284 37,025 184 464 64
2017-11-20 15:32:11 GMT 48.44279 -3.61253 37,025 184 464 64
2017-11-20 15:32:07 GMT 48.45152 -3.61168 37,025 184 465 64
2017-11-20 15:32:05 GMT 48.45925 -3.61089 37,025 184 465 64
2017-11-20 15:32:03 GMT 48.46372 -3.61049 37,025 184 465 64
2017-11-20 15:32:01 GMT 48.46664 -3.61021 37,025 184 465 64
2017-11-20 15:31:57 GMT 48.47396 -3.60944 37,000 184 465 64
2017-11-20 15:31:54 GMT 48.48125 -3.60873 37,000 184 465 64
2017-11-20 15:31:52 GMT 48.48495 -3.60836 37,000 184 465 0
2017-11-20 15:31:50 GMT 48.48903 -3.60802 37,000 184 465 0
2017-11-20 15:31:47 GMT 48.49498 -3.60739 37,000 184 465 0
2017-11-20 15:31:43 GMT 48.50459 -3.60647 37,000 184 465 0
2017-11-20 15:31:41 GMT 48.50871 -3.60612 37,000 184 465 0
2017-11-20 15:31:39 GMT 48.51283 -3.60570 37,000 184 465 0
2017-11-20 15:31:36 GMT 48.51791 -3.60525 37,000 184 465 0
2017-11-20 15:31:33 GMT 48.52753 -3.60429 37,000 184 465 0
2017-11-20 15:31:31 GMT 48.53285 -3.60380 37,000 184 465 0
2017-11-20 15:31:29 GMT 48.53397 -3.60366 37,000 184 465 64
2017-11-20 15:31:26 GMT 48.54039 -3.60302 37,000 184 465 64
2017-11-20 15:31:24 GMT 48.54356 -3.60272 37,000 184 465 64
2017-11-20 15:31:22 GMT 48.55045 -3.60207 37,000 184 465 64
2017-11-20 15:31:20 GMT 48.55266 -3.60182 37,000 184 465 64
2017-11-20 15:31:18 GMT 48.55636 -3.60149 37,000 184 465 64
2017-11-20 15:31:14 GMT 48.56595 -3.60055 37,000 184 464 64
2017-11-20 15:31:12 GMT 48.57102 -3.60005 37,000 184 464 64
2017-11-20 15:31:12 GMT 48.57102 -3.60005 37,000 184 464 64
2017-11-20 15:31:09 GMT 48.57738 -3.59943 37,000 184 464 64
2017-11-20 15:31:05 GMT 48.58559 -3.59860 37,000 184 464 0
2017-11-20 15:31:02 GMT 48.59203 -3.59802 37,000 184 464 0
2017-11-20 15:30:59 GMT 48.59798 -3.59739 37,000 184 464 0
2017-11-20 15:30:58 GMT 48.59985 -3.59725 37,000 184 464 0
2017-11-20 15:30:57 GMT 48.60397 -3.59682 37,000 184 464 0
2017-11-20 15:30:55 GMT 48.60808 -3.59643 37,000 184 464 0
2017-11-20 15:30:52 GMT 48.61441 -3.59577 37,000 184 464 0
2017-11-20 15:30:50 GMT 48.61627 -3.59564 37,000 184 465 0
2017-11-20 15:30:48 GMT 48.62083 -3.59513 37,000 184 464 0
2017-11-20 15:30:46 GMT 48.62493 -3.59477 37,000 184 464 0
2017-11-20 15:30:44 GMT 48.63043 -3.59422 37,000 184 464 64
2017-11-20 15:30:42 GMT 48.63634 -3.59361 37,000 184 464 64
2017-11-20 15:30:40 GMT 48.64000 -3.59323 37,000 184 464 64
2017-11-20 15:30:38 GMT 48.64325 -3.59295 37,000 184 464 64
2017-11-20 15:30:36 GMT 48.64821 -3.59246 36,975 184 464 0
2017-11-20 15:30:34 GMT 48.65239 -3.59202 37,000 184 464 0
2017-11-20 15:30:31 GMT 48.65872 -3.59140 37,000 184 464 0
2017-11-20 15:30:29 GMT 48.66325 -3.59091 37,000 184 463 0
2017-11-20 15:30:27 GMT 48.66559 -3.59070 37,000 184 463 0
2017-11-20 15:30:25 GMT 48.67102 -3.59014 37,000 184 463 0
2017-11-20 15:30:23 GMT 48.67419 -3.58985 37,000 184 463 0
2017-11-20 15:30:21 GMT 48.68010 -3.58922 37,000 184 463 0
2017-11-20 15:30:21 GMT 48.68010 -3.58922 37,000 184 463 0
2017-11-20 15:30:17 GMT 48.68829 -3.58841 37,000 184 464 0
2017-11-20 15:30:13 GMT 48.69649 -3.58760 37,000 184 463 0
2017-11-20 15:30:10 GMT 48.70335 -3.58697 37,000 184 463 0
2017-11-20 15:30:06 GMT 48.71017 -3.58626 37,000 184 463 0
2017-11-20 15:30:03 GMT 48.71837 -3.58542 37,000 184 463 0
2017-11-20 15:30:00 GMT 48.72432 -3.58480 37,000 184 463 0
2017-11-20 15:29:58 GMT 48.72748 -3.58451 37,000 184 463 0
2017-11-20 15:29:56 GMT 48.73340 -3.58393 37,000 184 463 0
2017-11-20 15:29:54 GMT 48.73663 -3.58358 37,000 184 463 0
2017-11-20 15:29:52 GMT 48.74210 -3.58306 37,000 184 463 0
2017-11-20 15:29:50 GMT 48.74620 -3.58263 37,000 184 462 0
2017-11-20 15:29:48 GMT 48.75071 -3.58219 37,000 184 462 0
2017-11-20 15:29:45 GMT 48.75618 -3.58161 37,000 184 462 0
2017-11-20 15:29:43 GMT 48.76072 -3.58118 37,000 184 462 0
2017-11-20 15:29:41 GMT 48.76435 -3.58082 37,000 184 462 0
2017-11-20 15:29:39 GMT 48.77165 -3.58013 37,000 184 462 0
2017-11-20 15:29:37 GMT 48.77490 -3.57978 37,000 184 462 0
2017-11-20 15:29:34 GMT 48.78307 -3.57901 37,000 184 462 0
2017-11-20 15:29:31 GMT 48.78667 -3.57866 37,000 184 462 0
2017-11-20 15:29:29 GMT 48.79033 -3.57837 37,000 184 462 0
2017-11-20 15:29:29 GMT 48.79033 -3.57837 37,000 184 462 0
2017-11-20 15:29:27 GMT 48.79536 -3.57788 37,000 184 462 -64
2017-11-20 15:29:27 GMT 48.79536 -3.57788 37,000 184 462 -64
2017-11-20 15:29:25 GMT 48.79945 -3.57742 37,000 184 462 0
2017-11-20 15:29:22 GMT 48.80658 -3.57677 37,000 184 463 0
2017-11-20 15:29:20 GMT 48.80987 -3.57640 37,025 184 463 -64
2017-11-20 15:29:18 GMT 48.81398 -3.57598 37,025 184 463 -64
2017-11-20 15:29:18 GMT 48.81262 -3.57612 37,025 184 463 -64
2017-11-20 15:29:14 GMT 48.82217 -3.57518 37,025 184 463 0
2017-11-20 15:29:11 GMT 48.83038 -3.57436 37,025 184 463 0
2017-11-20 15:29:09 GMT 48.83405 -3.57401 37,025 184 463 0
2017-11-20 15:29:08 GMT 48.83455 -3.57394 37,025 184 463 -64
2017-11-20 15:29:05 GMT 48.84137 -3.57323 37,025 184 463 0
2017-11-20 15:29:02 GMT 48.84861 -3.57251 37,025 184 463 0
2017-11-20 15:29:00 GMT 48.85364 -3.57200 37,025 184 463 0
2017-11-20 15:28:58 GMT 48.85588 -3.57175 37,025 184 463 0
2017-11-20 15:28:58 GMT 48.85588 -3.57175 37,025 184 463 0
2017-11-20 15:28:53 GMT 48.86775 -3.57056 37,025 184 463 0
2017-11-20 15:28:51 GMT 48.87437 -3.56992 37,025 184 463 0
2017-11-20 15:28:49 GMT 48.87678 -3.56969 37,025 184 463 0
2017-11-20 15:28:47 GMT 48.88000 -3.56936 37,025 184 463 0
2017-11-20 15:28:43 GMT 48.88776 -3.56860 37,025 184 462 0
2017-11-20 15:28:41 GMT 48.89269 -3.56809 37,025 184 462 0
2017-11-20 15:28:39 GMT 48.89859 -3.56753 37,025 184 462 64
2017-11-20 15:28:38 GMT 48.89951 -3.56739 37,025 184 462 0
2017-11-20 15:28:37 GMT 48.90182 -3.56716 37,025 184 462 64
2017-11-20 15:28:35 GMT 48.90499 -3.56687 37,025 184 462 64
2017-11-20 15:28:32 GMT 48.91272 -3.56608 37,025 184 462 64
2017-11-20 15:28:29 GMT 48.91905 -3.56549 37,025 184 462 64
2017-11-20 15:28:27 GMT 48.92272 -3.56514 37,025 184 462 64
2017-11-20 15:28:27 GMT 48.92184 -3.56521 37,025 184 462 64
2017-11-20 15:28:23 GMT 48.93004 -3.56436 37,025 184 462 64
2017-11-20 15:28:21 GMT 48.93636 -3.56372 37,025 184 462 64
2017-11-20 15:28:19 GMT 48.94302 -3.56311 37,025 184 462 64
2017-11-20 15:28:17 GMT 48.94368 -3.56302 37,025 184 463 64
2017-11-20 15:28:15 GMT 48.94768 -3.56261 37,025 184 463 64
2017-11-20 15:28:15 GMT 48.94768 -3.56261 37,025 184 463 64
2017-11-20 15:28:13 GMT 48.95316 -3.56203 37,000 184 463 64
2017-11-20 15:28:11 GMT 48.95680 -3.56167 37,000 184 462 64
2017-11-20 15:28:09 GMT 48.96323 -3.56109 37,000 184 462 0
2017-11-20 15:28:07 GMT 48.96501 -3.56091 37,000 184 462 0
2017-11-20 15:28:03 GMT 48.97669 -3.55971 37,000 184 463 0
2017-11-20 15:28:00 GMT 48.97961 -3.55943 37,000 184 463 0
2017-11-20 15:27:57 GMT 48.98644 -3.55872 37,000 184 463 0
2017-11-20 15:27:56 GMT 48.98864 -3.55849 37,000 184 463 0
2017-11-20 15:27:56 GMT 48.98864 -3.55849 37,000 184 463 0
2017-11-20 15:27:55 GMT 48.99274 -3.55812 37,025 184 463 0
2017-11-20 15:27:53 GMT 48.99408 -3.55795 37,025 184 463 0
2017-11-20 15:27:53 GMT 48.99408 -3.55795 37,025 184 463 0
2017-11-20 15:27:50 GMT 49.00144 -3.55719 37,025 184 462 0
2017-11-20 15:27:48 GMT 49.00549 -3.55682 37,025 184 462 64
2017-11-20 15:27:45 GMT 49.01138 -3.55619 37,025 184 462 64
2017-11-20 15:27:41 GMT 49.02136 -3.55520 37,000 184 462 64
2017-11-20 15:27:38 GMT 49.02910 -3.55436 37,000 184 462 64
2017-11-20 15:27:35 GMT 49.03235 -3.55408 37,000 184 462 64
2017-11-20 15:27:33 GMT 49.03867 -3.55344 37,000 184 462 64
2017-11-20 15:27:31 GMT 49.04366 -3.55288 37,000 184 462 0
2017-11-20 15:27:27 GMT 49.05048 -3.55218 37,000 184 462 0
2017-11-20 15:27:25 GMT 49.05460 -3.55175 37,000 184 462 0
2017-11-20 15:27:25 GMT 49.05460 -3.55175 37,000 184 462 0
2017-11-20 15:27:22 GMT 49.06001 -3.55119 37,000 184 462 0
2017-11-20 15:27:20 GMT 49.06545 -3.55061 37,000 184 462 -64
2017-11-20 15:27:18 GMT 49.07094 -3.55006 37,000 184 462 -64
2017-11-20 15:27:15 GMT 49.07849 -3.54931 37,000 184 462 0
2017-11-20 15:27:15 GMT 49.07849 -3.54931 37,000 184 462 0
2017-11-20 15:27:12 GMT 49.08128 -3.54902 37,000 184 460 192
2017-11-20 15:27:09 GMT 49.08808 -3.54830 37,000 184 460 192
2017-11-20 15:27:07 GMT 49.09311 -3.54779 37,000 184 460 192
2017-11-20 15:27:05 GMT 49.09762 -3.54736 37,000 184 461 192
2017-11-20 15:27:02 GMT 49.10399 -3.54668 36,975 184 460 -64
2017-11-20 15:27:00 GMT 49.10851 -3.54627 36,975 184 461 64
2017-11-20 15:26:57 GMT 49.11396 -3.54569 36,975 184 461 64
2017-11-20 15:26:54 GMT 49.12304 -3.54475 36,975 184 460 -64
2017-11-20 15:26:51 GMT 49.12667 -3.54439 36,975 184 460 0
2017-11-20 15:26:49 GMT 49.13214 -3.54386 36,975 184 460 -64
2017-11-20 15:26:46 GMT 49.13708 -3.54337 36,975 184 460 0
2017-11-20 15:26:43 GMT 49.14693 -3.54239 36,975 184 460 64
2017-11-20 15:26:41 GMT 49.14803 -3.54225 36,975 184 460 0
2017-11-20 15:26:39 GMT 49.15480 -3.54161 36,975 184 459 0
2017-11-20 15:26:36 GMT 49.15933 -3.54112 36,975 184 460 0
2017-11-20 15:26:34 GMT 49.16423 -3.54070 36,975 184 459 0
2017-11-20 15:26:30 GMT 49.17101 -3.53999 36,975 184 459 0
2017-11-20 15:26:28 GMT 49.17508 -3.53962 36,975 184 459 0
2017-11-20 15:26:28 GMT 49.17508 -3.53962 36,975 184 459 0
2017-11-20 15:26:26 GMT 49.18104 -3.53897 36,975 184 459 0
2017-11-20 15:26:24 GMT 49.18509 -3.53861 36,975 184 459 0
2017-11-20 15:26:22 GMT 49.18822 -3.53830 36,975 184 459 0
2017-11-20 15:26:19 GMT 49.19543 -3.53752 36,975 184 459 0
2017-11-20 15:26:17 GMT 49.19952 -3.53716 36,975 184 458 0
2017-11-20 15:26:15 GMT 49.20406 -3.53668 36,975 184 458 0
2017-11-20 15:26:12 GMT 49.20905 -3.53619 36,975 184 458 64
2017-11-20 15:26:09 GMT 49.21712 -3.53536 36,975 184 459 64
2017-11-20 15:26:07 GMT 49.22252 -3.53485 36,975 184 458 64
2017-11-20 15:26:04 GMT 49.22573 -3.53449 36,975 184 459 64
2017-11-20 15:26:02 GMT 49.23116 -3.53394 36,975 184 458 64
2017-11-20 15:25:59 GMT 49.23653 -3.53341 36,975 184 458 0
2017-11-20 15:25:57 GMT 49.24287 -3.53274 36,950 184 458 0
2017-11-20 15:25:54 GMT 49.25008 -3.53203 36,950 184 458 0
2017-11-20 15:25:52 GMT 49.25362 -3.53167 36,950 184 458 0
2017-11-20 15:25:48 GMT 49.26134 -3.53095 36,975 184 458 0
2017-11-20 15:25:45 GMT 49.26672 -3.53041 36,975 184 458 0
2017-11-20 15:25:42 GMT 49.27258 -3.52978 36,975 184 458 0
2017-11-20 15:25:40 GMT 49.28238 -3.52880 36,975 184 458 0
2017-11-20 15:25:38 GMT 49.28257 -3.52878 36,975 184 458 0
2017-11-20 15:25:34 GMT 49.29244 -3.52784 36,975 184 458 0
2017-11-20 15:25:32 GMT 49.29474 -3.52760 36,975 184 458 0
2017-11-20 15:25:28 GMT 49.30417 -3.52668 36,975 184 458 0
2017-11-20 15:25:26 GMT 49.30733 -3.52633 36,975 184 458 0
2017-11-20 15:25:22 GMT 49.31584 -3.52549 36,975 184 458 0
2017-11-20 15:25:20 GMT 49.31992 -3.52506 36,975 184 457 0
2017-11-20 15:25:18 GMT 49.32404 -3.52464 36,975 184 458 0
2017-11-20 15:25:16 GMT 49.32852 -3.52422 36,975 184 458 0
2017-11-20 15:25:12 GMT 49.33746 -3.52329 36,975 184 458 0
2017-11-20 15:25:10 GMT 49.34151 -3.52285 36,975 184 458 0
2017-11-20 15:25:07 GMT 49.34692 -3.52231 36,975 184 458 0
2017-11-20 15:25:04 GMT 49.35324 -3.52162 36,975 184 458 0
2017-11-20 15:25:02 GMT 49.35910 -3.52105 36,975 184 458 0
2017-11-20 15:24:59 GMT 49.36459 -3.52048 36,975 184 458 0
2017-11-20 15:24:56 GMT 49.37219 -3.51971 36,975 184 458 0
2017-11-20 15:24:54 GMT 49.37489 -3.51943 36,975 184 458 0
2017-11-20 15:24:50 GMT 49.38258 -3.51865 36,975 184 458 0
2017-11-20 15:24:47 GMT 49.39067 -3.51779 36,975 184 458 0
2017-11-20 15:24:44 GMT 49.39825 -3.51700 36,975 184 459 0
2017-11-20 15:24:42 GMT 49.40054 -3.51678 36,975 184 459 0
2017-11-20 15:24:40 GMT 49.40505 -3.51635 36,975 184 459 0
2017-11-20 15:24:38 GMT 49.40826 -3.51599 36,975 184 459 0
2017-11-20 15:24:36 GMT 49.41231 -3.51555 36,975 184 459 0
2017-11-20 15:24:33 GMT 49.41866 -3.51492 36,975 184 459 0
2017-11-20 15:24:31 GMT 49.42176 -3.51461 36,975 184 459 0
2017-11-20 15:24:29 GMT 49.42896 -3.51389 36,975 184 459 0
2017-11-20 15:24:26 GMT 49.43438 -3.51332 36,975 184 459 0
2017-11-20 15:24:23 GMT 49.43893 -3.51281 36,975 184 459 0
2017-11-20 15:24:20 GMT 49.44611 -3.51206 36,975 184 459 0
2017-11-20 15:24:18 GMT 49.45058 -3.51162 36,975 184 459 0
2017-11-20 15:24:15 GMT 49.45601 -3.51107 36,975 184 459 0
2017-11-20 15:24:13 GMT 49.46143 -3.51050 36,975 184 459 0
2017-11-20 15:24:10 GMT 49.46773 -3.50984 36,975 184 459 0
2017-11-20 15:24:06 GMT 49.47807 -3.50876 36,975 184 459 0
2017-11-20 15:24:03 GMT 49.48485 -3.50804 36,975 184 459 0
2017-11-20 15:24:01 GMT 49.48671 -3.50783 36,975 184 459 0
2017-11-20 15:23:59 GMT 49.49117 -3.50739 36,975 184 459 0
2017-11-20 15:23:57 GMT 49.49483 -3.50695 36,975 184 459 -64
2017-11-20 15:23:55 GMT 49.49931 -3.50652 36,975 184 459 -64
2017-11-20 15:23:50 GMT 49.50877 -3.50553 37,000 184 459 -64
2017-11-20 15:23:48 GMT 49.51375 -3.50501 37,000 184 460 -64
2017-11-20 15:23:46 GMT 49.51943 -3.50442 37,000 184 460 -64
2017-11-20 15:23:43 GMT 49.52463 -3.50392 37,000 184 459 -64
2017-11-20 15:23:41 GMT 49.52953 -3.50341 37,000 184 459 -64
2017-11-20 15:23:38 GMT 49.53586 -3.50278 37,000 184 459 -64
2017-11-20 15:23:36 GMT 49.53900 -3.50247 37,025 184 461 0
2017-11-20 15:23:33 GMT 49.54674 -3.50168 37,025 184 459 -64
2017-11-20 15:23:31 GMT 49.55248 -3.50115 37,025 184 459 -64
2017-11-20 15:23:29 GMT 49.55444 -3.50093 37,025 184 459 0
2017-11-20 15:23:26 GMT 49.56079 -3.50030 37,025 184 459 0
2017-11-20 15:23:23 GMT 49.56825 -3.49958 37,025 184 459 0
2017-11-20 15:23:21 GMT 49.57114 -3.49922 37,025 184 459 0
2017-11-20 15:23:18 GMT 49.57832 -3.49855 37,025 184 459 0
2017-11-20 15:23:16 GMT 49.58242 -3.49811 37,025 184 459 0
2017-11-20 15:23:14 GMT 49.58876 -3.49748 37,025 184 460 0
2017-11-20 15:23:10 GMT 49.59461 -3.49684 37,025 184 461 0
2017-11-20 15:23:08 GMT 49.59783 -3.49655 37,025 184 461 0
2017-11-20 15:23:06 GMT 49.60192 -3.49610 37,025 184 461 0
2017-11-20 15:23:04 GMT 49.60821 -3.49551 37,025 184 461 0
2017-11-20 15:23:02 GMT 49.61142 -3.49514 37,025 184 461 -64
2017-11-20 15:23:00 GMT 49.61591 -3.49466 37,025 184 461 -64
2017-11-20 15:22:58 GMT 49.62044 -3.49423 37,025 184 461 0
2017-11-20 15:22:54 GMT 49.62771 -3.49343 37,025 184 461 -64
2017-11-20 15:22:52 GMT 49.63265 -3.49291 37,025 184 461 0
2017-11-20 15:22:48 GMT 49.64177 -3.49199 37,050 184 462 -64
2017-11-20 15:22:46 GMT 49.64488 -3.49163 37,050 184 462 -64
2017-11-20 15:22:44 GMT 49.65127 -3.49098 37,050 184 462 -64
2017-11-20 15:22:42 GMT 49.65494 -3.49061 37,050 184 462 -64
2017-11-20 15:22:40 GMT 49.65765 -3.49033 37,050 184 462 0
2017-11-20 15:22:37 GMT 49.66398 -3.48964 37,050 184 462 0
2017-11-20 15:22:34 GMT 49.67263 -3.48875 37,050 184 462 64
2017-11-20 15:22:32 GMT 49.67622 -3.48838 37,050 184 462 64
2017-11-20 15:22:28 GMT 49.68534 -3.48749 37,050 184 462 128
2017-11-20 15:22:26 GMT 49.68925 -3.48705 37,050 184 463 64
2017-11-20 15:22:23 GMT 49.69675 -3.48628 37,050 184 463 0
2017-11-20 15:22:21 GMT 49.69805 -3.48616 37,050 184 462 0
2017-11-20 15:22:18 GMT 49.70622 -3.48534 37,025 184 463 64
2017-11-20 15:22:16 GMT 49.70853 -3.48512 37,050 184 463 64
2017-11-20 15:22:13 GMT 49.71854 -3.48408 37,025 184 463 64
2017-11-20 15:22:11 GMT 49.72293 -3.48361 37,025 184 463 64
2017-11-20 15:22:08 GMT 49.72533 -3.48341 37,050 184 463 0
2017-11-20 15:22:06 GMT 49.72994 -3.48289 37,025 184 463 0
2017-11-20 15:22:02 GMT 49.73813 -3.48207 37,050 184 463 0
2017-11-20 15:22:00 GMT 49.74446 -3.48140 37,050 184 463 0
2017-11-20 15:21:58 GMT 49.75085 -3.48071 37,050 184 463 0
2017-11-20 15:21:56 GMT 49.75266 -3.48051 37,050 184 463 0
2017-11-20 15:21:52 GMT 49.76043 -3.47970 37,050 184 463 64
2017-11-20 15:21:49 GMT 49.76904 -3.47881 37,050 184 463 64
2017-11-20 15:21:45 GMT 49.77589 -3.47806 37,025 184 463 64
2017-11-20 15:21:43 GMT 49.78134 -3.47746 37,025 184 463 64
2017-11-20 15:21:41 GMT 49.78638 -3.47696 37,025 184 463 64
2017-11-20 15:21:38 GMT 49.79091 -3.47645 37,025 184 463 64
2017-11-20 15:21:36 GMT 49.79367 -3.47621 37,025 184 463 64
2017-11-20 15:21:34 GMT 49.79919 -3.47558 37,025 184 464 64
2017-11-20 15:21:31 GMT 49.80785 -3.47464 37,025 184 464 0
2017-11-20 15:21:28 GMT 49.81192 -3.47420 37,025 184 464 0
2017-11-20 15:21:24 GMT 49.82236 -3.47312 37,025 184 464 0
2017-11-20 15:21:24 GMT 49.82236 -3.47312 37,025 187 458 -64
2017-11-20 15:21:21 GMT 49.82602 -3.47276 37,025 184 464 0
2017-11-20 15:21:19 GMT 49.83105 -3.47219 37,025 184 464 64
2017-11-20 15:21:17 GMT 49.83464 -3.47183 37,025 184 464 64
2017-11-20 15:21:14 GMT 49.84241 -3.47101 37,025 184 464 64
2017-11-20 15:21:12 GMT 49.84703 -3.47052 37,025 184 464 64
2017-11-20 15:21:10 GMT 49.85019 -3.47019 37,025 184 464 64
2017-11-20 15:21:08 GMT 49.85568 -3.46958 37,025 184 464 64
2017-11-20 15:21:04 GMT 49.86387 -3.46871 37,025 184 464 64
2017-11-20 15:21:02 GMT 49.86797 -3.46834 37,025 184 463 64
2017-11-20 15:21:00 GMT 49.87430 -3.46767 37,025 184 463 64
2017-11-20 15:20:58 GMT 49.87430 -3.46767 37,025 184 463 0
2017-11-20 15:20:56 GMT 49.87889 -3.46720 37,000 184 463 64
2017-11-20 15:20:54 GMT 49.88342 -3.46671 37,000 184 463 0
2017-11-20 15:20:54 GMT 49.88342 -3.46671 37,000 184 463 0
2017-11-20 15:20:52 GMT 49.88983 -3.46611 37,000 184 463 0
2017-11-20 15:20:52 GMT 49.89066 -3.46597 37,000 184 463 0
2017-11-20 15:20:50 GMT 49.89574 -3.46554 37,000 184 463 0
2017-11-20 15:20:48 GMT 49.89804 -3.46530 37,000 184 463 0
2017-11-20 15:20:45 GMT 49.90434 -3.46467 37,000 184 463 0
2017-11-20 15:20:43 GMT 49.90919 -3.46423 37,000 184 463 0
2017-11-20 15:20:43 GMT 49.90919 -3.46423 37,000 184 463 0
2017-11-20 15:20:41 GMT 49.91213 -3.46395 37,000 184 463 0
2017-11-20 15:20:39 GMT 49.91759 -3.46344 37,000 184 463 0
2017-11-20 15:20:37 GMT 49.92220 -3.46301 37,000 184 463 0
2017-11-20 15:20:35 GMT 49.92760 -3.46250 37,000 184 463 0
2017-11-20 15:20:33 GMT 49.92851 -3.46243 37,000 184 463 0
2017-11-20 15:20:31 GMT 49.93398 -3.46196 37,000 184 463 0
2017-11-20 15:20:29 GMT 49.93945 -3.46149 37,000 184 463 0
2017-11-20 15:20:26 GMT 49.94357 -3.46113 37,000 184 463 0
2017-11-20 15:20:23 GMT 49.95135 -3.46048 37,000 184 462 0
2017-11-20 15:20:21 GMT 49.95589 -3.46004 37,000 184 462 0
2017-11-20 15:20:19 GMT 49.96211 -3.45946 37,000 184 462 0
2017-11-20 15:20:17 GMT 49.96633 -3.45899 37,000 185 461 -64
2017-11-20 15:20:14 GMT 49.97177 -3.45824 37,000 187 458 -64
2017-11-20 15:20:12 GMT 49.97259 -3.45816 37,000 187 458 -64
2017-11-20 15:20:10 GMT 49.97895 -3.45706 37,025 189 455 -64
2017-11-20 15:20:08 GMT 49.98294 -3.45621 37,000 189 456 0
2017-11-20 15:20:06 GMT 49.98737 -3.45527 37,000 190 454 0
2017-11-20 15:20:04 GMT 49.99008 -3.45462 37,025 190 453 0
2017-11-20 15:20:02 GMT 49.99603 -3.45297 37,025 191 453 -64
2017-11-20 15:20:00 GMT 49.99976 -3.45193 37,025 191 452 0
2017-11-20 15:19:58 GMT 50.00320 -3.45097 37,025 191 452 0
2017-11-20 15:19:56 GMT 50.00711 -3.44978 37,000 191 452 0
2017-11-20 15:19:54 GMT 50.01416 -3.44768 37,000 191 451 0
2017-11-20 15:19:52 GMT 50.01628 -3.44704 37,025 191 451 64
2017-11-20 15:19:49 GMT 50.02290 -3.44508 37,025 191 451 0
2017-11-20 15:19:47 GMT 50.02840 -3.44349 37,025 191 450 0
2017-11-20 15:19:44 GMT 50.03421 -3.44176 37,025 191 450 0
2017-11-20 15:19:42 GMT 50.03509 -3.44147 37,025 191 450 0
2017-11-20 15:19:40 GMT 50.04282 -3.43924 37,025 191 450 0
2017-11-20 15:19:37 GMT 50.04510 -3.43858 37,025 191 450 64
2017-11-20 15:19:35 GMT 50.04952 -3.43724 37,025 191 449 64
2017-11-20 15:19:33 GMT 50.05733 -3.43496 37,025 191 449 64
2017-11-20 15:19:31 GMT 50.05733 -3.43496 37,025 191 449 64
2017-11-20 15:19:28 GMT 50.06516 -3.43263 37,025 191 450 128
2017-11-20 15:19:26 GMT 50.06868 -3.43156 37,000 191 450 64
2017-11-20 15:19:24 GMT 50.07211 -3.43055 37,000 191 450 64
2017-11-20 15:19:22 GMT 50.07692 -3.42911 37,000 191 450 64
2017-11-20 15:19:20 GMT 50.08173 -3.42766 37,000 191 450 64
2017-11-20 15:19:17 GMT 50.08777 -3.42585 37,000 191 450 64
2017-11-20 15:19:15 GMT 50.09079 -3.42499 37,000 191 449 0
2017-11-20 15:19:13 GMT 50.09482 -3.42376 37,000 191 449 0
2017-11-20 15:19:10 GMT 50.10214 -3.42159 37,000 191 449 0
2017-11-20 15:19:08 GMT 50.10851 -3.41971 37,000 191 449 0
2017-11-20 15:19:06 GMT 50.10956 -3.41942 37,000 191 449 0
2017-11-20 15:19:03 GMT 50.11610 -3.41747 37,000 191 449 0
2017-11-20 15:19:00 GMT 50.12596 -3.41452 37,000 191 448 0
2017-11-20 15:18:58 GMT 50.12604 -3.41451 37,000 191 448 0
2017-11-20 15:18:56 GMT 50.13043 -3.41318 37,000 191 448 64
2017-11-20 15:18:54 GMT 50.13345 -3.41234 37,000 191 448 64
2017-11-20 15:18:51 GMT 50.14169 -3.40984 37,000 191 448 128
2017-11-20 15:18:49 GMT 50.14650 -3.40844 37,000 191 448 64
2017-11-20 15:18:47 GMT 50.14737 -3.40821 37,000 191 448 64
2017-11-20 15:18:45 GMT 50.15350 -3.40641 37,000 191 448 64
2017-11-20 15:18:43 GMT 50.15561 -3.40576 37,000 191 448 64
2017-11-20 15:18:41 GMT 50.16083 -3.40417 37,000 191 448 64
2017-11-20 15:18:39 GMT 50.16513 -3.40294 37,000 191 448 64
2017-11-20 15:18:37 GMT 50.16824 -3.40200 36,975 191 449 64
2017-11-20 15:18:35 GMT 50.17424 -3.40019 36,975 191 449 64
2017-11-20 15:18:34 GMT 50.17344 -3.40042 36,975 191 448 64
2017-11-20 15:18:32 GMT 50.17866 -3.39893 36,975 191 448 64
2017-11-20 15:18:30 GMT 50.18207 -3.39788 36,975 191 449 64
2017-11-20 15:18:28 GMT 50.18605 -3.39666 36,975 191 449 64
2017-11-20 15:18:26 GMT 50.19248 -3.39478 36,975 191 448 0
2017-11-20 15:18:24 GMT 50.19556 -3.39381 36,975 191 448 0
2017-11-20 15:18:22 GMT 50.19947 -3.39270 36,975 191 448 0
2017-11-20 15:18:20 GMT 50.20286 -3.39166 36,975 191 448 0
2017-11-20 15:18:17 GMT 50.21068 -3.38936 36,975 191 447 0
2017-11-20 15:18:14 GMT 50.21640 -3.38769 36,975 191 447 64
2017-11-20 15:18:12 GMT 50.22029 -3.38654 36,975 191 447 64
2017-11-20 15:18:10 GMT 50.22330 -3.38564 36,975 191 447 64
2017-11-20 15:18:08 GMT 50.22810 -3.38423 36,975 191 447 64
2017-11-20 15:18:06 GMT 50.23022 -3.38357 36,975 191 447 64
2017-11-20 15:18:04 GMT 50.23540 -3.38201 36,975 191 447 64
2017-11-20 15:18:02 GMT 50.23892 -3.38097 36,975 191 447 64
2017-11-20 15:18:00 GMT 50.24448 -3.37934 36,975 191 447 0
2017-11-20 15:17:57 GMT 50.24928 -3.37792 36,975 191 447 0
2017-11-20 15:17:57 GMT 50.24928 -3.37792 36,975 191 447 0
2017-11-20 15:17:55 GMT 50.25362 -3.37663 36,975 191 446 0
2017-11-20 15:17:53 GMT 50.25966 -3.37481 36,975 191 446 0
2017-11-20 15:17:51 GMT 50.26399 -3.37354 36,975 191 446 0
2017-11-20 15:17:48 GMT 50.27119 -3.37136 36,975 191 446 64
2017-11-20 15:17:46 GMT 50.27176 -3.37117 36,975 191 446 64
2017-11-20 15:17:44 GMT 50.27701 -3.36962 36,975 191 445 64
2017-11-20 15:17:42 GMT 50.28000 -3.36872 36,975 191 445 64
2017-11-20 15:17:39 GMT 50.28603 -3.36688 36,975 191 446 64
2017-11-20 15:17:37 GMT 50.29166 -3.36521 36,975 191 446 64
2017-11-20 15:17:34 GMT 50.29639 -3.36375 36,975 191 446 64
2017-11-20 15:17:32 GMT 50.30273 -3.36189 36,950 191 446 64
2017-11-20 15:17:30 GMT 50.30544 -3.36102 36,950 191 446 64
2017-11-20 15:17:27 GMT 50.31147 -3.35922 36,950 191 445 64
2017-11-20 15:17:23 GMT 50.32055 -3.35647 36,950 191 445 0
2017-11-20 15:17:21 GMT 50.32227 -3.35603 36,950 191 445 0
2017-11-20 15:17:19 GMT 50.32745 -3.35444 36,950 191 445 0
2017-11-20 15:17:17 GMT 50.33261 -3.35291 36,950 191 445 -64
2017-11-20 15:17:17 GMT 50.33130 -3.35329 36,950 191 445 -64
2017-11-20 15:17:15 GMT 50.33528 -3.35206 36,950 191 445 -64
2017-11-20 15:17:13 GMT 50.33958 -3.35076 36,950 191 445 -64
2017-11-20 15:17:11 GMT 50.34256 -3.34989 36,950 191 445 -64
2017-11-20 15:17:08 GMT 50.34946 -3.34786 36,975 191 445 -64
2017-11-20 15:17:06 GMT 50.35332 -3.34664 36,975 191 445 64
2017-11-20 15:17:04 GMT 50.35770 -3.34534 36,975 191 445 64
2017-11-20 15:17:02 GMT 50.36156 -3.34422 36,975 191 445 64
2017-11-20 15:17:00 GMT 50.36746 -3.34245 36,975 191 445 64
2017-11-20 15:16:57 GMT 50.37190 -3.34114 36,950 191 445 64
2017-11-20 15:16:55 GMT 50.37662 -3.33970 36,950 191 445 64
2017-11-20 15:16:55 GMT 50.37662 -3.33970 36,950 191 445 64
2017-11-20 15:16:53 GMT 50.37918 -3.33890 36,950 191 445 64
2017-11-20 15:16:51 GMT 50.38486 -3.33724 36,950 191 445 64
2017-11-20 15:16:49 GMT 50.38693 -3.33658 36,950 191 445 64
2017-11-20 15:16:47 GMT 50.39084 -3.33546 36,950 191 445 64
2017-11-20 15:16:45 GMT 50.39559 -3.33405 36,950 191 445 64
2017-11-20 15:16:43 GMT 50.39996 -3.33269 36,950 191 445 0
2017-11-20 15:16:41 GMT 50.40462 -3.33131 36,950 191 445 0
2017-11-20 15:16:39 GMT 50.41539 -3.32806 36,950 191 445 -64
2017-11-20 15:16:36 GMT 50.41539 -3.32806 36,950 191 445 -64
2017-11-20 15:16:34 GMT 50.41845 -3.32715 36,950 191 445 -64
2017-11-20 15:16:32 GMT 50.42147 -3.32626 36,950 191 445 -64
2017-11-20 15:16:30 GMT 50.42752 -3.32445 36,950 191 445 -64
2017-11-20 15:16:28 GMT 50.43210 -3.32307 36,950 191 445 -64
2017-11-20 15:16:26 GMT 50.43609 -3.32195 36,975 191 445 0
2017-11-20 15:16:24 GMT 50.43828 -3.32127 36,975 191 445 0
2017-11-20 15:16:22 GMT 50.44212 -3.32011 36,975 191 445 0
2017-11-20 15:16:19 GMT 50.45024 -3.31772 36,975 191 445 -64
2017-11-20 15:16:17 GMT 50.45247 -3.31708 36,975 191 445 0
2017-11-20 15:16:15 GMT 50.45769 -3.31549 36,975 191 445 0
2017-11-20 15:16:15 GMT 50.45858 -3.31527 36,975 191 445 0
2017-11-20 15:16:12 GMT 50.46486 -3.31334 36,975 191 445 -64
2017-11-20 15:16:09 GMT 50.46845 -3.31230 36,975 191 445 -64
2017-11-20 15:16:07 GMT 50.47110 -3.31151 36,975 191 445 -64
2017-11-20 15:16:05 GMT 50.47710 -3.30978 36,975 191 445 -128
2017-11-20 15:16:05 GMT 50.47710 -3.30978 36,975 191 445 -128
2017-11-20 15:16:03 GMT 50.48186 -3.30833 36,975 191 445 -128
2017-11-20 15:16:01 GMT 50.48483 -3.30746 37,000 191 445 -128
2017-11-20 15:15:59 GMT 50.49051 -3.30573 37,000 191 446 -64
2017-11-20 15:15:57 GMT 50.49683 -3.30385 37,000 191 446 -64
2017-11-20 15:15:55 GMT 50.49870 -3.30327 37,000 191 446 -64
2017-11-20 15:15:53 GMT 50.50301 -3.30204 37,000 191 446 -64
2017-11-20 15:15:51 GMT 50.50598 -3.30110 37,000 191 446 -64
2017-11-20 15:15:49 GMT 50.50908 -3.30020 37,000 191 446 -64
2017-11-20 15:15:47 GMT 50.51166 -3.29944 37,000 191 446 -64
2017-11-20 15:15:45 GMT 50.51635 -3.29805 37,000 191 446 -64
2017-11-20 15:15:43 GMT 50.52026 -3.29686 37,000 191 447 -64
2017-11-20 15:15:41 GMT 50.52412 -3.29568 37,025 191 447 -64
2017-11-20 15:15:39 GMT 50.53152 -3.29345 37,025 191 447 -64
2017-11-20 15:15:37 GMT 50.53320 -3.29293 37,025 191 447 -64
2017-11-20 15:15:35 GMT 50.53711 -3.29174 37,025 191 447 0
2017-11-20 15:15:33 GMT 50.54149 -3.29040 37,025 191 447 0
2017-11-20 15:15:31 GMT 50.54740 -3.28862 37,025 191 447 0
2017-11-20 15:15:29 GMT 50.54926 -3.28810 37,025 191 448 0
2017-11-20 15:15:27 GMT 50.55354 -3.28677 37,025 191 448 64
2017-11-20 15:15:25 GMT 50.55745 -3.28558 37,025 191 448 64
2017-11-20 15:15:23 GMT 50.56183 -3.28426 37,025 191 448 64
2017-11-20 15:15:21 GMT 50.56565 -3.28313 37,025 191 448 0
2017-11-20 15:15:19 GMT 50.57137 -3.28142 37,025 191 448 0
2017-11-20 15:15:17 GMT 50.57524 -3.28023 37,025 191 449 0
2017-11-20 15:15:15 GMT 50.58032 -3.27870 37,025 191 449 0
2017-11-20 15:15:13 GMT 50.58129 -3.27838 37,025 191 449 0
2017-11-20 15:15:13 GMT 50.58129 -3.27838 37,025 191 449 0
2017-11-20 15:15:10 GMT 50.58911 -3.27600 37,025 191 449 0
2017-11-20 15:15:08 GMT 50.59348 -3.27467 37,025 191 449 0
2017-11-20 15:15:06 GMT 50.59823 -3.27326 37,025 191 450 0
2017-11-20 15:15:03 GMT 50.60092 -3.27241 37,025 191 450 0
2017-11-20 15:15:01 GMT 50.60866 -3.27007 37,025 191 450 0
2017-11-20 15:14:59 GMT 50.60999 -3.26966 37,050 191 450 0
2017-11-20 15:14:57 GMT 50.61308 -3.26873 37,025 191 450 0
2017-11-20 15:14:55 GMT 50.61867 -3.26710 37,025 191 450 0
2017-11-20 15:14:55 GMT 50.62001 -3.26670 37,025 191 450 0
2017-11-20 15:14:53 GMT 50.62728 -3.26450 37,025 191 450 0
2017-11-20 15:14:51 GMT 50.62871 -3.26402 37,025 191 450 0
2017-11-20 15:14:49 GMT 50.62953 -3.26381 37,025 191 450 0
2017-11-20 15:14:47 GMT 50.63478 -3.26220 37,025 191 450 0
2017-11-20 15:14:45 GMT 50.63960 -3.26077 37,025 191 450 0
2017-11-20 15:14:43 GMT 50.64262 -3.25983 37,025 191 451 64
2017-11-20 15:14:41 GMT 50.64963 -3.25774 37,025 191 451 64
2017-11-20 15:14:39 GMT 50.65178 -3.25708 37,025 191 451 64
2017-11-20 15:14:37 GMT 50.65526 -3.25604 37,025 191 451 0
2017-11-20 15:14:35 GMT 50.65959 -3.25470 37,025 191 451 0
2017-11-20 15:14:33 GMT 50.66483 -3.25311 37,025 191 451 64
2017-11-20 15:14:31 GMT 50.66834 -3.25210 37,025 191 451 0
2017-11-20 15:14:29 GMT 50.67279 -3.25076 37,025 191 451 0
2017-11-20 15:14:27 GMT 50.67867 -3.24898 37,025 191 451 0
2017-11-20 15:14:25 GMT 50.68103 -3.24824 37,025 191 451 0
2017-11-20 15:14:23 GMT 50.68446 -3.24720 37,025 191 451 0
2017-11-20 15:14:21 GMT 50.68758 -3.24624 37,025 191 451 0
2017-11-20 15:14:19 GMT 50.69232 -3.24486 37,025 191 451 0
2017-11-20 15:14:17 GMT 50.69756 -3.24327 37,025 191 451 0
2017-11-20 15:14:17 GMT 50.69756 -3.24327 37,025 191 451 0
2017-11-20 15:14:15 GMT 50.70149 -3.24208 37,050 191 451 0
2017-11-20 15:14:15 GMT 50.70149 -3.24208 37,050 191 451 0
2017-11-20 15:14:12 GMT 50.70804 -3.24008 37,050 191 451 0
2017-11-20 15:14:10 GMT 50.71207 -3.23881 37,025 191 452 0
2017-11-20 15:14:08 GMT 50.71508 -3.23792 37,050 191 452 0
2017-11-20 15:14:06 GMT 50.72076 -3.23624 37,050 191 452 0
2017-11-20 15:14:04 GMT 50.72498 -3.23495 37,025 191 452 0
2017-11-20 15:14:02 GMT 50.72768 -3.23406 37,025 191 452 0
2017-11-20 15:14:00 GMT 50.73212 -3.23273 37,025 191 452 0
2017-11-20 15:13:57 GMT 50.73645 -3.23143 37,025 191 452 0
2017-11-20 15:13:54 GMT 50.74301 -3.22945 37,050 191 452 -64
2017-11-20 15:13:52 GMT 50.74697 -3.22823 37,050 191 452 -64
2017-11-20 15:13:50 GMT 50.75088 -3.22701 37,050 191 452 -64
2017-11-20 15:13:48 GMT 50.75702 -3.22517 37,050 191 452 0
2017-11-20 15:13:44 GMT 50.76359 -3.22311 37,050 191 452 0
2017-11-20 15:13:41 GMT 50.76965 -3.22130 37,050 192 452 0
2017-11-20 15:13:39 GMT 50.77359 -3.22011 37,050 192 452 0
2017-11-20 15:13:37 GMT 50.77802 -3.21869 37,050 192 452 0
2017-11-20 15:13:34 GMT 50.78416 -3.21684 37,050 192 452 0
2017-11-20 15:13:32 GMT 50.79057 -3.21484 37,050 192 452 64
2017-11-20 15:13:30 GMT 50.79194 -3.21442 37,050 192 452 64
2017-11-20 15:13:27 GMT 50.79850 -3.21243 37,050 192 452 64
2017-11-20 15:13:27 GMT 50.79850 -3.21243 37,050 192 452 64
2017-11-20 15:13:24 GMT 50.80467 -3.21053 37,050 192 452 128
2017-11-20 15:13:22 GMT 50.81032 -3.20877 37,050 191 452 64
2017-11-20 15:13:20 GMT 50.81296 -3.20801 37,050 191 453 64
2017-11-20 15:13:18 GMT 50.81740 -3.20663 37,025 191 453 64
2017-11-20 15:13:17 GMT 50.82335 -3.20482 37,025 191 453 64
2017-11-20 15:13:16 GMT 50.82001 -3.20580 37,025 191 453 64
2017-11-20 15:13:14 GMT 50.82741 -3.20358 37,025 191 453 64
2017-11-20 15:13:11 GMT 50.83313 -3.20183 37,050 191 453 64
2017-11-20 15:13:08 GMT 50.83709 -3.20061 37,025 191 453 0
2017-11-20 15:13:06 GMT 50.84235 -3.19901 37,025 191 453 0
2017-11-20 15:13:04 GMT 50.84626 -3.19778 37,025 191 453 0
2017-11-20 15:13:02 GMT 50.84930 -3.19687 37,025 191 452 0
2017-11-20 15:13:02 GMT 50.84981 -3.19672 37,025 191 452 0
2017-11-20 15:13:00 GMT 50.85283 -3.19580 37,025 191 452 64
2017-11-20 15:12:58 GMT 50.85851 -3.19405 37,025 191 452 64
2017-11-20 15:12:56 GMT 50.86283 -3.19275 37,025 191 452 64
2017-11-20 15:12:53 GMT 50.86991 -3.19061 37,025 191 452 64
2017-11-20 15:12:51 GMT 50.87457 -3.18916 37,025 191 452 64
2017-11-20 15:12:49 GMT 50.87860 -3.18797 37,025 191 452 64
2017-11-20 15:12:47 GMT 50.88081 -3.18726 37,025 191 452 64
2017-11-20 15:12:45 GMT 50.88565 -3.18581 37,025 191 452 0
2017-11-20 15:12:43 GMT 50.88867 -3.18485 37,025 191 452 64
2017-11-20 15:12:41 GMT 50.89300 -3.18352 37,025 191 452 0
2017-11-20 15:12:39 GMT 50.89572 -3.18269 37,025 191 452 0
2017-11-20 15:12:37 GMT 50.90176 -3.18084 37,025 191 451 0
2017-11-20 15:12:35 GMT 50.90478 -3.17995 37,025 191 451 0
2017-11-20 15:12:35 GMT 50.90776 -3.17906 37,025 191 451 0
2017-11-20 15:12:32 GMT 50.90964 -3.17846 37,025 191 451 0
2017-11-20 15:12:30 GMT 50.91577 -3.17658 37,025 191 451 64
2017-11-20 15:12:28 GMT 50.92214 -3.17467 37,025 191 451 64
2017-11-20 15:12:26 GMT 50.92312 -3.17436 37,025 191 451 64
2017-11-20 15:12:24 GMT 50.92885 -3.17261 37,025 191 451 64
2017-11-20 15:12:22 GMT 50.93145 -3.17184 37,025 191 451 64
2017-11-20 15:12:20 GMT 50.93620 -3.17040 37,025 191 451 128
2017-11-20 15:12:18 GMT 50.94062 -3.16910 37,025 191 451 128
2017-11-20 15:12:16 GMT 50.94365 -3.16818 37,025 191 450 128
2017-11-20 15:12:14 GMT 50.94844 -3.16666 37,000 191 450 128
2017-11-20 15:12:12 GMT 50.95441 -3.16488 37,000 191 450 128
2017-11-20 15:12:10 GMT 50.95762 -3.16391 37,000 191 450 128
2017-11-20 15:12:08 GMT 50.96063 -3.16295 37,000 192 450 64
2017-11-20 15:12:06 GMT 50.96497 -3.16162 37,000 192 450 64
2017-11-20 15:12:04 GMT 50.96888 -3.16048 37,000 192 450 64
2017-11-20 15:12:02 GMT 50.97326 -3.15910 37,000 192 449 64
2017-11-20 15:12:00 GMT 50.97717 -3.15788 37,000 192 449 64
2017-11-20 15:11:58 GMT 50.98108 -3.15666 37,000 192 449 64
2017-11-20 15:11:56 GMT 50.98746 -3.15468 37,000 192 449 128
2017-11-20 15:11:54 GMT 50.98932 -3.15414 36,975 192 449 128
2017-11-20 15:11:52 GMT 50.99490 -3.15239 36,975 192 448 128
2017-11-20 15:11:50 GMT 50.99712 -3.15167 36,975 192 448 128
2017-11-20 15:11:48 GMT 51.00580 -3.14896 36,975 192 448 128
2017-11-20 15:11:46 GMT 51.00580 -3.14896 36,975 192 448 128
2017-11-20 15:11:44 GMT 51.01103 -3.14736 36,975 192 448 64
2017-11-20 15:11:42 GMT 51.01362 -3.14652 36,975 192 448 128
2017-11-20 15:11:40 GMT 51.01923 -3.14476 36,975 192 448 128
2017-11-20 15:11:38 GMT 51.02181 -3.14400 36,975 192 448 128
2017-11-20 15:11:37 GMT 51.02614 -3.14262 36,950 192 448 128
2017-11-20 15:11:35 GMT 51.02792 -3.14209 36,950 192 447 128
2017-11-20 15:11:32 GMT 51.03392 -3.14026 36,950 192 447 128
2017-11-20 15:11:30 GMT 51.03829 -3.13889 36,950 192 447 64
2017-11-20 15:11:28 GMT 51.04127 -3.13789 36,950 192 447 64
2017-11-20 15:11:26 GMT 51.04867 -3.13560 36,950 192 447 64
2017-11-20 15:11:24 GMT 51.05214 -3.13452 36,950 192 447 64
2017-11-20 15:11:22 GMT 51.05593 -3.13339 36,950 192 446 0
2017-11-20 15:11:20 GMT 51.05984 -3.13217 36,950 192 446 0
2017-11-20 15:11:18 GMT 51.06240 -3.13133 36,950 192 446 0
2017-11-20 15:11:16 GMT 51.06592 -3.13029 36,950 191 446 0
2017-11-20 15:11:14 GMT 51.07017 -3.12895 36,950 191 446 0
2017-11-20 15:11:12 GMT 51.07367 -3.12790 36,950 191 446 0
2017-11-20 15:11:10 GMT 51.08014 -3.12592 36,950 191 446 0
2017-11-20 15:11:10 GMT 51.07842 -3.12645 36,950 191 446 0
2017-11-20 15:11:08 GMT 51.08432 -3.12457 36,950 191 446 0
2017-11-20 15:11:06 GMT 51.08620 -3.12405 36,950 192 445 0
2017-11-20 15:11:04 GMT 51.09096 -3.12257 36,950 192 445 0
2017-11-20 15:11:04 GMT 51.09045 -3.12271 36,950 192 445 0
2017-11-20 15:11:02 GMT 51.09397 -3.12164 36,950 192 445 0
2017-11-20 15:11:00 GMT 51.09993 -3.11975 36,950 192 445 0
2017-11-20 15:10:58 GMT 51.10300 -3.11882 36,950 192 445 0
2017-11-20 15:10:58 GMT 51.10300 -3.11882 36,950 192 445 0
2017-11-20 15:10:56 GMT 51.10686 -3.11760 36,950 192 445 0
2017-11-20 15:10:53 GMT 51.11156 -3.11615 36,950 192 445 0
2017-11-20 15:10:51 GMT 51.11678 -3.11455 36,950 192 445 0
2017-11-20 15:10:49 GMT 51.12186 -3.11299 36,950 192 445 0
2017-11-20 15:10:47 GMT 51.12492 -3.11203 36,950 192 444 0
2017-11-20 15:10:45 GMT 51.12968 -3.11062 36,950 192 444 0
2017-11-20 15:10:42 GMT 51.13526 -3.10883 36,950 192 444 0
2017-11-20 15:10:40 GMT 51.13991 -3.10738 36,950 192 444 0
2017-11-20 15:10:38 GMT 51.14299 -3.10646 36,950 192 444 -64
2017-11-20 15:10:36 GMT 51.14594 -3.10557 36,950 192 444 -64
2017-11-20 15:10:34 GMT 51.15152 -3.10379 36,950 192 444 -64
2017-11-20 15:10:32 GMT 51.15458 -3.10288 36,975 192 444 -64
2017-11-20 15:10:30 GMT 51.16012 -3.10120 36,975 192 444 -64
2017-11-20 15:10:28 GMT 51.16310 -3.10020 36,975 192 444 0
2017-11-20 15:10:26 GMT 51.16837 -3.09859 36,975 192 444 0
2017-11-20 15:10:23 GMT 51.17301 -3.09715 36,975 192 444 0
2017-11-20 15:10:21 GMT 51.17599 -3.09624 36,975 192 444 0
2017-11-20 15:10:19 GMT 51.18242 -3.09425 36,975 192 444 64
2017-11-20 15:10:17 GMT 51.18718 -3.09280 36,975 192 444 64
2017-11-20 15:10:16 GMT 51.18718 -3.09280 36,975 192 444 0
2017-11-20 15:10:14 GMT 51.19066 -3.09174 36,975 192 444 0
2017-11-20 15:10:12 GMT 51.19531 -3.09029 36,975 192 444 0
2017-11-20 15:10:10 GMT 51.19917 -3.08901 36,975 192 444 0
2017-11-20 15:10:07 GMT 51.20523 -3.08716 36,975 192 444 0
2017-11-20 15:10:04 GMT 51.21410 -3.08441 36,975 192 444 -64
2017-11-20 15:10:02 GMT 51.21552 -3.08395 36,975 192 444 -64
2017-11-20 15:10:00 GMT 51.21980 -3.08266 36,975 192 444 -64
2017-11-20 15:09:58 GMT 51.22366 -3.08144 36,975 192 445 0
2017-11-20 15:09:56 GMT 51.22841 -3.07999 36,975 192 445 0
2017-11-20 15:09:54 GMT 51.23316 -3.07846 36,975 192 445 0
2017-11-20 15:09:52 GMT 51.23529 -3.07781 36,975 192 445 0
2017-11-20 15:09:50 GMT 51.23923 -3.07662 36,975 192 445 0
2017-11-20 15:09:48 GMT 51.24303 -3.07541 36,975 192 445 0
2017-11-20 15:09:46 GMT 51.24689 -3.07426 36,975 192 445 0
2017-11-20 15:09:44 GMT 51.25034 -3.07320 36,975 192 445 0
2017-11-20 15:09:42 GMT 51.25681 -3.07114 36,975 192 445 -64
2017-11-20 15:09:40 GMT 51.25979 -3.07022 36,975 192 445 -64
2017-11-20 15:09:38 GMT 51.26323 -3.06915 36,975 192 445 -64
2017-11-20 15:09:38 GMT 51.26323 -3.06915 36,975 192 445 -64
2017-11-20 15:09:36 GMT 51.27008 -3.06704 37,000 192 445 -64
2017-11-20 15:09:34 GMT 51.27138 -3.06664 37,000 192 445 -64
2017-11-20 15:09:31 GMT 51.27831 -3.06442 37,000 192 445 0
2017-11-20 15:09:29 GMT 51.28260 -3.06313 37,000 192 445 0
2017-11-20 15:09:29 GMT 51.28386 -3.06266 37,000 192 445 0
2017-11-20 15:09:27 GMT 51.28558 -3.06213 37,000 192 445 0
2017-11-20 15:09:25 GMT 51.29121 -3.06038 37,000 192 445 0
2017-11-20 15:09:24 GMT 51.29074 -3.06053 37,000 192 445 0
2017-11-20 15:09:22 GMT 51.29727 -3.05850 37,000 192 445 0
2017-11-20 15:09:20 GMT 51.30235 -3.05695 37,000 192 445 0
2017-11-20 15:09:18 GMT 51.30410 -3.05633 37,000 192 445 0
2017-11-20 15:09:16 GMT 51.31000 -3.05450 37,000 192 445 0
2017-11-20 15:09:14 GMT 51.31096 -3.05420 37,000 192 445 0
2017-11-20 15:09:12 GMT 51.31613 -3.05264 37,000 192 445 0
2017-11-20 15:09:10 GMT 51.31961 -3.05153 37,000 192 445 0
2017-11-20 15:09:08 GMT 51.32519 -3.04977 37,000 191 446 0
2017-11-20 15:09:08 GMT 51.32519 -3.04977 37,000 191 446 0
2017-11-20 15:09:06 GMT 51.32817 -3.04886 37,000 191 446 0
2017-11-20 15:09:06 GMT 51.32817 -3.04886 37,000 191 446 0
2017-11-20 15:09:04 GMT 51.33206 -3.04767 37,000 191 446 -64
2017-11-20 15:09:02 GMT 51.33720 -3.04604 37,000 191 446 -64
2017-11-20 15:09:00 GMT 51.34158 -3.04466 37,000 191 446 -64
2017-11-20 15:08:58 GMT 51.34415 -3.04388 37,000 191 446 -64
2017-11-20 15:08:56 GMT 51.34884 -3.04245 37,000 191 446 -64
2017-11-20 15:08:54 GMT 51.35403 -3.04084 37,000 192 446 -64
2017-11-20 15:08:54 GMT 51.35403 -3.04084 37,000 192 446 -64
2017-11-20 15:08:52 GMT 51.35541 -3.04039 37,000 192 446 -64
2017-11-20 15:08:50 GMT 51.36225 -3.03825 37,025 192 446 -64
2017-11-20 15:08:48 GMT 51.36438 -3.03757 37,025 192 446 -128
2017-11-20 15:08:48 GMT 51.36438 -3.03757 37,025 192 446 -128
2017-11-20 15:08:46 GMT 51.36832 -3.03631 37,025 192 446 -128
2017-11-20 15:08:44 GMT 51.37431 -3.03445 37,025 192 446 -128
2017-11-20 15:08:43 GMT 51.37603 -3.03390 37,025 192 446 -128
2017-11-20 15:08:41 GMT 51.38036 -3.03261 37,025 192 446 -128
2017-11-20 15:08:39 GMT 51.38635 -3.03067 37,050 192 446 -64
2017-11-20 15:08:37 GMT 51.38722 -3.03044 37,050 192 446 -64
2017-11-20 15:08:35 GMT 51.39241 -3.02879 37,050 192 446 0
2017-11-20 15:08:33 GMT 51.39587 -3.02770 37,050 192 446 0
2017-11-20 15:08:31 GMT 51.39977 -3.02650 37,050 192 446 0
2017-11-20 15:08:29 GMT 51.40186 -3.02582 37,050 192 446 0
2017-11-20 15:08:27 GMT 51.40709 -3.02413 37,050 192 446 0
2017-11-20 15:08:25 GMT 51.41139 -3.02280 37,050 192 446 0
2017-11-20 15:08:23 GMT 51.41737 -3.02094 37,050 192 446 0
2017-11-20 15:08:21 GMT 51.41867 -3.02050 37,050 192 446 0
2017-11-20 15:08:19 GMT 51.42584 -3.01819 37,050 192 445 0
2017-11-20 15:08:16 GMT 51.43031 -3.01674 37,050 192 446 64
2017-11-20 15:08:14 GMT 51.43417 -3.01552 37,050 192 446 0
2017-11-20 15:08:13 GMT 51.43927 -3.01382 37,050 192 445 0
2017-11-20 15:08:11 GMT 51.43934 -3.01384 37,050 192 445 0
2017-11-20 15:08:09 GMT 51.44320 -3.01254 37,050 192 446 64
2017-11-20 15:08:07 GMT 51.44756 -3.01114 37,050 192 446 64
2017-11-20 15:08:05 GMT 51.45275 -3.00942 37,050 192 446 64
2017-11-20 15:08:05 GMT 51.45275 -3.00942 37,050 192 446 64
2017-11-20 15:08:03 GMT 51.45698 -3.00796 37,050 192 446 64
2017-11-20 15:08:01 GMT 51.45870 -3.00743 37,050 192 446 64
2017-11-20 15:08:01 GMT 51.45870 -3.00743 37,050 192 446 64
2017-11-20 15:07:59 GMT 51.46477 -3.00543 37,050 192 446 64
2017-11-20 15:07:59 GMT 51.46477 -3.00543 37,050 192 446 64
2017-11-20 15:07:56 GMT 51.47154 -3.00313 37,050 193 446 64
2017-11-20 15:07:54 GMT 51.47420 -3.00224 37,050 193 446 64
2017-11-20 15:07:51 GMT 51.47983 -3.00031 37,050 193 446 64
2017-11-20 15:07:51 GMT 51.48065 -3.00001 37,050 193 446 64
2017-11-20 15:07:49 GMT 51.48454 -2.99866 37,050 193 447 64
2017-11-20 15:07:47 GMT 51.48711 -2.99778 37,050 193 447 64
2017-11-20 15:07:45 GMT 51.49187 -2.99608 37,050 193 447 0
2017-11-20 15:07:43 GMT 51.49744 -2.99416 37,050 193 447 -64
2017-11-20 15:07:41 GMT 51.50001 -2.99325 37,050 193 447 -64
2017-11-20 15:07:39 GMT 51.50400 -2.99184 37,050 193 447 -64
2017-11-20 15:07:37 GMT 51.50698 -2.99080 37,050 193 447 -64
2017-11-20 15:07:35 GMT 51.51123 -2.98932 37,050 193 447 -64
2017-11-20 15:07:33 GMT 51.51553 -2.98776 37,050 193 447 -64
2017-11-20 15:07:31 GMT 51.52116 -2.98576 37,050 193 447 0
2017-11-20 15:07:29 GMT 51.52506 -2.98442 37,050 193 447 0
2017-11-20 15:07:27 GMT 51.52802 -2.98332 37,050 193 447 0
2017-11-20 15:07:25 GMT 51.53229 -2.98182 37,050 193 447 64
2017-11-20 15:07:23 GMT 51.53538 -2.98080 37,050 193 447 128
2017-11-20 15:07:21 GMT 51.54272 -2.97826 37,050 192 447 192
2017-11-20 15:07:19 GMT 51.54483 -2.97752 37,050 192 448 192
2017-11-20 15:07:17 GMT 51.54872 -2.97626 37,050 192 448 192
2017-11-20 15:07:15 GMT 51.55463 -2.97425 37,025 192 448 192
2017-11-20 15:07:15 GMT 51.55463 -2.97425 37,025 192 448 192
2017-11-20 15:07:13 GMT 51.55609 -2.97378 37,025 192 448 192
2017-11-20 15:07:10 GMT 51.56340 -2.97150 37,025 191 449 192
2017-11-20 15:07:08 GMT 51.56861 -2.96997 37,000 190 450 64
2017-11-20 15:07:07 GMT 51.56937 -2.96972 37,025 191 449 128
2017-11-20 15:07:05 GMT 51.57523 -2.96802 37,000 190 450 64
2017-11-20 15:07:03 GMT 51.57779 -2.96735 37,000 190 450 64
2017-11-20 15:07:01 GMT 51.58170 -2.96631 37,000 189 451 64
2017-11-20 15:06:59 GMT 51.58770 -2.96486 37,000 188 451 0
2017-11-20 15:06:57 GMT 51.59010 -2.96430 37,000 188 451 0
2017-11-20 15:06:55 GMT 51.59358 -2.96356 37,000 188 451 0
2017-11-20 15:06:53 GMT 51.59848 -2.96252 37,000 187 452 0
2017-11-20 15:06:51 GMT 51.60159 -2.96193 37,000 187 452 64
2017-11-20 15:06:48 GMT 51.60823 -2.96067 37,000 187 452 64
2017-11-20 15:06:46 GMT 51.61479 -2.95944 37,000 187 451 64
2017-11-20 15:06:44 GMT 51.61610 -2.95921 37,000 187 451 64
2017-11-20 15:06:44 GMT 51.61531 -2.95937 37,000 187 451 64
2017-11-20 15:06:42 GMT 51.61926 -2.95866 37,000 187 451 64
2017-11-20 15:06:40 GMT 51.62499 -2.95755 37,000 187 451 64
2017-11-20 15:06:38 GMT 51.62892 -2.95681 36,975 187 450 64
2017-11-20 15:06:38 GMT 51.62892 -2.95681 36,975 187 450 64
2017-11-20 15:06:38 GMT 51.62892 -2.95681 36,975 187 450 64
2017-11-20 15:06:36 GMT 51.63495 -2.95570 36,975 187 450 64
2017-11-20 15:06:34 GMT 51.63686 -2.95532 36,975 187 450 64
2017-11-20 15:06:32 GMT 51.64124 -2.95456 36,975 187 450 64
2017-11-20 15:06:30 GMT 51.64519 -2.95380 36,975 187 450 64
2017-11-20 15:06:28 GMT 51.65301 -2.95227 36,975 187 449 0
2017-11-20 15:06:28 GMT 51.65301 -2.95227 36,975 187 449 0
2017-11-20 15:06:26 GMT 51.65309 -2.95228 36,975 187 449 0
2017-11-20 15:06:24 GMT 51.65707 -2.95154 36,975 187 449 0
2017-11-20 15:06:22 GMT 51.66280 -2.95042 36,975 187 448 0
2017-11-20 15:06:20 GMT 51.66719 -2.94953 36,975 187 448 0
2017-11-20 15:06:18 GMT 51.67113 -2.94879 36,975 187 448 64
2017-11-20 15:06:17 GMT 51.67336 -2.94838 36,975 187 448 64
2017-11-20 15:06:17 GMT 51.67204 -2.94864 36,975 187 448 64
2017-11-20 15:06:16 GMT 51.67506 -2.94805 36,975 187 448 64
2017-11-20 15:06:14 GMT 51.67941 -2.94716 36,975 187 448 64
2017-11-20 15:06:12 GMT 51.68335 -2.94641 36,975 187 447 64
2017-11-20 15:06:10 GMT 51.68648 -2.94579 36,975 187 447 64
2017-11-20 15:06:08 GMT 51.68951 -2.94525 36,975 187 448 64
2017-11-20 15:06:06 GMT 51.69571 -2.94411 36,975 186 449 64
2017-11-20 15:06:06 GMT 51.69479 -2.94426 36,975 186 449 64
2017-11-20 15:06:04 GMT 51.69784 -2.94380 36,975 186 449 64
2017-11-20 15:06:02 GMT 51.70268 -2.94304 36,975 185 449 64
2017-11-20 15:06:02 GMT 51.70268 -2.94304 36,975 186 449 64
2017-11-20 15:06:00 GMT 51.70757 -2.94235 36,950 185 450 64
2017-11-20 15:05:58 GMT 51.71106 -2.94197 36,950 184 450 64
2017-11-20 15:05:56 GMT 51.71502 -2.94151 36,950 184 450 64
2017-11-20 15:05:54 GMT 51.72037 -2.94090 36,950 184 451 64
2017-11-20 15:05:51 GMT 51.72624 -2.94040 36,950 183 451 64
2017-11-20 15:05:49 GMT 51.73636 -2.93959 36,950 183 451 -64
2017-11-20 15:05:46 GMT 51.73636 -2.93959 36,950 183 451 -64
2017-11-20 15:05:44 GMT 51.74086 -2.93922 36,950 183 451 -64
2017-11-20 15:05:44 GMT 51.74086 -2.93922 36,950 183 451 -64
2017-11-20 15:05:42 GMT 51.74483 -2.93892 36,950 183 451 -64
2017-11-20 15:05:40 GMT 51.75265 -2.93832 36,950 183 451 0
2017-11-20 15:05:38 GMT 51.75417 -2.93816 36,950 183 451 0
2017-11-20 15:05:35 GMT 51.75897 -2.93780 36,950 183 451 0
2017-11-20 15:05:33 GMT 51.76300 -2.93751 36,950 183 451 0
2017-11-20 15:05:31 GMT 51.76707 -2.93714 36,950 183 451 0
2017-11-20 15:05:29 GMT 51.77147 -2.93684 36,950 183 451 0
2017-11-20 15:05:26 GMT 51.77893 -2.93624 36,950 184 450 64
2017-11-20 15:05:26 GMT 51.77811 -2.93632 36,975 183 450 0
2017-11-20 15:05:24 GMT 51.78296 -2.93587 36,975 183 450 0
2017-11-20 15:05:22 GMT 51.78653 -2.93558 36,950 183 450 64
2017-11-20 15:05:19 GMT 51.79276 -2.93510 36,950 183 450 64
2017-11-20 15:05:17 GMT 51.79541 -2.93491 36,950 183 450 64
2017-11-20 15:05:15 GMT 51.80072 -2.93442 36,950 183 450 128
2017-11-20 15:05:13 GMT 51.80868 -2.93379 36,950 184 450 128
2017-11-20 15:05:11 GMT 51.80951 -2.93372 36,950 184 450 128
2017-11-20 15:05:09 GMT 51.81399 -2.93335 36,950 184 450 128
2017-11-20 15:05:07 GMT 51.81917 -2.93290 36,950 184 450 128
2017-11-20 15:05:05 GMT 51.82330 -2.93251 36,950 184 450 64
2017-11-20 15:05:05 GMT 51.82104 -2.93276 36,950 184 450 64
2017-11-20 15:05:03 GMT 51.82640 -2.93231 36,950 184 450 64
2017-11-20 15:05:00 GMT 51.83345 -2.93167 36,950 184 450 64
2017-11-20 15:05:00 GMT 51.83345 -2.93167 36,950 184 450 64
2017-11-20 15:04:58 GMT 51.83528 -2.93157 36,925 184 450 64
2017-11-20 15:04:55 GMT 51.84062 -2.93106 36,925 184 450 64
2017-11-20 15:04:53 GMT 51.84723 -2.93053 36,950 184 451 -64
2017-11-20 15:04:53 GMT 51.84723 -2.93053 36,950 184 451 -64
2017-11-20 15:04:53 GMT 51.84807 -2.93045 36,950 184 451 -64
2017-11-20 15:04:51 GMT 51.84943 -2.93031 36,950 184 451 -64
2017-11-20 15:04:49 GMT 51.85472 -2.92992 36,950 184 450 -64
2017-11-20 15:04:47 GMT 51.85872 -2.92956 36,950 183 450 64
2017-11-20 15:04:45 GMT 51.86270 -2.92919 36,950 184 450 -64
2017-11-20 15:04:43 GMT 51.86627 -2.92890 36,950 184 450 -64
2017-11-20 15:04:41 GMT 51.87069 -2.92854 36,950 184 450 0
2017-11-20 15:04:39 GMT 51.87602 -2.92808 36,950 184 450 0
2017-11-20 15:04:37 GMT 51.87959 -2.92778 36,950 184 450 64
2017-11-20 15:04:35 GMT 51.88717 -2.92717 36,950 183 450 64
2017-11-20 15:04:33 GMT 51.88847 -2.92704 36,975 183 450 64
2017-11-20 15:04:31 GMT 51.89287 -2.92667 36,950 183 450 64
2017-11-20 15:04:29 GMT 51.89511 -2.92648 36,950 183 450 64
2017-11-20 15:04:27 GMT 51.90309 -2.92582 36,950 183 450 0
2017-11-20 15:04:25 GMT 51.90393 -2.92574 36,950 183 450 64
2017-11-20 15:04:23 GMT 51.90926 -2.92526 36,950 183 450 0
2017-11-20 15:04:21 GMT 51.91375 -2.92495 36,950 183 450 0
2017-11-20 15:04:19 GMT 51.91929 -2.92448 36,950 183 451 0
2017-11-20 15:04:17 GMT 51.92253 -2.92419 36,950 183 451 -64
2017-11-20 15:04:14 GMT 51.92748 -2.92381 36,950 183 451 -64
2017-11-20 15:04:12 GMT 51.93279 -2.92335 36,950 183 451 -64
2017-11-20 15:04:12 GMT 51.93279 -2.92335 36,950 183 451 -64
2017-11-20 15:04:10 GMT 51.93451 -2.92323 36,950 183 451 -64
2017-11-20 15:04:08 GMT 51.93987 -2.92276 36,950 183 451 -128
2017-11-20 15:04:05 GMT 51.94569 -2.92236 36,975 183 452 -128
2017-11-20 15:04:03 GMT 51.95146 -2.92189 36,975 183 452 -192
2017-11-20 15:04:03 GMT 51.95146 -2.92189 36,975 183 452 -192
2017-11-20 15:04:01 GMT 51.95635 -2.92150 36,975 183 452 -192
2017-11-20 15:04:01 GMT 51.95546 -2.92158 36,975 183 452 -128
2017-11-20 15:03:59 GMT 51.95988 -2.92119 36,975 183 452 -128
2017-11-20 15:03:57 GMT 51.96254 -2.92099 36,975 183 452 -192
2017-11-20 15:03:55 GMT 51.96785 -2.92056 37,000 183 452 -192
2017-11-20 15:03:53 GMT 51.97105 -2.92030 37,000 183 452 -192
2017-11-20 15:03:51 GMT 51.97637 -2.91985 37,000 183 452 -192
2017-11-20 15:03:49 GMT 51.97986 -2.91962 37,025 183 452 -192
2017-11-20 15:03:47 GMT 51.98254 -2.91939 37,025 183 452 -128
2017-11-20 15:03:45 GMT 51.98744 -2.91901 37,025 183 452 -128
2017-11-20 15:03:43 GMT 51.99101 -2.91870 37,025 183 452 -128
2017-11-20 15:03:41 GMT 51.99587 -2.91832 37,025 183 452 -128
2017-11-20 15:03:39 GMT 51.99987 -2.91797 37,050 183 452 -64
2017-11-20 15:03:37 GMT 52.00745 -2.91740 37,050 183 452 -64
2017-11-20 15:03:35 GMT 52.00836 -2.91733 37,050 183 452 -64
2017-11-20 15:03:35 GMT 52.00836 -2.91733 37,050 183 452 -64
2017-11-20 15:03:33 GMT 52.01370 -2.91687 37,050 183 452 0
2017-11-20 15:03:31 GMT 52.01889 -2.91649 37,050 183 452 64
2017-11-20 15:03:31 GMT 52.01889 -2.91649 37,050 183 452 64
2017-11-20 15:03:29 GMT 52.02173 -2.91626 37,050 183 453 0
2017-11-20 15:03:27 GMT 52.02525 -2.91595 37,050 183 454 0
2017-11-20 15:03:25 GMT 52.03060 -2.91554 37,050 183 453 0
2017-11-20 15:03:23 GMT 52.03285 -2.91534 37,050 183 453 0
2017-11-20 15:03:21 GMT 52.03912 -2.91491 37,050 183 454 0
2017-11-20 15:03:19 GMT 52.04396 -2.91452 37,050 183 454 0
2017-11-20 15:03:17 GMT 52.04622 -2.91428 37,050 183 454 0
2017-11-20 15:03:14 GMT 52.05252 -2.91381 37,050 183 454 -64
2017-11-20 15:03:12 GMT 52.05830 -2.91334 37,050 183 455 -64
2017-11-20 15:03:10 GMT 52.06192 -2.91305 37,050 183 455 0
2017-11-20 15:03:08 GMT 52.06412 -2.91295 37,050 183 455 0
2017-11-20 15:03:06 GMT 52.06728 -2.91263 37,050 183 455 0
2017-11-20 15:03:04 GMT 52.07309 -2.91222 37,050 183 455 0
2017-11-20 15:03:02 GMT 52.07752 -2.91185 37,050 183 456 64
2017-11-20 15:03:00 GMT 52.08293 -2.91145 37,050 183 456 0
2017-11-20 15:02:58 GMT 52.08655 -2.91115 37,050 183 456 64
2017-11-20 15:02:57 GMT 52.08921 -2.91099 37,050 183 456 64
2017-11-20 15:02:56 GMT 52.09058 -2.91084 37,050 183 456 64
2017-11-20 15:02:56 GMT 52.09149 -2.91077 37,050 183 456 64
2017-11-20 15:02:54 GMT 52.09460 -2.91054 37,050 183 456 64
2017-11-20 15:02:52 GMT 52.10001 -2.91008 37,050 183 456 0
2017-11-20 15:02:50 GMT 52.10403 -2.90977 37,050 183 456 0
2017-11-20 15:02:47 GMT 52.11118 -2.90918 37,050 183 457 0
2017-11-20 15:02:45 GMT 52.11523 -2.90887 37,050 183 457 0
2017-11-20 15:02:43 GMT 52.11845 -2.90863 37,050 183 457 0
2017-11-20 15:02:41 GMT 52.12063 -2.90840 37,050 184 457 0
2017-11-20 15:02:39 GMT 52.12697 -2.90787 37,050 184 457 0
2017-11-20 15:02:36 GMT 52.13370 -2.90733 37,050 183 458 0
2017-11-20 15:02:34 GMT 52.13641 -2.90714 37,050 183 458 0
2017-11-20 15:02:32 GMT 52.14047 -2.90680 37,050 183 458 0
2017-11-20 15:02:30 GMT 52.14493 -2.90636 37,050 183 458 0
2017-11-20 15:02:28 GMT 52.14996 -2.90596 37,050 183 458 0
2017-11-20 15:02:26 GMT 52.15443 -2.90557 37,050 183 458 0
2017-11-20 15:02:24 GMT 52.15713 -2.90535 37,050 183 459 0
2017-11-20 15:02:24 GMT 52.15713 -2.90535 37,050 183 459 0
2017-11-20 15:02:22 GMT 52.16125 -2.90504 37,050 183 459 0
2017-11-20 15:02:20 GMT 52.16803 -2.90443 37,050 183 459 0
2017-11-20 15:02:18 GMT 52.17160 -2.90413 37,050 183 459 0
2017-11-20 15:02:18 GMT 52.17256 -2.90405 37,050 183 459 0
2017-11-20 15:02:16 GMT 52.17612 -2.90376 37,050 183 459 -64
2017-11-20 15:02:14 GMT 52.18016 -2.90344 37,050 183 459 0
2017-11-20 15:02:14 GMT 52.18016 -2.90344 37,050 183 459 0
2017-11-20 15:02:12 GMT 52.18245 -2.90329 37,050 183 459 0
2017-11-20 15:02:10 GMT 52.18840 -2.90276 37,050 183 460 0
2017-11-20 15:02:08 GMT 52.19289 -2.90237 37,050 183 460 0
2017-11-20 15:02:06 GMT 52.19696 -2.90207 37,075 183 460 64
2017-11-20 15:02:04 GMT 52.20145 -2.90169 37,075 183 459 128
2017-11-20 15:02:02 GMT 52.20326 -2.90157 37,050 183 459 128
2017-11-20 15:02:00 GMT 52.20782 -2.90117 37,050 183 459 192
2017-11-20 15:01:58 GMT 52.21187 -2.90078 37,050 183 460 192
2017-11-20 15:01:58 GMT 52.21187 -2.90078 37,050 183 460 192
2017-11-20 15:01:56 GMT 52.21555 -2.90054 37,050 183 460 192
2017-11-20 15:01:54 GMT 52.22277 -2.89992 37,025 183 460 192
2017-11-20 15:01:52 GMT 52.22493 -2.89970 37,025 183 460 192
2017-11-20 15:01:50 GMT 52.23088 -2.89925 37,025 183 460 192
2017-11-20 15:01:48 GMT 52.23226 -2.89913 37,025 183 460 192
2017-11-20 15:01:48 GMT 52.23226 -2.89913 37,025 183 460 192
2017-11-20 15:01:46 GMT 52.23990 -2.89851 37,000 183 460 128
2017-11-20 15:01:44 GMT 52.24260 -2.89827 37,000 183 460 128
2017-11-20 15:01:42 GMT 52.24896 -2.89772 37,000 183 460 128
2017-11-20 15:01:40 GMT 52.25074 -2.89757 37,000 183 459 128
2017-11-20 15:01:38 GMT 52.25531 -2.89717 37,000 183 459 64
2017-11-20 15:01:36 GMT 52.25940 -2.89686 37,000 183 459 64
2017-11-20 15:01:36 GMT 52.25940 -2.89686 37,000 183 459 64
2017-11-20 15:01:34 GMT 52.26429 -2.89647 37,000 183 459 64
2017-11-20 15:01:32 GMT 52.26984 -2.89597 37,000 183 459 64
2017-11-20 15:01:30 GMT 52.27336 -2.89566 37,000 183 459 64
2017-11-20 15:01:28 GMT 52.27661 -2.89543 37,000 183 458 64
2017-11-20 15:01:26 GMT 52.28245 -2.89490 37,000 183 458 64
2017-11-20 15:01:24 GMT 52.28556 -2.89466 37,000 183 458 64
2017-11-20 15:01:22 GMT 52.28870 -2.89444 37,000 183 458 64
2017-11-20 15:01:20 GMT 52.29369 -2.89398 36,975 183 457 128
2017-11-20 15:01:18 GMT 52.29678 -2.89372 36,975 183 457 128
2017-11-20 15:01:18 GMT 52.29678 -2.89372 36,975 183 457 128
2017-11-20 15:01:18 GMT 52.29678 -2.89372 36,975 183 457 128
2017-11-20 15:01:15 GMT 52.30488 -2.89309 36,975 183 457 128
2017-11-20 15:01:13 GMT 52.30897 -2.89269 36,975 183 457 128
2017-11-20 15:01:11 GMT 52.31218 -2.89246 36,975 183 457 128
2017-11-20 15:01:09 GMT 52.31662 -2.89208 36,975 183 457 128
2017-11-20 15:01:07 GMT 52.32280 -2.89154 36,950 183 456 64
2017-11-20 15:01:05 GMT 52.32513 -2.89137 36,950 183 457 128
2017-11-20 15:01:05 GMT 52.32513 -2.89137 36,950 183 457 128
2017-11-20 15:01:03 GMT 52.32834 -2.89108 36,950 183 456 128
2017-11-20 15:01:01 GMT 52.33761 -2.89035 36,950 183 456 64
2017-11-20 15:01:01 GMT 52.33761 -2.89035 36,950 183 456 0
2017-11-20 15:01:01 GMT 52.33375 -2.89066 36,950 183 456 64
2017-11-20 15:00:59 GMT 52.33818 -2.89024 36,950 183 456 64
2017-11-20 15:00:59 GMT 52.33818 -2.89024 36,950 183 456 64
2017-11-20 15:00:59 GMT 52.33818 -2.89024 36,950 183 456 64
2017-11-20 15:00:58 GMT 52.33957 -2.89019 36,950 183 456 0
2017-11-20 15:00:57 GMT 52.34133 -2.89003 36,950 183 456 0
2017-11-20 15:00:55 GMT 52.34495 -2.88971 36,950 183 456 0
2017-11-20 15:00:53 GMT 52.35125 -2.88917 36,950 183 456 0
2017-11-20 15:00:51 GMT 52.35530 -2.88887 36,950 183 456 0
2017-11-20 15:00:49 GMT 52.35884 -2.88862 36,950 183 456 0
2017-11-20 15:00:47 GMT 52.36242 -2.88831 36,950 183 456 0
2017-11-20 15:00:45 GMT 52.36740 -2.88791 36,950 183 455 0
2017-11-20 15:00:43 GMT 52.37094 -2.88760 36,950 183 455 0
2017-11-20 15:00:43 GMT 52.37094 -2.88760 36,950 183 455 0
2017-11-20 15:00:41 GMT 52.37588 -2.88721 36,950 183 455 0
2017-11-20 15:00:39 GMT 52.38263 -2.88666 36,950 183 455 0
2017-11-20 15:00:39 GMT 52.38170 -2.88674 36,950 183 455 0
2017-11-20 15:00:37 GMT 52.38446 -2.88651 36,950 183 454 0
2017-11-20 15:00:37 GMT 52.38570 -2.88642 36,950 183 454 0
2017-11-20 15:00:34 GMT 52.38933 -2.88619 36,950 183 454 0
2017-11-20 15:00:32 GMT 52.39467 -2.88574 36,950 183 454 0
2017-11-20 15:00:30 GMT 52.39827 -2.88540 36,950 183 453 0
2017-11-20 15:00:28 GMT 52.40446 -2.88493 36,950 183 453 0
2017-11-20 15:00:28 GMT 52.40446 -2.88493 36,950 183 453 0
2017-11-20 15:00:26 GMT 52.40630 -2.88475 36,950 183 453 0
2017-11-20 15:00:24 GMT 52.41124 -2.88437 36,950 183 452 0
2017-11-20 15:00:22 GMT 52.41476 -2.88406 36,950 184 452 0
2017-11-20 15:00:20 GMT 52.41875 -2.88376 36,950 184 451 0
2017-11-20 15:00:18 GMT 52.42406 -2.88330 36,950 184 451 0
2017-11-20 15:00:16 GMT 52.42809 -2.88292 36,950 184 450 0
2017-11-20 15:00:14 GMT 52.43381 -2.88246 36,950 184 450 0
2017-11-20 15:00:13 GMT 52.43298 -2.88254 36,950 184 450 0
2017-11-20 15:00:11 GMT 52.43870 -2.88200 36,950 184 449 0
2017-11-20 15:00:11 GMT 52.43870 -2.88200 36,950 184 448 -64
2017-11-20 15:00:09 GMT 52.44268 -2.88164 36,950 184 449 0
2017-11-20 15:00:07 GMT 52.44626 -2.88132 36,950 184 449 -64
2017-11-20 15:00:05 GMT 52.45106 -2.88085 36,950 184 448 -64
2017-11-20 15:00:03 GMT 52.45627 -2.88038 36,950 184 448 -64
2017-11-20 15:00:01 GMT 52.45897 -2.88014 36,950 184 448 -64
2017-11-20 14:59:59 GMT 52.46162 -2.87991 36,950 184 448 -64
2017-11-20 14:59:57 GMT 52.47080 -2.87903 36,950 184 448 -64
2017-11-20 14:59:55 GMT 52.47219 -2.87889 36,975 184 448 -64
2017-11-20 14:59:53 GMT 52.47446 -2.87865 36,975 184 448 -64
2017-11-20 14:59:53 GMT 52.47533 -2.87857 36,975 183 449 -128
2017-11-20 14:59:51 GMT 52.47931 -2.87819 36,975 184 448 -64
2017-11-20 14:59:49 GMT 52.48503 -2.87765 36,975 183 448 -64
2017-11-20 14:59:47 GMT 52.49016 -2.87732 36,975 183 449 -128
2017-11-20 14:59:45 GMT 52.49296 -2.87708 36,975 182 450 -64
2017-11-20 14:59:43 GMT 52.49654 -2.87685 36,975 182 450 -128
2017-11-20 14:59:41 GMT 52.50133 -2.87669 36,975 182 451 -128
2017-11-20 14:59:41 GMT 52.50133 -2.87669 36,975 182 451 -128
2017-11-20 14:59:39 GMT 52.50494 -2.87659 36,975 181 451 -128
2017-11-20 14:59:37 GMT 52.50934 -2.87651 37,000 181 452 -128
2017-11-20 14:59:37 GMT 52.50934 -2.87651 37,000 181 452 -128
2017-11-20 14:59:35 GMT 52.51116 -2.87646 37,000 179 452 -128
2017-11-20 14:59:33 GMT 52.51826 -2.87651 37,000 179 453 -64
2017-11-20 14:59:30 GMT 52.52405 -2.87661 37,000 178 453 -64
2017-11-20 14:59:28 GMT 52.52669 -2.87674 37,000 178 454 0
2017-11-20 14:59:26 GMT 52.53206 -2.87693 37,000 178 454 0
2017-11-20 14:59:24 GMT 52.53818 -2.87727 37,000 178 454 0
2017-11-20 14:59:22 GMT 52.54102 -2.87743 37,000 177 454 0
2017-11-20 14:59:20 GMT 52.54504 -2.87765 37,000 177 454 0
2017-11-20 14:59:18 GMT 52.54733 -2.87779 37,000 177 454 0
2017-11-20 14:59:16 GMT 52.55310 -2.87810 37,000 177 454 0
2017-11-20 14:59:14 GMT 52.55621 -2.87826 37,000 177 454 -64
2017-11-20 14:59:12 GMT 52.56024 -2.87849 37,025 177 454 -64
2017-11-20 14:59:12 GMT 52.56024 -2.87849 37,025 177 454 -64
2017-11-20 14:59:10 GMT 52.56692 -2.87888 37,025 178 455 0
2017-11-20 14:59:08 GMT 52.57104 -2.87911 37,025 178 455 0
2017-11-20 14:59:06 GMT 52.57457 -2.87933 37,025 178 455 0
2017-11-20 14:59:04 GMT 52.57684 -2.87944 37,025 178 455 0
2017-11-20 14:59:02 GMT 52.58168 -2.87975 37,025 178 455 0
2017-11-20 14:59:00 GMT 52.58707 -2.88002 37,025 178 455 0
2017-11-20 14:58:58 GMT 52.59025 -2.88014 37,025 178 455 -64
2017-11-20 14:58:56 GMT 52.59430 -2.88038 37,025 178 455 -64
2017-11-20 14:58:54 GMT 52.60007 -2.88069 37,025 178 455 -64
2017-11-20 14:58:52 GMT 52.60529 -2.88101 37,025 178 455 -64
2017-11-20 14:58:50 GMT 52.60909 -2.88117 37,025 178 455 0
2017-11-20 14:58:48 GMT 52.61176 -2.88132 37,025 178 455 0
2017-11-20 14:58:46 GMT 52.61622 -2.88156 37,025 178 456 0
2017-11-20 14:58:44 GMT 52.62023 -2.88179 37,025 177 456 0
2017-11-20 14:58:43 GMT 52.62023 -2.88179 37,025 177 456 0
2017-11-20 14:58:41 GMT 52.62566 -2.88208 37,025 177 456 0
2017-11-20 14:58:39 GMT 52.63145 -2.88242 37,025 177 456 0
2017-11-20 14:58:37 GMT 52.63373 -2.88258 37,025 177 456 0
2017-11-20 14:58:35 GMT 52.63866 -2.88281 37,025 177 457 0
2017-11-20 14:58:33 GMT 52.64313 -2.88313 37,025 177 457 0
2017-11-20 14:58:31 GMT 52.64676 -2.88330 37,025 177 457 0
2017-11-20 14:58:29 GMT 52.65216 -2.88360 37,025 177 457 0
2017-11-20 14:58:27 GMT 52.65738 -2.88391 37,025 177 457 0
2017-11-20 14:58:25 GMT 52.66205 -2.88414 37,025 178 457 -64
2017-11-20 14:58:23 GMT 52.66431 -2.88430 37,050 178 457 -64
2017-11-20 14:58:21 GMT 52.66836 -2.88454 37,050 178 457 0
2017-11-20 14:58:18 GMT 52.67377 -2.88483 37,050 178 457 0
2017-11-20 14:58:16 GMT 52.68054 -2.88521 37,050 178 458 64
2017-11-20 14:58:14 GMT 52.68270 -2.88532 37,050 178 458 64
2017-11-20 14:58:12 GMT 52.68680 -2.88548 37,050 178 458 64
2017-11-20 14:58:10 GMT 52.69313 -2.88582 37,050 178 458 64
2017-11-20 14:58:08 GMT 52.69757 -2.88612 37,025 178 458 64
2017-11-20 14:58:06 GMT 52.69986 -2.88620 37,025 178 458 128
2017-11-20 14:58:06 GMT 52.69986 -2.88620 37,025 178 458 128
2017-11-20 14:58:06 GMT 52.70078 -2.88628 37,025 178 458 128
2017-11-20 14:58:04 GMT 52.70216 -2.88634 37,025 178 458 128
2017-11-20 14:58:02 GMT 52.70975 -2.88674 37,025 178 458 128
2017-11-20 14:58:00 GMT 52.71254 -2.88689 37,025 178 458 128
2017-11-20 14:57:58 GMT 52.71703 -2.88712 37,025 177 458 64
2017-11-20 14:57:58 GMT 52.71703 -2.88712 37,025 178 459 128
2017-11-20 14:57:56 GMT 52.72060 -2.88736 37,025 178 459 64
2017-11-20 14:57:54 GMT 52.72516 -2.88760 37,025 178 459 64
2017-11-20 14:57:52 GMT 52.73058 -2.88788 37,025 177 459 64
2017-11-20 14:57:50 GMT 52.73286 -2.88803 37,025 177 459 64
2017-11-20 14:57:48 GMT 52.73954 -2.88846 37,000 177 459 64
2017-11-20 14:57:46 GMT 52.74089 -2.88854 37,000 177 459 64
2017-11-20 14:57:46 GMT 52.74089 -2.88854 37,000 177 459 64
2017-11-20 14:57:44 GMT 52.74500 -2.88879 37,000 177 459 64
2017-11-20 14:57:42 GMT 52.74999 -2.88910 37,000 177 459 64
2017-11-20 14:57:40 GMT 52.75406 -2.88933 37,000 177 459 64
2017-11-20 14:57:38 GMT 52.76133 -2.88980 37,000 177 459 64
2017-11-20 14:57:36 GMT 52.76445 -2.89002 37,000 177 459 64
2017-11-20 14:57:34 GMT 52.76720 -2.89024 37,000 177 460 64
2017-11-20 14:57:32 GMT 52.77381 -2.89074 37,000 177 460 64
2017-11-20 14:57:30 GMT 52.77438 -2.89078 37,000 177 460 64
2017-11-20 14:57:28 GMT 52.78212 -2.89131 37,000 177 459 128
2017-11-20 14:57:26 GMT 52.78433 -2.89152 37,000 177 459 128
2017-11-20 14:57:24 GMT 52.79279 -2.89215 37,000 177 459 128
2017-11-20 14:57:24 GMT 52.78838 -2.89184 37,000 177 459 128
2017-11-20 14:57:22 GMT 52.79433 -2.89223 37,000 181 456 0
2017-11-20 14:57:20 GMT 52.79745 -2.89246 37,000 178 458 64
2017-11-20 14:57:18 GMT 52.80107 -2.89269 37,000 179 457 0
2017-11-20 14:57:16 GMT 52.80648 -2.89286 37,000 181 456 0
2017-11-20 14:57:16 GMT 52.80785 -2.89291 37,000 179 457 0
2017-11-20 14:57:14 GMT 52.81096 -2.89299 37,000 181 456 0
2017-11-20 14:57:12 GMT 52.81635 -2.89294 37,000 182 455 -64
2017-11-20 14:57:10 GMT 52.81865 -2.89291 37,000 183 453 0
2017-11-20 14:57:08 GMT 52.82082 -2.89286 37,000 183 454 0
2017-11-20 14:57:06 GMT 52.82533 -2.89261 37,000 183 453 0
2017-11-20 14:57:04 GMT 52.83110 -2.89223 37,000 184 451 0
2017-11-20 14:57:02 GMT 52.83472 -2.89192 37,000 184 450 64
2017-11-20 14:57:02 GMT 52.83472 -2.89192 37,000 184 450 64
2017-11-20 14:57:00 GMT 52.84044 -2.89131 37,000 185 450 128
2017-11-20 14:56:58 GMT 52.84307 -2.89097 37,000 185 449 128
2017-11-20 14:56:57 GMT 52.84307 -2.89097 37,000 185 449 128
2017-11-20 14:56:55 GMT 52.85062 -2.88980 37,000 187 448 64
2017-11-20 14:56:55 GMT 52.85062 -2.88980 37,000 187 448 64
2017-11-20 14:56:54 GMT 52.85193 -2.88963 37,000 187 447 0
2017-11-20 14:56:53 GMT 52.85193 -2.88963 37,000 187 447 64
2017-11-20 14:56:51 GMT 52.86007 -2.88807 37,000 188 446 0
2017-11-20 14:56:49 GMT 52.86374 -2.88721 37,000 189 444 0
2017-11-20 14:56:47 GMT 52.86585 -2.88673 37,000 189 445 0
2017-11-20 14:56:45 GMT 52.86974 -2.88574 37,000 190 444 0
2017-11-20 14:56:43 GMT 52.87282 -2.88493 37,000 190 443 0
2017-11-20 14:56:41 GMT 52.88008 -2.88281 37,000 191 442 0
2017-11-20 14:56:41 GMT 52.88008 -2.88281 37,000 191 442 0
2017-11-20 14:56:39 GMT 52.88351 -2.88170 37,000 192 441 0
2017-11-20 14:56:37 GMT 52.88608 -2.88094 37,000 193 440 0
2017-11-20 14:56:35 GMT 52.89075 -2.87926 37,000 193 439 0
2017-11-20 14:56:33 GMT 52.89455 -2.87781 37,000 194 438 0
2017-11-20 14:56:31 GMT 52.89749 -2.87669 37,000 194 438 0
2017-11-20 14:56:29 GMT 52.90164 -2.87499 37,000 196 437 0
2017-11-20 14:56:27 GMT 52.90663 -2.87285 37,000 197 436 0
2017-11-20 14:56:25 GMT 52.90961 -2.87148 37,000 197 436 0
2017-11-20 14:56:23 GMT 52.91295 -2.86994 37,000 197 435 0
2017-11-20 14:56:23 GMT 52.91295 -2.86994 37,000 197 436 0
2017-11-20 14:56:21 GMT 52.91862 -2.86705 37,000 198 434 0
2017-11-20 14:56:19 GMT 52.92338 -2.86461 37,000 199 433 0
2017-11-20 14:56:17 GMT 52.92594 -2.86319 37,000 199 432 0
2017-11-20 14:56:15 GMT 52.92994 -2.86092 37,000 200 432 64
2017-11-20 14:56:13 GMT 52.93236 -2.85950 37,000 200 430 0
2017-11-20 14:56:11 GMT 52.93674 -2.85684 37,000 202 429 0
2017-11-20 14:56:09 GMT 52.93948 -2.85511 37,000 202 429 0
2017-11-20 14:56:07 GMT 52.94311 -2.85284 37,000 203 428 0
2017-11-20 14:56:05 GMT 52.94582 -2.85095 37,000 204 427 0
2017-11-20 14:56:03 GMT 52.95280 -2.84609 37,025 206 424 64
2017-11-20 14:56:01 GMT 52.95392 -2.84523 37,000 205 425 0
2017-11-20 14:56:01 GMT 52.95475 -2.84467 37,000 205 425 0
2017-11-20 14:55:59 GMT 52.95964 -2.84096 37,000 206 424 64
2017-11-20 14:55:56 GMT 52.96532 -2.83653 37,000 208 421 64
2017-11-20 14:55:54 GMT 52.96600 -2.83600 37,000 207 423 128
2017-11-20 14:55:52 GMT 52.97012 -2.83257 37,000 208 421 64
2017-11-20 14:55:50 GMT 52.97379 -2.82945 37,000 208 421 64
2017-11-20 14:55:48 GMT 52.97645 -2.82725 37,000 208 421 64
2017-11-20 14:55:46 GMT 52.98267 -2.82188 37,000 208 422 0
2017-11-20 14:55:44 GMT 52.98338 -2.82121 37,000 208 422 0
2017-11-20 14:55:44 GMT 52.98417 -2.82050 37,000 208 422 0
2017-11-20 14:55:42 GMT 52.98926 -2.81609 37,000 208 422 -64
2017-11-20 14:55:40 GMT 52.99223 -2.81357 37,000 208 422 0
2017-11-20 14:55:38 GMT 52.99446 -2.81164 37,000 208 421 0
2017-11-20 14:55:36 GMT 52.99809 -2.80842 37,000 208 421 64
2017-11-20 14:55:34 GMT 53.00140 -2.80559 37,000 208 421 64
2017-11-20 14:55:32 GMT 53.00436 -2.80296 37,000 208 421 128
2017-11-20 14:55:30 GMT 53.00987 -2.79814 37,000 208 420 64
2017-11-20 14:55:28 GMT 53.01318 -2.79531 37,000 208 420 128
2017-11-20 14:55:26 GMT 53.01682 -2.79213 37,000 208 420 64
2017-11-20 14:55:24 GMT 53.02039 -2.78896 37,000 208 420 64
2017-11-20 14:55:22 GMT 53.02128 -2.78817 37,000 208 420 64
2017-11-20 14:55:20 GMT 53.02561 -2.78441 37,000 208 420 0
2017-11-20 14:55:18 GMT 53.02931 -2.78114 37,000 208 419 0
2017-11-20 14:55:18 GMT 53.02853 -2.78183 37,000 208 419 0
2017-11-20 14:55:16 GMT 53.03110 -2.77962 37,000 208 419 0
2017-11-20 14:55:14 GMT 53.03771 -2.77381 37,000 208 419 0
2017-11-20 14:55:12 GMT 53.03952 -2.77222 37,000 208 417 -64
2017-11-20 14:55:12 GMT 53.03952 -2.77222 37,000 208 418 -64
2017-11-20 14:55:09 GMT 53.04424 -2.76810 37,000 208 418 -64
2017-11-20 14:55:07 GMT 53.04935 -2.76361 37,000 208 418 0
2017-11-20 14:55:05 GMT 53.05228 -2.76102 37,000 208 417 -64
2017-11-20 14:55:05 GMT 53.05228 -2.76102 37,000 208 417 -64
2017-11-20 14:55:03 GMT 53.05414 -2.75945 37,000 208 417 -64
2017-11-20 14:55:01 GMT 53.05916 -2.75505 37,000 208 417 -64
2017-11-20 14:54:59 GMT 53.06243 -2.75223 37,000 208 417 -128
2017-11-20 14:54:57 GMT 53.06538 -2.74963 37,000 208 417 -64
2017-11-20 14:54:55 GMT 53.06827 -2.74719 37,000 208 417 -128
2017-11-20 14:54:53 GMT 53.07230 -2.74368 37,000 208 417 -128
2017-11-20 14:54:51 GMT 53.07445 -2.74178 37,025 208 417 -128
2017-11-20 14:54:51 GMT 53.07445 -2.74178 37,025 208 417 -128
2017-11-20 14:54:49 GMT 53.07916 -2.73773 37,025 208 417 -64
2017-11-20 14:54:47 GMT 53.08177 -2.73544 37,025 208 417 -64
2017-11-20 14:54:45 GMT 53.08431 -2.73332 37,025 208 417 0
2017-11-20 14:54:43 GMT 53.09050 -2.72790 37,025 208 418 64
2017-11-20 14:54:41 GMT 53.09381 -2.72508 37,025 208 419 64
2017-11-20 14:54:41 GMT 53.09230 -2.72636 37,025 208 418 64
2017-11-20 14:54:38 GMT 53.09889 -2.72069 37,000 208 419 128
2017-11-20 14:54:36 GMT 53.10149 -2.71847 37,000 208 419 192
2017-11-20 14:54:34 GMT 53.10405 -2.71629 37,000 208 420 192
2017-11-20 14:54:32 GMT 53.10878 -2.71213 36,975 208 421 256
2017-11-20 14:54:30 GMT 53.11028 -2.71088 36,975 208 421 256
2017-11-20 14:54:28 GMT 53.11508 -2.70676 36,975 208 422 192
2017-11-20 14:54:26 GMT 53.11762 -2.70452 36,975 208 424 320
2017-11-20 14:54:24 GMT 53.12174 -2.70099 36,950 208 424 448
2017-11-20 14:54:22 GMT 53.12581 -2.69746 36,925 208 425 512
2017-11-20 14:54:20 GMT 53.12979 -2.69401 36,925 208 426 576
2017-11-20 14:54:20 GMT 53.13048 -2.69338 36,925 208 428 960
2017-11-20 14:54:18 GMT 53.13175 -2.69230 36,900 208 427 704
2017-11-20 14:54:16 GMT 53.13588 -2.68875 36,875 208 427 832
2017-11-20 14:54:14 GMT 53.13844 -2.68655 36,875 208 428 1024
2017-11-20 14:54:12 GMT 53.14261 -2.68294 36,825 208 429 1216
2017-11-20 14:54:10 GMT 53.14520 -2.68066 36,800 208 430 1344
2017-11-20 14:54:08 GMT 53.15048 -2.67611 36,750 208 430 1536
2017-11-20 14:54:06 GMT 53.15387 -2.67321 36,700 208 431 1856
2017-11-20 14:54:04 GMT 53.15823 -2.66944 36,650 208 431 1856
2017-11-20 14:54:02 GMT 53.15909 -2.66866 36,600 208 432 1984
2017-11-20 14:54:00 GMT 53.16476 -2.66379 36,500 208 433 1920
2017-11-20 14:53:58 GMT 53.16861 -2.66047 36,450 208 435 1728
2017-11-20 14:53:56 GMT 53.17007 -2.65916 36,425 208 435 1728
2017-11-20 14:53:56 GMT 53.17007 -2.65916 36,425 208 435 1728
2017-11-20 14:53:54 GMT 53.17465 -2.65524 36,350 208 436 1600
2017-11-20 14:53:52 GMT 53.17695 -2.65328 36,300 208 436 1600
2017-11-20 14:53:50 GMT 53.18072 -2.64997 36,250 208 436 1344
2017-11-20 14:53:48 GMT 53.18416 -2.64698 36,200 208 437 1088
2017-11-20 14:53:46 GMT 53.18835 -2.64334 36,150 208 437 832
2017-11-20 14:53:44 GMT 53.19143 -2.64068 36,125 208 437 704
2017-11-20 14:53:42 GMT 53.19603 -2.63672 36,100 208 437 576
2017-11-20 14:53:40 GMT 53.20015 -2.63311 36,075 208 437 512
2017-11-20 14:53:38 GMT 53.20404 -2.62974 36,050 208 437 256
2017-11-20 14:53:36 GMT 53.20702 -2.62711 36,025 208 437 192
2017-11-20 14:53:34 GMT 53.20976 -2.62471 36,025 208 437 64
2017-11-20 14:53:32 GMT 53.21567 -2.61953 36,000 208 437 0
2017-11-20 14:53:30 GMT 53.21777 -2.61774 36,025 208 438 64
2017-11-20 14:53:30 GMT 53.21847 -2.61709 36,000 208 438 64
2017-11-20 14:53:28 GMT 53.22154 -2.61442 36,025 208 438 128
2017-11-20 14:53:26 GMT 53.22464 -2.61176 36,000 208 438 128
2017-11-20 14:53:24 GMT 53.22807 -2.60870 36,000 208 438 192
2017-11-20 14:53:22 GMT 53.23300 -2.60441 36,000 208 438 192
2017-11-20 14:53:20 GMT 53.23531 -2.60243 36,000 208 439 256
2017-11-20 14:53:18 GMT 53.23911 -2.59905 35,975 208 439 256
2017-11-20 14:53:16 GMT 53.24398 -2.59479 35,975 208 439 256
2017-11-20 14:53:14 GMT 53.24640 -2.59269 35,975 208 439 256
2017-11-20 14:53:12 GMT 53.24904 -2.59034 35,975 208 439 256
2017-11-20 14:53:12 GMT 53.24904 -2.59034 35,975 208 439 256
2017-11-20 14:53:10 GMT 53.25366 -2.58631 35,950 208 439 384
2017-11-20 14:53:10 GMT 53.25366 -2.58631 35,950 208 439 320
2017-11-20 14:53:08 GMT 53.25967 -2.58098 35,950 208 439 384
2017-11-20 14:53:08 GMT 53.25595 -2.58430 35,950 208 439 576
2017-11-20 14:53:06 GMT 53.26172 -2.57920 35,950 208 439 512
2017-11-20 14:53:04 GMT 53.26516 -2.57621 35,925 208 439 576
2017-11-20 14:53:02 GMT 53.26822 -2.57347 35,925 208 439 576
2017-11-20 14:53:00 GMT 53.27271 -2.56959 35,900 208 439 576
2017-11-20 14:52:58 GMT 53.27628 -2.56641 35,875 208 438 576
2017-11-20 14:52:56 GMT 53.27971 -2.56342 35,850 208 438 576
2017-11-20 14:52:54 GMT 53.28044 -2.56280 35,850 208 438 576
2017-11-20 14:52:52 GMT 53.28504 -2.55876 35,825 208 438 640
2017-11-20 14:52:50 GMT 53.28890 -2.55537 35,800 208 438 640
2017-11-20 14:52:50 GMT 53.28890 -2.55537 35,800 208 438 640
2017-11-20 14:52:48 GMT 53.29230 -2.55230 35,800 208 437 640
2017-11-20 14:52:46 GMT 53.29573 -2.54930 35,775 208 437 640
2017-11-20 14:52:44 GMT 53.30134 -2.54439 35,750 208 437 640
2017-11-20 14:52:44 GMT 53.30134 -2.54439 35,750 208 437 640
2017-11-20 14:52:42 GMT 53.30333 -2.54263 35,725 208 437 640
2017-11-20 14:52:40 GMT 53.30640 -2.53996 35,700 208 436 640
2017-11-20 14:52:38 GMT 53.31018 -2.53671 35,675 208 436 640
2017-11-20 14:52:36 GMT 53.31734 -2.53046 35,650 208 436 576
2017-11-20 14:52:34 GMT 53.31744 -2.53033 35,625 208 436 576
2017-11-20 14:52:32 GMT 53.32158 -2.52669 35,600 208 436 576
2017-11-20 14:52:30 GMT 53.32549 -2.52340 35,575 208 436 576
2017-11-20 14:52:28 GMT 53.32964 -2.51975 35,550 208 437 768
2017-11-20 14:52:26 GMT 53.33272 -2.51713 35,550 208 437 896
2017-11-20 14:52:24 GMT 53.33501 -2.51516 35,525 208 438 960
2017-11-20 14:52:22 GMT 53.33849 -2.51218 35,500 208 438 1152
2017-11-20 14:52:20 GMT 53.34309 -2.50828 35,450 207 438 1472
2017-11-20 14:52:20 GMT 53.34309 -2.50828 35,450 207 438 1408
2017-11-20 14:52:20 GMT 53.34309 -2.50828 35,450 207 438 1472
2017-11-20 14:52:18 GMT 53.34691 -2.50496 35,400 207 438 1536
2017-11-20 14:52:18 GMT 53.34770 -2.50432 35,400 207 438 1600
2017-11-20 14:52:16 GMT 53.34920 -2.50300 35,375 207 439 1856
2017-11-20 14:52:14 GMT 53.35496 -2.49813 35,275 207 440 1792
2017-11-20 14:52:12 GMT 53.35840 -2.49523 35,250 207 440 1792
2017-11-20 14:52:10 GMT 53.36195 -2.49228 35,175 207 440 1792
2017-11-20 14:52:08 GMT 53.36311 -2.49123 35,150 207 441 1856
2017-11-20 14:52:06 GMT 53.36776 -2.48735 35,075 207 442 1728
2017-11-20 14:52:04 GMT 53.37056 -2.48501 35,025 207 442 1728
2017-11-20 14:52:02 GMT 53.37561 -2.48079 34,950 207 443 1088
2017-11-20 14:52:00 GMT 53.37991 -2.47718 34,900 207 443 1280
2017-11-20 14:51:58 GMT 53.38182 -2.47564 34,875 207 444 1088
2017-11-20 14:51:56 GMT 53.38536 -2.47265 34,825 207 444 1024
2017-11-20 14:51:54 GMT 53.39085 -2.46808 34,775 207 443 1152
2017-11-20 14:51:54 GMT 53.39085 -2.46808 34,775 207 443 1088
2017-11-20 14:51:54 GMT 53.39003 -2.46878 34,775 207 443 1152
2017-11-20 14:51:52 GMT 53.39516 -2.46447 34,725 207 443 1152
2017-11-20 14:51:50 GMT 53.39589 -2.46384 34,725 208 442 1216
2017-11-20 14:51:48 GMT 53.40019 -2.46023 34,675 207 442 1216
2017-11-20 14:51:46 GMT 53.40449 -2.45657 34,625 208 442 1216
2017-11-20 14:51:44 GMT 53.40952 -2.45229 34,575 208 442 1216
2017-11-20 14:51:42 GMT 53.41185 -2.45027 34,550 208 442 1280
2017-11-20 14:51:40 GMT 53.41649 -2.44626 34,500 208 441 1344
2017-11-20 14:51:38 GMT 53.41997 -2.44320 34,450 208 441 1344
2017-11-20 14:51:36 GMT 53.42381 -2.43991 34,400 208 441 1472
2017-11-20 14:51:34 GMT 53.42807 -2.43614 34,350 208 441 1536
2017-11-20 14:51:32 GMT 53.43073 -2.43379 34,300 209 442 1664
2017-11-20 14:51:30 GMT 53.43266 -2.43202 34,275 209 442 1664
2017-11-20 14:51:28 GMT 53.43689 -2.42822 34,225 209 442 1792
2017-11-20 14:51:26 GMT 53.44153 -2.42413 34,150 208 442 1728
2017-11-20 14:51:24 GMT 53.44565 -2.42052 34,100 208 444 1664
2017-11-20 14:51:22 GMT 53.44734 -2.41903 34,050 207 444 1664
2017-11-20 14:51:20 GMT 53.45123 -2.41581 34,000 206 446 1664
2017-11-20 14:51:18 GMT 53.45444 -2.41320 33,950 205 448 1664
2017-11-20 14:51:16 GMT 53.46236 -2.40730 33,850 204 451 1664
2017-11-20 14:51:16 GMT 53.45879 -2.40993 33,875 204 451 1664
2017-11-20 14:51:14 GMT 53.46414 -2.40601 33,800 203 452 1728
2017-11-20 14:51:12 GMT 53.46739 -2.40382 33,750 202 454 1792
2017-11-20 14:51:10 GMT 53.47120 -2.40124 33,700 201 455 1792
2017-11-20 14:51:08 GMT 53.47619 -2.39817 33,625 200 457 1792
2017-11-20 14:51:06 GMT 53.47875 -2.39667 33,575 199 458 1728
2017-11-20 14:51:04 GMT 53.48345 -2.39397 33,525 198 461 1600
2017-11-20 14:51:04 GMT 53.48345 -2.39397 33,525 198 461 1600
2017-11-20 14:51:02 GMT 53.48694 -2.39212 33,475 196 463 1536
2017-11-20 14:51:00 GMT 53.48954 -2.39074 33,425 197 462 1536
2017-11-20 14:50:58 GMT 53.49609 -2.38756 33,350 195 464 1536
2017-11-20 14:50:56 GMT 53.49824 -2.38662 33,325 195 466 1536
2017-11-20 14:50:54 GMT 53.50319 -2.38452 33,275 194 466 1536
2017-11-20 14:50:52 GMT 53.50896 -2.38218 33,200 193 467 1472
2017-11-20 14:50:52 GMT 53.50973 -2.38191 33,200 193 467 1472
2017-11-20 14:50:50 GMT 53.51166 -2.38113 33,150 193 468 1472
2017-11-20 14:50:48 GMT 53.51664 -2.37935 33,100 193 469 1408
2017-11-20 14:50:48 GMT 53.51664 -2.37935 33,100 193 469 1344
2017-11-20 14:50:46 GMT 53.52069 -2.37781 33,050 193 469 1344
2017-11-20 14:50:44 GMT 53.52255 -2.37713 33,025 193 469 1344
2017-11-20 14:50:42 GMT 53.53056 -2.37415 32,950 193 468 1280
2017-11-20 14:50:40 GMT 53.53326 -2.37313 32,925 193 468 1280
2017-11-20 14:50:38 GMT 53.53867 -2.37116 32,875 193 468 1280
2017-11-20 14:50:37 GMT 53.53958 -2.37085 32,850 193 468 1344
2017-11-20 14:50:36 GMT 53.54187 -2.36998 32,850 193 468 1280
2017-11-20 14:50:36 GMT 53.54308 -2.36957 32,850 193 468 1344
2017-11-20 14:50:36 GMT 53.53958 -2.37085 32,850 193 468 1344
2017-11-20 14:50:34 GMT 53.54499 -2.36885 32,800 193 468 1408
2017-11-20 14:50:32 GMT 53.55135 -2.36646 32,725 193 468 1408
2017-11-20 14:50:30 GMT 53.55487 -2.36512 32,700 193 468 1408
2017-11-20 14:50:28 GMT 53.55714 -2.36432 32,675 193 468 1408
2017-11-20 14:50:26 GMT 53.56119 -2.36279 32,625 193 468 1408
2017-11-20 14:50:24 GMT 53.56659 -2.36081 32,575 193 468 1408
2017-11-20 14:50:21 GMT 53.57336 -2.35829 32,475 193 468 1408
2017-11-20 14:50:19 GMT 53.57739 -2.35673 32,450 193 468 1408
2017-11-20 14:50:17 GMT 53.58144 -2.35527 32,400 193 468 1408
2017-11-20 14:50:15 GMT 53.58549 -2.35374 32,350 193 468 1472
2017-11-20 14:50:13 GMT 53.58912 -2.35237 32,325 193 468 1472
2017-11-20 14:50:11 GMT 53.59268 -2.35107 32,275 193 468 1536
2017-11-20 14:50:11 GMT 53.59268 -2.35107 32,275 193 468 1472
2017-11-20 14:50:09 GMT 53.59992 -2.34833 32,175 193 468 1536
2017-11-20 14:50:07 GMT 53.60211 -2.34746 32,150 193 468 1536
2017-11-20 14:50:05 GMT 53.60574 -2.34615 32,100 193 468 1344
2017-11-20 14:50:03 GMT 53.61072 -2.34425 32,050 193 468 1280
2017-11-20 14:50:03 GMT 53.61072 -2.34425 32,050 193 468 1280
2017-11-20 14:50:01 GMT 53.61562 -2.34236 32,000 193 467 1088
2017-11-20 14:49:59 GMT 53.61924 -2.34106 31,975 193 467 960
2017-11-20 14:49:57 GMT 53.62287 -2.33968 31,950 193 467 896
2017-11-20 14:49:57 GMT 53.62287 -2.33968 31,950 193 467 896
2017-11-20 14:49:55 GMT 53.62940 -2.33718 31,925 193 466 768
2017-11-20 14:49:53 GMT 53.63228 -2.33609 31,875 193 466 768
2017-11-20 14:49:51 GMT 53.63580 -2.33475 31,850 193 465 704
2017-11-20 14:49:49 GMT 53.63896 -2.33358 31,850 193 464 704
2017-11-20 14:49:47 GMT 53.64382 -2.33169 31,825 193 463 704
2017-11-20 14:49:45 GMT 53.64875 -2.32983 31,800 193 463 704
2017-11-20 14:49:45 GMT 53.64875 -2.32983 31,800 193 463 704
2017-11-20 14:49:43 GMT 53.65141 -2.32886 31,775 193 463 704
2017-11-20 14:49:41 GMT 53.65541 -2.32732 31,750 193 461 704
2017-11-20 14:49:39 GMT 53.66239 -2.32466 31,725 193 460 832
2017-11-20 14:49:39 GMT 53.66239 -2.32466 31,725 193 461 768
2017-11-20 14:49:37 GMT 53.66696 -2.32296 31,675 193 460 896
2017-11-20 14:49:37 GMT 53.66565 -2.32345 31,675 193 460 896
2017-11-20 14:49:35 GMT 53.66873 -2.32232 31,675 193 459 896
2017-11-20 14:49:33 GMT 53.67268 -2.32078 31,625 193 459 1024
2017-11-20 14:49:31 GMT 53.67845 -2.31860 31,575 193 458 1280
2017-11-20 14:49:29 GMT 53.68195 -2.31731 31,550 193 458 1792
2017-11-20 14:49:27 GMT 53.68547 -2.31592 31,500 193 458 1792
2017-11-20 14:49:25 GMT 53.68944 -2.31448 31,450 193 458 2240
2017-11-20 14:49:25 GMT 53.68944 -2.31448 31,450 193 458 2112
2017-11-20 14:49:23 GMT 53.69586 -2.31199 31,400 193 458 2240
2017-11-20 14:49:21 GMT 53.69820 -2.31113 31,325 194 460 1472
2017-11-20 14:49:19 GMT 53.70396 -2.30893 31,200 194 460 1472
2017-11-20 14:49:17 GMT 53.70569 -2.30826 31,175 193 459 2176
2017-11-20 14:49:15 GMT 53.71006 -2.30664 31,100 193 460 1984
2017-11-20 14:49:15 GMT 53.71006 -2.30664 31,100 193 460 1984
2017-11-20 14:49:13 GMT 53.71407 -2.30511 31,025 193 460 1856
2017-11-20 14:49:11 GMT 53.71852 -2.30336 30,950 194 460 1728
2017-11-20 14:49:09 GMT 53.72426 -2.30115 30,875 194 460 1600
2017-11-20 14:49:07 GMT 53.72896 -2.29928 30,850 194 460 1408
2017-11-20 14:49:05 GMT 53.73047 -2.29865 30,800 194 460 1408
2017-11-20 14:49:03 GMT 53.73660 -2.29630 30,725 194 459 1408
2017-11-20 14:49:01 GMT 53.73972 -2.29509 30,700 194 459 1280
2017-11-20 14:48:59 GMT 53.74460 -2.29315 30,650 194 459 1152
2017-11-20 14:48:57 GMT 53.74677 -2.29230 30,625 194 459 1088
2017-11-20 14:48:55 GMT 53.75294 -2.28984 30,575 194 458 1088
2017-11-20 14:48:55 GMT 53.75205 -2.29025 30,575 194 458 1088
2017-11-20 14:48:53 GMT 53.75510 -2.28900 30,550 194 458 1152
2017-11-20 14:48:53 GMT 53.75510 -2.28900 30,550 194 458 1152
2017-11-20 14:48:51 GMT 53.76244 -2.28613 30,500 194 457 1216
2017-11-20 14:48:48 GMT 53.76654 -2.28453 30,425 194 457 1280
2017-11-20 14:48:46 GMT 53.77011 -2.28312 30,400 194 457 1344
2017-11-20 14:48:44 GMT 53.77313 -2.28194 30,375 194 456 1344
2017-11-20 14:48:44 GMT 53.77606 -2.28076 30,350 194 456 1344
2017-11-20 14:48:42 GMT 53.77799 -2.27998 30,325 194 456 1344
2017-11-20 14:48:40 GMT 53.78403 -2.27754 30,250 194 455 1408
2017-11-20 14:48:37 GMT 53.78883 -2.27558 30,200 194 455 1408
2017-11-20 14:48:34 GMT 53.79577 -2.27272 30,125 194 454 1472
2017-11-20 14:48:32 GMT 53.80061 -2.27070 30,050 194 454 1472
2017-11-20 14:48:30 GMT 53.80228 -2.27005 30,050 194 454 1408
2017-11-20 14:48:28 GMT 53.80913 -2.26714 29,975 194 453 1344
2017-11-20 14:48:26 GMT 53.81227 -2.26585 29,925 195 452 1344
2017-11-20 14:48:24 GMT 53.81580 -2.26436 29,900 194 452 1344
2017-11-20 14:48:24 GMT 53.81657 -2.26405 29,875 194 452 1344
2017-11-20 14:48:22 GMT 53.82095 -2.26221 29,825 194 452 1344
2017-11-20 14:48:20 GMT 53.82436 -2.26075 29,775 194 451 1408
2017-11-20 14:48:20 GMT 53.82358 -2.26106 29,800 194 451 1408
2017-11-20 14:48:18 GMT 53.82747 -2.25947 29,750 194 451 1408
2017-11-20 14:48:16 GMT 53.83264 -2.25730 29,700 194 451 1472
2017-11-20 14:48:14 GMT 53.83649 -2.25565 29,650 194 451 1536
2017-11-20 14:48:12 GMT 53.84153 -2.25357 29,600 194 450 1600
2017-11-20 14:48:10 GMT 53.84339 -2.25284 29,550 194 450 1600
2017-11-20 14:48:08 GMT 53.84894 -2.25047 29,500 194 450 1664
2017-11-20 14:48:06 GMT 53.85242 -2.24905 29,425 194 450 1664
2017-11-20 14:48:04 GMT 53.85549 -2.24775 29,400 194 450 1664
2017-11-20 14:48:04 GMT 53.85549 -2.24775 29,400 194 450 1664
2017-11-20 14:48:02 GMT 53.86015 -2.24584 29,325 194 449 1728
2017-11-20 14:47:59 GMT 53.86661 -2.24309 29,250 194 449 1728
2017-11-20 14:47:59 GMT 53.86661 -2.24309 29,250 194 449 1728
2017-11-20 14:47:56 GMT 53.87338 -2.24035 29,175 194 449 1792
2017-11-20 14:47:54 GMT 53.87481 -2.23976 29,100 194 449 1792
2017-11-20 14:47:52 GMT 53.88039 -2.23744 29,025 194 449 1728
2017-11-20 14:47:52 GMT 53.87952 -2.23776 29,050 194 449 1728
2017-11-20 14:47:50 GMT 53.88207 -2.23669 29,000 194 449 1664
2017-11-20 14:47:48 GMT 53.88724 -2.23459 28,950 194 448 1600
2017-11-20 14:47:46 GMT 53.89069 -2.23313 28,900 194 448 1472
2017-11-20 14:47:44 GMT 53.89627 -2.23085 28,825 194 448 1344
2017-11-20 14:47:42 GMT 53.90099 -2.22889 28,775 194 447 1280
2017-11-20 14:47:40 GMT 53.90568 -2.22691 28,725 194 447 1216
2017-11-20 14:47:38 GMT 53.90822 -2.22583 28,700 194 446 1152
2017-11-20 14:47:36 GMT 53.91345 -2.22368 28,650 194 446 960
2017-11-20 14:47:36 GMT 53.91345 -2.22368 28,650 194 446 1024
2017-11-20 14:47:34 GMT 53.91724 -2.22214 28,625 194 446 896
2017-11-20 14:47:32 GMT 53.92104 -2.22057 28,575 194 444 768
2017-11-20 14:47:30 GMT 53.92323 -2.21972 28,575 194 444 768
2017-11-20 14:47:28 GMT 53.92793 -2.21778 28,550 194 442 896
2017-11-20 14:47:26 GMT 53.93175 -2.21626 28,525 194 442 960
2017-11-20 14:47:24 GMT 53.93682 -2.21423 28,475 194 441 1216
2017-11-20 14:47:22 GMT 53.94064 -2.21278 28,425 193 441 1408
2017-11-20 14:47:20 GMT 53.94360 -2.21163 28,400 193 440 1600
2017-11-20 14:47:18 GMT 53.94740 -2.21014 28,350 193 440 1728
2017-11-20 14:47:16 GMT 53.95157 -2.20849 28,300 193 440 1856
2017-11-20 14:47:14 GMT 53.95624 -2.20668 28,225 193 440 1920
2017-11-20 14:47:12 GMT 53.95917 -2.20558 28,175 193 440 1920
2017-11-20 14:47:10 GMT 53.96298 -2.20405 28,100 193 440 1664
2017-11-20 14:47:10 GMT 53.96298 -2.20405 28,100 193 440 1792
2017-11-20 14:47:08 GMT 53.96680 -2.20260 28,050 193 439 1088
2017-11-20 14:47:06 GMT 53.97066 -2.20114 28,000 193 439 1088
2017-11-20 14:47:04 GMT 53.97485 -2.19945 27,975 193 438 960
2017-11-20 14:47:02 GMT 53.97942 -2.19767 27,925 193 436 1088
2017-11-20 14:47:02 GMT 53.97942 -2.19767 27,925 193 436 1088
2017-11-20 14:47:00 GMT 53.98407 -2.19589 27,900 194 435 1344
2017-11-20 14:46:58 GMT 53.98869 -2.19405 27,850 194 435 1344
2017-11-20 14:46:56 GMT 53.98956 -2.19371 27,825 194 435 1344
2017-11-20 14:46:54 GMT 53.99580 -2.19129 27,750 194 433 1600
2017-11-20 14:46:52 GMT 53.99994 -2.18959 27,700 194 433 1664
2017-11-20 14:46:51 GMT 53.99994 -2.18959 27,700 194 433 1664
2017-11-20 14:46:51 GMT 54.00074 -2.18927 27,700 194 433 1664
2017-11-20 14:46:49 GMT 54.00320 -2.18832 27,650 194 433 1664
2017-11-20 14:46:47 GMT 54.00865 -2.18612 27,575 194 432 1664
2017-11-20 14:46:45 GMT 54.01117 -2.18518 27,550 194 432 1664
2017-11-20 14:46:43 GMT 54.01805 -2.18240 27,475 194 431 1664
2017-11-20 14:46:41 GMT 54.02234 -2.18071 27,400 194 431 1664
2017-11-20 14:46:39 GMT 54.02605 -2.17922 27,350 194 430 1728
2017-11-20 14:46:37 GMT 54.02889 -2.17804 27,300 194 430 1728
2017-11-20 14:46:37 GMT 54.02889 -2.17804 27,300 194 430 1728
2017-11-20 14:46:37 GMT 54.02889 -2.17804 27,300 194 430 1728
2017-11-20 14:46:35 GMT 54.03179 -2.17691 27,250 194 430 1728
2017-11-20 14:46:33 GMT 54.03793 -2.17440 27,175 194 430 1664
2017-11-20 14:46:31 GMT 54.04042 -2.17341 27,125 194 429 1664
2017-11-20 14:46:29 GMT 54.04459 -2.17176 27,075 194 429 1600
2017-11-20 14:46:27 GMT 54.04975 -2.16964 27,025 194 429 1664
2017-11-20 14:46:25 GMT 54.05200 -2.16878 26,975 194 428 1536
2017-11-20 14:46:23 GMT 54.05608 -2.16713 26,925 194 428 1664
2017-11-20 14:46:23 GMT 54.05608 -2.16713 26,925 194 428 1664
2017-11-20 14:46:21 GMT 54.06014 -2.16552 26,850 194 427 1664
2017-11-20 14:46:19 GMT 54.06391 -2.16398 26,800 194 426 1664
2017-11-20 14:46:17 GMT 54.06800 -2.16237 26,750 194 426 1664
2017-11-20 14:46:15 GMT 54.07045 -2.16140 26,700 194 426 1664
2017-11-20 14:46:13 GMT 54.07613 -2.15913 26,625 194 425 1600
2017-11-20 14:46:11 GMT 54.08011 -2.15756 26,600 194 425 1536
2017-11-20 14:46:11 GMT 54.08011 -2.15756 26,600 194 425 1536
2017-11-20 14:46:09 GMT 54.08309 -2.15639 26,525 194 424 1600
2017-11-20 14:46:07 GMT 54.08551 -2.15542 26,500 194 424 1728
2017-11-20 14:46:05 GMT 54.08919 -2.15389 26,450 194 423 1792
2017-11-20 14:46:03 GMT 54.09366 -2.15206 26,375 194 423 1792
2017-11-20 14:46:01 GMT 54.09732 -2.15065 26,325 194 423 1920
2017-11-20 14:46:01 GMT 54.09645 -2.15097 26,325 194 423 1856
2017-11-20 14:45:59 GMT 54.10217 -2.14864 26,250 194 423 1920
2017-11-20 14:45:57 GMT 54.10583 -2.14720 26,175 194 423 2048
2017-11-20 14:45:57 GMT 54.10583 -2.14720 26,175 194 423 2048
2017-11-20 14:45:55 GMT 54.10985 -2.14556 26,100 194 422 2112
2017-11-20 14:45:53 GMT 54.11266 -2.14445 26,050 194 422 2176
2017-11-20 14:45:53 GMT 54.11266 -2.14445 26,050 194 422 2176
2017-11-20 14:45:51 GMT 54.11632 -2.14304 26,000 194 422 2176
2017-11-20 14:45:48 GMT 54.12387 -2.13999 25,875 194 421 2112
2017-11-20 14:45:45 GMT 54.12927 -2.13778 25,750 194 421 2112
2017-11-20 14:45:43 GMT 54.13289 -2.13629 25,675 194 421 2112
2017-11-20 14:45:41 GMT 54.13495 -2.13547 25,650 194 421 2176
2017-11-20 14:45:39 GMT 54.14085 -2.13300 25,575 194 420 2176
2017-11-20 14:45:37 GMT 54.14258 -2.13232 25,500 194 420 2112
2017-11-20 14:45:35 GMT 54.14779 -2.13022 25,400 194 420 2112
2017-11-20 14:45:33 GMT 54.15106 -2.12884 25,350 194 420 2112
2017-11-20 14:45:32 GMT 54.15106 -2.12884 25,350 194 420 2112
2017-11-20 14:45:30 GMT 54.15589 -2.12682 25,250 194 420 2240
2017-11-20 14:45:28 GMT 54.16109 -2.12468 25,175 194 420 2496
2017-11-20 14:45:28 GMT 54.16109 -2.12468 25,175 194 420 2432
2017-11-20 14:45:26 GMT 54.16432 -2.12335 25,075 194 420 2496
2017-11-20 14:45:24 GMT 54.16716 -2.12214 25,025 195 420 2432
2017-11-20 14:45:24 GMT 54.16716 -2.12214 25,025 194 420 2496
2017-11-20 14:45:22 GMT 54.17032 -2.12076 24,975 195 420 2432
2017-11-20 14:45:20 GMT 54.17514 -2.11871 24,850 195 419 2560
2017-11-20 14:45:17 GMT 54.17996 -2.11665 24,750 195 420 2688
2017-11-20 14:45:15 GMT 54.18562 -2.11424 24,625 195 420 2688
2017-11-20 14:45:13 GMT 54.18839 -2.11301 24,575 195 420 2880
2017-11-20 14:45:11 GMT 54.19281 -2.11107 24,450 195 420 3008
2017-11-20 14:45:09 GMT 54.19716 -2.10906 24,350 195 420 3136
2017-11-20 14:45:09 GMT 54.19478 -2.11016 24,400 195 420 3328
2017-11-20 14:45:07 GMT 54.20072 -2.10752 24,300 195 422 3584
2017-11-20 14:45:07 GMT 54.20072 -2.10752 24,300 195 422 3520
2017-11-20 14:45:05 GMT 54.20366 -2.10616 24,150 196 423 3584
2017-11-20 14:45:03 GMT 54.20764 -2.10435 24,025 196 424 3584
2017-11-20 14:45:01 GMT 54.21003 -2.10324 23,950 196 424 3456
2017-11-20 14:44:59 GMT 54.21408 -2.10130 23,825 196 427 2560
2017-11-20 14:44:57 GMT 54.21973 -2.09862 23,675 196 427 2816
2017-11-20 14:44:55 GMT 54.22139 -2.09782 23,625 196 427 2560
2017-11-20 14:44:53 GMT 54.22499 -2.09611 23,550 196 428 2368
2017-11-20 14:44:51 GMT 54.22865 -2.09439 23,450 197 427 2304
2017-11-20 14:44:49 GMT 54.23273 -2.09235 23,400 197 427 2368
2017-11-20 14:44:47 GMT 54.23712 -2.09023 23,300 197 427 2368
2017-11-20 14:44:46 GMT 54.23918 -2.08918 23,275 197 426 2240
2017-11-20 14:44:45 GMT 54.23964 -2.08894 23,250 197 427 2368
2017-11-20 14:44:43 GMT 54.24403 -2.08677 23,175 197 427 2240
2017-11-20 14:44:41 GMT 54.24728 -2.08514 23,100 197 426 2304
2017-11-20 14:44:39 GMT 54.25369 -2.08199 22,975 197 426 2304
2017-11-20 14:44:37 GMT 54.25649 -2.08054 22,900 197 426 2368
2017-11-20 14:44:36 GMT 54.25772 -2.07995 22,900 197 426 2368
2017-11-20 14:44:35 GMT 54.25854 -2.07957 22,875 197 426 2368
2017-11-20 14:44:35 GMT 54.25854 -2.07957 22,875 197 426 2368
2017-11-20 14:44:33 GMT 54.26385 -2.07690 22,750 197 425 2368
2017-11-20 14:44:32 GMT 54.26543 -2.07609 22,750 197 425 2368
2017-11-20 14:44:30 GMT 54.26939 -2.07407 22,650 197 425 2048
2017-11-20 14:44:28 GMT 54.27144 -2.07302 22,625 197 424 2048
2017-11-20 14:44:26 GMT 54.27699 -2.07022 22,525 197 424 2048
2017-11-20 14:44:26 GMT 54.27699 -2.07022 22,525 197 424 2048
2017-11-20 14:44:26 GMT 54.27699 -2.07022 22,525 197 424 2048
2017-11-20 14:44:24 GMT 54.28107 -2.06818 22,450 197 423 2048
2017-11-20 14:44:22 GMT 54.28424 -2.06660 22,375 197 423 2048
2017-11-20 14:44:22 GMT 54.28303 -2.06721 22,400 197 423 2048
2017-11-20 14:44:20 GMT 54.28866 -2.06435 22,300 197 422 2112
2017-11-20 14:44:20 GMT 54.28866 -2.06435 22,300 197 422 2112
2017-11-20 14:44:18 GMT 54.29104 -2.06310 22,275 197 422 2112
2017-11-20 14:44:16 GMT 54.29498 -2.06107 22,200 197 422 2112
2017-11-20 14:44:14 GMT 54.29906 -2.05897 22,125 197 421 2176
2017-11-20 14:44:12 GMT 54.30379 -2.05652 22,025 197 421 2176
2017-11-20 14:44:09 GMT 54.30812 -2.05428 21,950 197 421 2240
2017-11-20 14:44:06 GMT 54.31333 -2.05161 21,850 197 420 2368
2017-11-20 14:44:04 GMT 54.31810 -2.04911 21,750 197 419 2368
2017-11-20 14:44:01 GMT 54.32320 -2.04645 21,650 197 419 2368
2017-11-20 14:43:59 GMT 54.32679 -2.04462 21,550 197 419 2304
2017-11-20 14:43:58 GMT 54.32996 -2.04305 21,500 197 419 2368
2017-11-20 14:43:57 GMT 54.33073 -2.04265 21,475 197 419 2368
2017-11-20 14:43:55 GMT 54.33507 -2.04038 21,400 197 419 2368
2017-11-20 14:43:53 GMT 54.33866 -2.03855 21,325 197 419 2432
2017-11-20 14:43:51 GMT 54.34341 -2.03619 21,225 197 419 2432
2017-11-20 14:43:49 GMT 54.34657 -2.03457 21,150 197 419 2432
2017-11-20 14:43:49 GMT 54.34657 -2.03457 21,150 197 419 2432
2017-11-20 14:43:48 GMT 54.34657 -2.03457 21,150 197 418 2432
2017-11-20 14:43:46 GMT 54.35132 -2.03214 21,050 197 418 2432
2017-11-20 14:43:44 GMT 54.35609 -2.02972 20,950 197 418 2496
2017-11-20 14:43:42 GMT 54.35962 -2.02795 20,850 197 418 2496
2017-11-20 14:43:40 GMT 54.36356 -2.02601 20,775 197 418 2432
2017-11-20 14:43:38 GMT 54.36594 -2.02481 20,725 197 418 2432
2017-11-20 14:43:38 GMT 54.36594 -2.02481 20,725 197 418 2432
2017-11-20 14:43:38 GMT 54.36519 -2.02523 20,750 197 418 2432
2017-11-20 14:43:36 GMT 54.36989 -2.02290 20,650 196 418 2368
2017-11-20 14:43:34 GMT 54.37269 -2.02148 20,600 196 418 2304
2017-11-20 14:43:32 GMT 54.37665 -2.01957 20,525 196 418 2240
2017-11-20 14:43:30 GMT 54.38023 -2.01790 20,450 195 418 2176
2017-11-20 14:43:28 GMT 54.38580 -2.01534 20,325 195 417 2176
2017-11-20 14:43:28 GMT 54.38580 -2.01534 20,325 195 417 2176
2017-11-20 14:43:26 GMT 54.38896 -2.01397 20,275 194 416 2176
2017-11-20 14:43:24 GMT 54.39135 -2.01300 20,225 194 417 2176
2017-11-20 14:43:22 GMT 54.39615 -2.01098 20,125 194 416 2176
2017-11-20 14:43:20 GMT 54.39973 -2.00958 20,075 193 417 2112
2017-11-20 14:43:18 GMT 54.40257 -2.00850 20,025 193 416 2048
2017-11-20 14:43:16 GMT 54.40779 -2.00659 19,925 192 416 1984
2017-11-20 14:43:14 GMT 54.41100 -2.00550 19,875 192 414 2048
2017-11-20 14:43:12 GMT 54.41538 -2.00401 19,775 191 414 1984
2017-11-20 14:43:10 GMT 54.41826 -2.00307 19,750 192 413 1920
2017-11-20 14:43:08 GMT 54.42371 -2.00121 19,675 191 412 1984
2017-11-20 14:43:06 GMT 54.42580 -2.00051 19,625 191 412 1984
2017-11-20 14:43:04 GMT 54.43060 -1.99893 19,525 191 411 2176
2017-11-20 14:43:02 GMT 54.43456 -1.99765 19,450 191 411 2304
2017-11-20 14:43:00 GMT 54.43739 -1.99676 19,400 191 410 2368
2017-11-20 14:42:58 GMT 54.44215 -1.99523 19,300 191 409 2368
2017-11-20 14:42:57 GMT 54.44373 -1.99468 19,250 191 409 2368
2017-11-20 14:42:55 GMT 54.44646 -1.99386 19,200 191 408 2304
2017-11-20 14:42:53 GMT 54.45003 -1.99273 19,125 191 408 2304
2017-11-20 14:42:51 GMT 54.45360 -1.99161 19,075 191 407 2304
2017-11-20 14:42:49 GMT 54.45914 -1.98982 18,950 191 407 2304
2017-11-20 14:42:47 GMT 54.46077 -1.98927 18,900 191 406 2240
2017-11-20 14:42:45 GMT 54.46626 -1.98761 18,800 191 406 2176
2017-11-20 14:42:43 GMT 54.46779 -1.98707 18,775 191 404 1856
2017-11-20 14:42:41 GMT 54.47177 -1.98586 18,700 191 405 2048
2017-11-20 14:42:39 GMT 54.47607 -1.98457 18,625 191 404 1920
2017-11-20 14:42:39 GMT 54.47534 -1.98473 18,650 191 404 1920
2017-11-20 14:42:37 GMT 54.47887 -1.98368 18,575 191 403 1728
2017-11-20 14:42:35 GMT 54.48437 -1.98195 18,500 191 402 1600
2017-11-20 14:42:33 GMT 54.48665 -1.98128 18,475 191 402 1536
2017-11-20 14:42:31 GMT 54.49172 -1.97970 18,400 190 399 1472
2017-11-20 14:42:29 GMT 54.49479 -1.97879 18,350 190 398 1472
2017-11-20 14:42:27 GMT 54.49936 -1.97746 18,325 190 397 1600
2017-11-20 14:42:25 GMT 54.50336 -1.97629 18,250 190 396 1600
2017-11-20 14:42:24 GMT 54.50221 -1.97665 18,250 190 397 1600
2017-11-20 14:42:22 GMT 54.50757 -1.97512 18,175 190 394 1600
2017-11-20 14:42:20 GMT 54.51244 -1.97371 18,125 190 393 1600
2017-11-20 14:42:17 GMT 54.51604 -1.97269 18,050 190 391 1600
2017-11-20 14:42:15 GMT 54.52016 -1.97156 18,000 190 389 1664
2017-11-20 14:42:13 GMT 54.52287 -1.97080 17,950 190 388 1792
2017-11-20 14:42:11 GMT 54.52803 -1.96938 17,900 190 387 1856
2017-11-20 14:42:09 GMT 54.53003 -1.96888 17,850 190 387 2048
2017-11-20 14:42:07 GMT 54.53307 -1.96801 17,775 190 386 2240
2017-11-20 14:42:05 GMT 54.53645 -1.96712 17,700 190 385 2432
2017-11-20 14:42:05 GMT 54.53604 -1.96720 17,725 190 385 2432
2017-11-20 14:42:03 GMT 54.54130 -1.96580 17,600 190 384 2560
2017-11-20 14:42:01 GMT 54.54465 -1.96480 17,500 190 384 2560
2017-11-20 14:41:59 GMT 54.54689 -1.96422 17,475 190 383 2560
2017-11-20 14:41:57 GMT 54.55173 -1.96289 17,350 190 384 2560
2017-11-20 14:41:55 GMT 54.55330 -1.96243 17,300 190 383 2624
2017-11-20 14:41:53 GMT 54.55957 -1.96066 17,150 190 383 2752
2017-11-20 14:41:51 GMT 54.56146 -1.96014 17,100 190 382 2816
2017-11-20 14:41:51 GMT 54.56146 -1.96014 17,100 190 382 2816
2017-11-20 14:41:49 GMT 54.56481 -1.95914 17,025 190 382 2880
2017-11-20 14:41:47 GMT 54.56813 -1.95823 16,925 190 382 2880
2017-11-20 14:41:45 GMT 54.57147 -1.95726 16,825 190 382 2880
2017-11-20 14:41:43 GMT 54.57524 -1.95615 16,725 190 382 2880
2017-11-20 14:41:40 GMT 54.58076 -1.95452 16,575 190 382 2880
2017-11-20 14:41:38 GMT 54.58473 -1.95332 16,525 190 382 2880
2017-11-20 14:41:36 GMT 54.58745 -1.95258 16,400 190 382 2944
2017-11-20 14:41:34 GMT 54.59153 -1.95132 16,300 190 382 2944
2017-11-20 14:41:32 GMT 54.59633 -1.94991 16,150 191 381 2752
2017-11-20 14:41:30 GMT 54.59712 -1.94966 16,125 190 381 2816
2017-11-20 14:41:28 GMT 54.60155 -1.94830 16,000 191 381 2752
2017-11-20 14:41:26 GMT 54.60489 -1.94725 15,925 191 382 2688
2017-11-20 14:41:24 GMT 54.60896 -1.94603 15,825 191 381 2688
2017-11-20 14:41:20 GMT 54.61634 -1.94375 15,625 191 381 2624
2017-11-20 14:41:16 GMT 54.62337 -1.94150 15,450 191 380 2496
2017-11-20 14:41:15 GMT 54.62337 -1.94150 15,450 191 380 2496
2017-11-20 14:41:13 GMT 54.62627 -1.94062 15,375 191 379 2496
2017-11-20 14:41:10 GMT 54.63291 -1.93850 15,225 191 378 2624
2017-11-20 14:41:07 GMT 54.63977 -1.93626 15,100 191 377 2752
2017-11-20 14:41:05 GMT 54.64241 -1.93542 14,975 191 376 2816
2017-11-20 14:41:05 GMT 54.64241 -1.93542 14,975 191 377 2752
2017-11-20 14:41:03 GMT 54.64386 -1.93493 14,950 191 376 2816
2017-11-20 14:41:00 GMT 54.65144 -1.93246 14,775 191 376 2752
2017-11-20 14:40:58 GMT 54.65270 -1.93201 14,700 191 375 2688
2017-11-20 14:40:55 GMT 54.65849 -1.93012 14,550 191 374 2752
2017-11-20 14:40:53 GMT 54.66133 -1.92915 14,475 191 374 2816
2017-11-20 14:40:51 GMT 54.66643 -1.92752 14,350 191 373 2816
2017-11-20 14:40:49 GMT 54.66969 -1.92644 14,250 191 373 2944
2017-11-20 14:40:47 GMT 54.67262 -1.92544 14,175 192 373 2944
2017-11-20 14:40:47 GMT 54.67402 -1.92494 14,125 192 373 3008
2017-11-20 14:40:45 GMT 54.67543 -1.92447 14,075 192 373 3008
2017-11-20 14:40:43 GMT 54.67868 -1.92336 14,000 192 372 3008
2017-11-20 14:40:40 GMT 54.68372 -1.92164 13,850 192 371 2944
2017-11-20 14:40:40 GMT 54.68372 -1.92164 13,850 192 371 2944
2017-11-20 14:40:38 GMT 54.68664 -1.92061 13,750 192 371 2944
2017-11-20 14:40:35 GMT 54.69402 -1.91808 13,600 192 369 2624
2017-11-20 14:40:33 GMT 54.69589 -1.91736 13,525 192 369 2496
2017-11-20 14:40:29 GMT 54.70161 -1.91534 13,350 192 366 2304
2017-11-20 14:40:27 GMT 54.70651 -1.91356 13,250 192 365 2304
2017-11-20 14:40:24 GMT 54.71040 -1.91211 13,175 192 363 2304
2017-11-20 14:40:22 GMT 54.71252 -1.91137 13,100 192 362 2304
2017-11-20 14:40:19 GMT 54.72043 -1.90847 12,975 192 361 2304
2017-11-20 14:40:17 GMT 54.72226 -1.90774 12,900 193 359 2304
2017-11-20 14:40:15 GMT 54.72610 -1.90637 12,800 193 357 2240
2017-11-20 14:40:13 GMT 54.72922 -1.90524 12,725 192 356 2240
2017-11-20 14:40:09 GMT 54.73508 -1.90306 12,600 192 354 2432
2017-11-20 14:40:07 GMT 54.73814 -1.90193 12,525 192 352 2688
2017-11-20 14:40:04 GMT 54.74286 -1.90023 12,375 192 351 2944
2017-11-20 14:40:02 GMT 54.74588 -1.89910 12,300 192 350 3200
2017-11-20 14:39:59 GMT 54.75065 -1.89739 12,125 192 349 3200
2017-11-20 14:39:57 GMT 54.75367 -1.89631 12,025 192 348 3136
2017-11-20 14:39:55 GMT 54.75673 -1.89522 11,925 192 348 3136
2017-11-20 14:39:53 GMT 54.76176 -1.89336 11,775 193 348 3008
2017-11-20 14:39:51 GMT 54.76245 -1.89312 11,750 193 348 2944
2017-11-20 14:39:49 GMT 54.76778 -1.89115 11,575 192 347 2688
2017-11-20 14:39:47 GMT 54.76913 -1.89070 11,525 192 347 2624
2017-11-20 14:39:44 GMT 54.77481 -1.88860 11,375 193 345 2368
2017-11-20 14:39:42 GMT 54.77815 -1.88739 11,300 192 344 2176
2017-11-20 14:39:38 GMT 54.78509 -1.88482 11,150 192 341 1920
2017-11-20 14:39:38 GMT 54.78449 -1.88507 11,150 192 341 1920
2017-11-20 14:39:35 GMT 54.78841 -1.88359 11,075 192 337 1728
2017-11-20 14:39:33 GMT 54.79138 -1.88257 11,025 192 335 1536
2017-11-20 14:39:31 GMT 54.79580 -1.88099 10,975 192 334 1472
2017-11-20 14:39:27 GMT 54.80008 -1.87947 10,875 192 304 2368
2017-11-20 14:39:27 GMT 54.80008 -1.87947 10,875 192 327 1280
2017-11-20 14:39:24 GMT 54.80635 -1.87729 10,800 192 325 1344
2017-11-20 14:39:22 GMT 54.80768 -1.87688 10,775 192 324 1344
2017-11-20 14:39:20 GMT 54.81209 -1.87533 10,700 192 318 1408
2017-11-20 14:39:17 GMT 54.81665 -1.87382 10,625 192 315 1472
2017-11-20 14:39:16 GMT 54.81665 -1.87382 10,625 192 309 1728
2017-11-20 14:39:14 GMT 54.81912 -1.87300 10,575 192 313 1536
2017-11-20 14:39:12 GMT 54.82182 -1.87209 10,550 192 311 1664
2017-11-20 14:39:10 GMT 54.82516 -1.87091 10,475 192 306 1984
2017-11-20 14:39:10 GMT 54.82516 -1.87091 10,475 192 306 1984
2017-11-20 14:39:08 GMT 54.82924 -1.86953 10,425 192 304 2368
2017-11-20 14:39:06 GMT 54.83047 -1.86905 10,350 192 304 2560
2017-11-20 14:39:04 GMT 54.83340 -1.86800 10,275 192 302 3008
2017-11-20 14:39:02 GMT 54.83579 -1.86718 10,175 192 301 3072
2017-11-20 14:39:00 GMT 54.84178 -1.86509 10,000 192 300 3008
2017-11-20 14:38:55 GMT 54.84709 -1.86315 9,775 193 298 2944
2017-11-20 14:38:53 GMT 54.84882 -1.86252 9,700 194 297 3008
2017-11-20 14:38:51 GMT 54.85139 -1.86146 9,625 194 297 3008
2017-11-20 14:38:49 GMT 54.85396 -1.86049 9,500 194 295 3072
2017-11-20 14:38:44 GMT 54.86018 -1.85769 9,275 196 294 3136
2017-11-20 14:38:42 GMT 54.86326 -1.85619 9,150 198 293 3264
2017-11-20 14:38:40 GMT 54.86655 -1.85443 9,000 199 292 3328
2017-11-20 14:38:35 GMT 54.87360 -1.85023 8,700 200 290 3200
2017-11-20 14:38:33 GMT 54.87360 -1.85023 8,700 200 290 3200
2017-11-20 14:38:31 GMT 54.87712 -1.84805 8,550 200 290 3264
2017-11-20 14:38:29 GMT 54.87955 -1.84654 8,450 200 289 3264
2017-11-20 14:38:25 GMT 54.88462 -1.84337 8,225 200 287 3328
2017-11-20 14:38:23 GMT 54.88678 -1.84207 8,125 200 287 3328
2017-11-20 14:38:21 GMT 54.88942 -1.84038 8,000 200 285 3072
2017-11-20 14:38:18 GMT 54.89263 -1.83846 7,875 200 286 3200
2017-11-20 14:38:15 GMT 54.89845 -1.83488 7,625 200 285 3072
2017-11-20 14:38:13 GMT 54.89923 -1.83439 7,600 200 285 3008
2017-11-20 14:38:11 GMT 54.90138 -1.83305 7,500 200 284 2880
2017-11-20 14:38:09 GMT 54.90509 -1.83076 7,350 200 283 2752
2017-11-20 14:38:02 GMT 54.91269 -1.82614 7,075 200 278 2688
2017-11-20 14:38:00 GMT 54.91525 -1.82456 6,975 200 277 2816
2017-11-20 14:37:58 GMT 54.91809 -1.82290 6,875 200 275 3008
2017-11-20 14:37:53 GMT 54.92396 -1.81932 6,625 200 274 3456
2017-11-20 14:37:51 GMT 54.92680 -1.81766 6,475 200 272 3520
2017-11-20 14:37:47 GMT 54.93062 -1.81532 6,300 199 272 3456
2017-11-20 14:37:42 GMT 54.93645 -1.81194 6,025 199 271 2944
2017-11-20 14:37:37 GMT 54.94226 -1.80854 5,800 199 269 2624
2017-11-20 14:37:32 GMT 54.94830 -1.80515 5,575 198 264 2368
2017-11-20 14:37:27 GMT 54.95426 -1.80192 5,375 198 259 2176
2017-11-20 14:37:22 GMT 54.96008 -1.79885 5,175 197 253 2112
2017-11-20 14:37:18 GMT 54.96511 -1.79626 5,025 196 247 2176
2017-11-20 14:37:11 GMT 54.97188 -1.79295 4,800 196 241 2304
2017-11-20 14:37:08 GMT 54.97773 -1.79027 4,625 195 233 2304
2017-11-20 14:37:01 GMT 54.98241 -1.78819 4,400 195 228 2048
2017-11-20 14:36:57 GMT 54.98657 -1.78636 4,250 195 222 1664
2017-11-20 14:36:51 GMT 54.99248 -1.78370 4,100 196 214 1600
2017-11-20 14:36:47 GMT 54.99692 -1.78156 3,975 197 208 1600
2017-11-20 14:36:41 GMT 55.00191 -1.77873 3,825 200 199 1856
2017-11-20 14:36:37 GMT 55.00561 -1.77637 3,675 203 195 2368
2017-11-20 14:36:31 GMT 55.01028 -1.77260 3,450 210 189 1984
2017-11-20 14:36:21 GMT 55.01734 -1.76389 3,125 228 172 1728
2017-11-20 14:36:10 GMT 55.02195 -1.75265 2,800 246 157 2176
2017-11-20 14:36:00 GMT 55.02498 -1.74100 2,450 247 150 1856
2017-11-20 14:35:50 GMT 55.02772 -1.72986 2,100 247 141 2048
2017-11-20 14:35:40 GMT 55.03061 -1.71836 1,675 247 137 3584
2017-11-20 14:35:29 GMT 55.03299 -1.70878 1,100 246 142 2880
2017-11-20 14:35:19 GMT 55.03569 -1.69828 675 246 144 2304
2017-11-20 14:35:09 GMT 55.03843 -1.68790 0 244 130 0
2017-11-20 14:34:59 GMT 55.04082 -1.67891 0 244 80 0
2017-11-20 14:34:55 GMT 55.04141 -1.67667 0 244 55 0
2017-11-20 14:34:49 GMT 55.04192 -1.67477 0 244 30 0
2017-11-20 14:34:35 GMT 55.04217 -1.67381 0 244 0 0
2017-11-20 14:34:10 GMT 55.04217 -1.67381 0 244 0 0
2017-11-20 14:33:55 GMT 55.04217 -1.67381 0 244 0 0
2017-11-20 14:33:47 GMT 55.04217 -1.67380 0 244 0 0
2017-11-20 14:33:37 GMT 55.04217 -1.67380 0 244 0 0
2017-11-20 14:33:26 GMT 55.04218 -1.67380 0 241 2 0
2017-11-20 14:33:16 GMT 55.04226 -1.67350 0 177 5 0
2017-11-20 14:33:05 GMT 55.04255 -1.67360 0 168 10 0
2017-11-20 14:32:56 GMT 55.04296 -1.67377 0 151 12 0
2017-11-20 14:32:46 GMT 55.04327 -1.67452 0 92 12 0
2017-11-20 14:32:35 GMT 55.04331 -1.67533 0 95 10 0
2017-11-20 14:32:25 GMT 55.04335 -1.67614 0 78 11 0
2017-11-20 14:32:15 GMT 55.04312 -1.67709 0 64 16 0
2017-11-20 14:32:05 GMT 55.04282 -1.67824 0 64 17 0
2017-11-20 14:31:54 GMT 55.04248 -1.67949 0 64 19 0
2017-11-20 14:31:44 GMT 55.04207 -1.68101 0 64 23 0
2017-11-20 14:31:34 GMT 55.04163 -1.68268 0 64 22 0
2017-11-20 14:31:23 GMT 55.04118 -1.68440 0 64 20 0
2017-11-20 14:31:13 GMT 55.04083 -1.68572 0 64 19 0
2017-11-20 14:31:03 GMT 55.04049 -1.68698 0 64 17 0
2017-11-20 14:31:03 GMT 55.04048 -1.68703 0 64 17 0
2017-11-20 14:30:53 GMT 55.04019 -1.68812 0 64 15 0
2017-11-20 14:30:51 GMT 55.04012 -1.68840 0 64 14 0
2017-11-20 14:30:43 GMT 55.03993 -1.68909 0 64 12 0
2017-11-20 14:30:41 GMT 55.03990 -1.68921 0 64 11 0
2017-11-20 14:30:32 GMT 55.03971 -1.68994 0 64 10 0
2017-11-20 14:30:22 GMT 55.03950 -1.69073 0 64 16 0
2017-11-20 14:30:12 GMT 55.03919 -1.69187 0 64 16 0
2017-11-20 14:30:10 GMT 55.03910 -1.69222 0 64 15 0
2017-11-20 14:30:02 GMT 55.03892 -1.69289 0 64 13 0
2017-11-20 14:30:00 GMT 55.03886 -1.69313 0 64 12 0
2017-11-20 14:29:51 GMT 55.03870 -1.69369 0 64 12 0
2017-11-20 14:29:49 GMT 55.03865 -1.69389 0 64 13 0
2017-11-20 14:29:41 GMT 55.03846 -1.69466 0 67 18 0
2017-11-20 14:29:38 GMT 55.03836 -1.69507 0 70 20 0
2017-11-20 14:29:31 GMT 55.03814 -1.69618 0 73 21 0
2017-11-20 14:29:29 GMT 55.03807 -1.69656 0 75 20 0
2017-11-20 14:29:21 GMT 55.03791 -1.69771 0 78 18 0
2017-11-20 14:29:10 GMT 55.03779 -1.69901 0 84 16 0
2017-11-20 14:29:06 GMT 55.03777 -1.69953 0 84 15 0
2017-11-20 14:29:00 GMT 55.03774 -1.70022 0 87 15 0
2017-11-20 14:28:58 GMT 55.03773 -1.70059 0 90 14 0
2017-11-20 14:28:50 GMT 55.03774 -1.70128 0 92 13 0
2017-11-20 14:28:46 GMT 55.03775 -1.70169 0 92 13 0
2017-11-20 14:28:36 GMT 55.03777 -1.70266 0 92 11 0
2017-11-20 14:28:28 GMT 55.03781 -1.70332 0 95 11 0
2017-11-20 14:28:26 GMT 55.03783 -1.70348 0 92 11 0
2017-11-20 14:28:20 GMT 55.03776 -1.70402 0 47 11 0
2017-11-20 14:28:13 GMT 55.03751 -1.70428 0 5 10 0
2017-11-20 14:28:09 GMT 55.03734 -1.70429 0 2 11 0
2017-11-20 14:28:02 GMT 55.03693 -1.70434 0 2 12 0
2017-11-20 14:27:59 GMT 55.03680 -1.70436 0 2 12 0
2017-11-20 14:27:53 GMT 55.03648 -1.70440 0 5 13 0
2017-11-20 14:27:49 GMT 55.03624 -1.70450 0 33 12 0
2017-11-20 14:27:46 GMT 55.03609 -1.70471 0 53 11 0
2017-11-20 14:27:35 GMT 55.03594 -1.70541 0 84 8 0
2017-11-20 14:27:28 GMT 55.03592 -1.70579 0 81 8 0
2017-11-20 14:27:24 GMT 55.03589 -1.70604 0 53 7 0
2017-11-20 14:27:18 GMT 55.03580 -1.70629 0 22 6 0
2017-11-20 14:27:14 GMT 55.03570 -1.70637 0 2 5 0
2017-11-20 14:27:08 GMT 55.03560 -1.70640 0 0 4 0
2017-11-20 14:26:13 GMT 55.03550 -1.70640 0 0 3 0
2017-11-20 14:24:04 GMT 55.03559 -1.70640 0 0 3 0
2017-11-20 14:23:33 GMT 55.03590 -1.70664 0 331 3 0
2017-11-20 14:23:03 GMT 55.03616 -1.70702 0 323 3 0
2017-11-20 14:22:33 GMT 55.03650 -1.70712 0 0 3 0
2017-11-20 14:21:57 GMT 55.03670 -1.70711 0 2 0 0

Making use of Plane Finder data

You are free to use the raw flight data, aircraft information and images provided in this report for your own purposes provided the data is correctly attributed to Plane Finder. We ask that you please credit Plane Finder and link to planefinder.net in close proximity to the content.

Optionally one of the following logos (no smaller then 150x24px) can be used and must link to planefinder.net

Embedding the Plane Finder map

You are welcome to embed the Plane Finder playback map on your website to offer visitors a more interactive experience. We suggest using the following HTML code:

<iframe src="//planefinder.net/data/report/U26407-G-EZBK-7700-squawk-2017-11-20/map" width="800" height="600" seamless="seamless"></iframe>

Where our data comes from

Plane Finder has a global network of data feeds and antenna radars that receive data broadcast directly from aircraft. The primary technologies used are ADS-B and MLAT. We also show feeds from the FAA and a FLARM glider feed.

Click here to find out more about the Plane Finder network.

How we collect our data